Provisional Data: Yellow Breeches Creek near Lisburn, PA


Please select a monitoring station.
Please select start date.
Please select start date.

Toggle Unit: C/F Toggle Unit: C/F
Sample Time Temperature (C) Temperature (F) Specific Conductivity (mS/cm) pH   Turbidity (NTU+) DO (mg/L)
10/17/2022 12:00:00 AM 13.07 55.526 0.326 7.99 66.5 9.45
10/17/2022 12:15:00 AM 13.05 55.49 0.327 7.98 66.61 9.42
10/17/2022 12:30:00 AM 13.04 55.472 0.326 7.96 69.9 9.38
10/17/2022 12:45:00 AM 13.03 55.454 0.326 7.96 68.87 9.36
10/17/2022 1:00:00 AM 13.02 55.436 0.326 7.94 72.15 9.33
10/17/2022 1:15:00 AM 13.01 55.418 0.327 7.94 71.09 9.31
10/17/2022 1:30:00 AM 13 55.4 0.327 7.93 72.48 9.3
10/17/2022 1:45:00 AM 12.99 55.382 0.328 7.92 73.12 9.25
10/17/2022 2:00:00 AM 12.97 55.346 0.329 7.91 76.21 9.23
10/17/2022 2:15:00 AM 12.95 55.31 0.33 7.91 74.91 9.22
10/17/2022 2:30:00 AM 12.93 55.274 0.331 7.9 66.5 9.2
10/17/2022 2:45:00 AM 12.91 55.238 0.331 7.89 66.15 9.19
10/17/2022 3:00:00 AM 12.89 55.202 0.331 7.88 64.28 9.15
10/17/2022 3:15:00 AM 12.87 55.166 0.331 7.88 61.47 9.15
10/17/2022 3:30:00 AM 12.85 55.13 0.33 7.87 60.52 9.14
10/17/2022 3:45:00 AM 12.82 55.076 0.33 7.87 59.33 9.14
10/17/2022 4:00:00 AM 12.79 55.022 0.33 7.86 57.63 9.13
10/17/2022 4:15:00 AM 12.77 54.986 0.329 7.86 57.8 9.14
10/17/2022 4:30:00 AM 12.73 54.914 0.33 7.86 56.88 9.12
10/17/2022 4:45:00 AM 12.71 54.878 0.33 7.85 57.8 9.12
10/17/2022 5:00:00 AM 12.67 54.806 0.33 7.85 57.68 9.12
10/17/2022 5:15:00 AM 12.64 54.752 0.331 7.84 58.79 9.11
10/17/2022 5:30:00 AM 12.61 54.698 0.331 7.84 61.84 9.1
10/17/2022 5:45:00 AM 12.58 54.644 0.332 7.84 63.86 9.11
10/17/2022 6:00:00 AM 12.55 54.59 0.331 7.83 63.42 9.1
10/17/2022 6:15:00 AM 12.53 54.554 0.331 7.82 64.5 9.11
10/17/2022 6:30:00 AM 12.51 54.518 0.331 7.82 71.16 9.12
10/17/2022 6:45:00 AM 12.48 54.464 0.33 7.82 63.73 9.12
10/17/2022 7:00:00 AM 12.47 54.446 0.33 7.81 56.15 9.13
10/17/2022 7:15:00 AM 12.44 54.392 0.33 7.81 50.22 9.11
10/17/2022 7:30:00 AM 12.42 54.356 0.33 7.81 47.26 9.13
10/17/2022 7:45:00 AM 12.4 54.32 0.33 7.8 44.04 9.11
10/17/2022 8:00:00 AM 12.39 54.302 0.331 7.8 47.45 9.15
10/17/2022 8:15:00 AM 12.37 54.266 0.331 7.81 53.6 9.21
10/17/2022 8:30:00 AM 12.36 54.248 0.332 7.81 50.95 9.29
10/17/2022 8:45:00 AM 12.37 54.266 0.332 7.82 47.08 9.39
10/17/2022 9:00:00 AM 12.37 54.266 0.332 7.82 50.93 9.51
10/17/2022 9:15:00 AM 12.39 54.302 0.332 7.84 53.1 9.64
10/17/2022 9:30:00 AM 12.41 54.338 0.331 7.85 50.84 9.8
10/17/2022 9:45:00 AM 12.43 54.374 0.331 7.86 48.23 9.88
10/17/2022 10:00:00 AM 12.45 54.41 0.331 7.88 46.16 9.98
10/17/2022 10:15:00 AM 12.49 54.482 0.331 7.89 51.05 10.1
10/17/2022 10:30:00 AM 12.51 54.518 0.331 7.91 50.6 10.24
10/17/2022 10:45:00 AM 12.56 54.608 0.332 7.93 50.44 10.37
10/17/2022 11:00:00 AM 12.59 54.662 0.332 7.95 50.86 10.5
10/17/2022 11:15:00 AM 12.64 54.752 0.333 7.97 53.07 10.66
10/17/2022 11:30:00 AM 12.71 54.878 0.333 7.99 56.83 10.81
10/17/2022 11:45:00 AM 12.78 55.004 0.333 8.02 48.65 11.01
10/17/2022 12:00:00 PM 12.88 55.184 0.333 8.06 48.06 11.23
10/17/2022 12:15:00 PM 12.93 55.274 0.333 8.09 51.02 11.41
10/17/2022 12:30:00 PM 12.98 55.364 0.333 8.13 51.38 11.53
10/17/2022 12:45:00 PM 13 55.4 0.332 8.15 52.32 11.6
10/17/2022 1:00:00 PM 13.02 55.436 0.332 8.17 53.65 11.65
10/17/2022 1:15:00 PM 13.09 55.562 0.331 8.2 53.64 11.77
10/17/2022 1:30:00 PM 13.14 55.652 0.33 8.23 52.24 11.91
10/17/2022 1:45:00 PM 13.18 55.724 0.33 8.26 48.7 12.03
10/17/2022 2:00:00 PM 13.22 55.796 0.33 8.29 48.23 12.09
10/17/2022 2:15:00 PM 13.25 55.85 0.33 8.31 52.65 12.17
10/17/2022 2:30:00 PM 13.27 55.886 0.33 8.33 56.02 12.17
10/17/2022 2:45:00 PM 13.29 55.922 0.33 8.35 47.45 12.19
10/17/2022 3:00:00 PM 13.32 55.976 0.329 8.37 41.81 12.22
10/17/2022 3:15:00 PM 13.34 56.012 0.329 8.39 39.56 12.25
10/17/2022 3:30:00 PM 13.35 56.03 0.329 8.41 34 12.28
10/17/2022 3:45:00 PM 13.37 56.066 0.328 8.42 31.1 12.26
10/17/2022 4:00:00 PM 13.39 56.102 0.327 8.43 30.09 12.25
10/17/2022 4:15:00 PM 13.4 56.12 0.327 8.44 30.4 12.23
10/17/2022 4:30:00 PM 13.4 56.12 0.327 8.46 28.93 12.23
10/17/2022 4:45:00 PM 13.41 56.138 0.327 8.46 30.71 12.19
10/17/2022 5:00:00 PM 13.41 56.138 0.327 8.47 30.58 12.12
10/17/2022 5:15:00 PM 13.4 56.12 0.327 8.47 29.72 12.04
10/17/2022 5:30:00 PM 13.39 56.102 0.327 8.46 29.62 11.9
10/17/2022 5:45:00 PM 13.38 56.084 0.327 8.46 27.18 11.77
10/17/2022 6:00:00 PM 13.37 56.066 0.327 8.45 27.25 11.66
10/17/2022 6:15:00 PM 13.34 56.012 0.327 8.44 27.13 11.53
10/17/2022 6:30:00 PM 13.31 55.958 0.327 8.42 26.71 11.37
10/17/2022 6:45:00 PM 13.27 55.886 0.327 8.42 26.92 11.24
10/17/2022 7:00:00 PM 13.22 55.796 0.327 8.39 27.33 11.1
10/17/2022 7:15:00 PM 13.19 55.742 0.326 8.37 28.58 10.94
10/17/2022 7:30:00 PM 13.16 55.688 0.326 8.35 26.78 10.85
10/17/2022 7:45:00 PM 13.12 55.616 0.327 8.34 27.15 10.74
10/17/2022 8:00:00 PM 13.09 55.562 0.327 8.32 26.86 10.64
10/17/2022 8:15:00 PM 13.05 55.49 0.327 8.3 27.84 10.52
10/17/2022 8:30:00 PM 13.02 55.436 0.327 8.28 22.63 10.45
10/17/2022 8:45:00 PM 12.99 55.382 0.327 8.26 13.03 10.38
10/17/2022 9:00:00 PM 12.97 55.346 0.327 8.24 10.54 10.28
10/17/2022 9:15:00 PM 12.94 55.292 0.327 8.22 10.66 10.19
10/17/2022 9:30:00 PM 12.9 55.22 0.327 8.21 8.99 10.12
10/17/2022 9:45:00 PM 12.86 55.148 0.326 8.18 9.59 10.01
10/17/2022 10:00:00 PM 12.82 55.076 0.326 8.16 9.59 9.95
10/17/2022 10:15:00 PM 12.78 55.004 0.326 8.14 9.58 9.87
10/17/2022 10:30:00 PM 12.75 54.95 0.327 8.12 8.22 9.8
10/17/2022 10:45:00 PM 12.71 54.878 0.327 8.09 9.24 9.73
10/17/2022 11:00:00 PM 12.67 54.806 0.328 8.08 8.92 9.67
10/17/2022 11:15:00 PM 12.64 54.752 0.328 8.06 10.81 9.61
10/17/2022 11:30:00 PM 12.6 54.68 0.329 8.04 11.63 9.58
10/17/2022 11:45:00 PM 12.57 54.626 0.329 8.02 11.55 9.54
10/18/2022 12:00:00 AM 12.55 54.59 0.329 8.01 9.29 9.49
10/18/2022 12:15:00 AM 12.5 54.5 0.328 8 10.28 9.49
10/18/2022 12:30:00 AM 12.46 54.428 0.328 7.99 9.48 9.44
10/18/2022 12:45:00 AM 12.43 54.374 0.327 7.98 8.83 9.43
10/18/2022 1:00:00 AM 12.4 54.32 0.327 7.96 11.3 9.42
10/18/2022 1:15:00 AM 12.37 54.266 0.327 7.96 11.94 9.38
10/18/2022 1:30:00 AM 12.33 54.194 0.326 7.95 14.03 9.34
10/18/2022 1:45:00 AM 12.3 54.14 0.327 7.94 10.47 9.33
10/18/2022 2:00:00 AM 12.27 54.086 0.327 7.94 13.74 9.3
10/18/2022 2:15:00 AM 12.24 54.032 0.328 7.93 12.71 9.29
10/18/2022 2:30:00 AM 12.21 53.978 0.328 7.92 11.69 9.27
10/18/2022 2:45:00 AM 12.16 53.888 0.328 7.91 13.46 9.27
10/18/2022 3:00:00 AM 12.12 53.816 0.328 7.91 16.16 9.26
10/18/2022 3:15:00 AM 12.07 53.726 0.328 7.9 15.52 9.26
10/18/2022 3:30:00 AM 12.02 53.636 0.327 7.9 24.65 9.26
10/18/2022 3:45:00 AM 11.96 53.528 0.327 7.89 17.59 9.29
10/18/2022 4:00:00 AM 11.91 53.438 0.326 7.89 19.1 9.28
10/18/2022 4:15:00 AM 11.85 53.33 0.326 7.88 76.65 9.28
10/18/2022 4:30:00 AM 11.8 53.24 0.326 7.88 95.47 9.29
10/18/2022 4:45:00 AM 11.75 53.15 0.326 7.88 134.8 9.27
10/18/2022 5:00:00 AM 11.69 53.042 0.326 7.88 116.5 9.28
10/18/2022 5:15:00 AM 11.63 52.934 0.326 7.87 83.14 9.31
10/18/2022 5:30:00 AM 11.6 52.88 0.327 7.87 39.79 9.31
10/18/2022 5:45:00 AM 11.54 52.772 0.327 7.87 18.84 9.31
10/18/2022 6:00:00 AM 11.48 52.664 0.327 7.86 44.62 9.31
10/18/2022 6:15:00 AM 11.42 52.556 0.326 7.86 13.96 9.33
10/18/2022 6:30:00 AM 11.36 52.448 0.326 7.85 17.51 9.34
10/18/2022 6:45:00 AM 11.31 52.358 0.325 7.86 13.72 9.35
10/18/2022 7:00:00 AM 11.24 52.232 0.326 7.86 12.38 9.37
10/18/2022 7:15:00 AM 11.19 52.142 0.325 7.85 14.56 9.37
10/18/2022 7:30:00 AM 11.14 52.052 0.326 7.85 13.31 9.4
10/18/2022 7:45:00 AM 11.08 51.944 0.326 7.85 15.52 9.41
10/18/2022 8:00:00 AM 11.02 51.836 0.327 7.85 17.05 9.47
10/18/2022 8:15:00 AM 10.99 51.782 0.327 7.85 19.42 9.51
10/18/2022 8:30:00 AM 10.94 51.692 0.327 7.85 19.21 9.57
10/18/2022 8:45:00 AM 10.94 51.692 0.328 7.85 19.79 9.64
10/18/2022 9:00:00 AM 10.94 51.692 0.328 7.86 24.76 9.73
10/18/2022 9:15:00 AM 10.98 51.764 0.328 7.87 24.79 9.91
10/18/2022 9:30:00 AM 10.99 51.782 0.328 7.88 23.78 10.06
10/18/2022 9:45:00 AM 10.97 51.746 0.327 7.9 24.83 10.17
10/18/2022 10:00:00 AM 10.96 51.728 0.327 7.91 24.98 10.29
10/18/2022 10:15:00 AM 10.98 51.764 0.327 7.93 24.68 10.41
10/18/2022 10:30:00 AM 11.01 51.818 0.328 7.94 24.6 10.58
10/18/2022 10:45:00 AM 11.01 51.818 0.328 7.96 24.18 10.73
10/18/2022 11:00:00 AM 11.01 51.818 0.328 7.98 24.24 10.86
10/18/2022 11:15:00 AM 11.02 51.836 0.329 8 25.29 10.99
10/18/2022 11:30:00 AM 11.07 51.926 0.33 8.02 23.99 11.08
10/18/2022 11:45:00 AM 11.07 51.926 0.33 8.04 24.43 11.21
10/18/2022 12:00:00 PM 11.11 51.998 0.33 8.06 24.82 11.33
10/18/2022 12:15:00 PM 11.14 52.052 0.33 8.08 25.02 11.47
10/18/2022 12:30:00 PM 11.17 52.106 0.329 8.11 22.02 11.63
10/18/2022 12:45:00 PM 11.18 52.124 0.328 8.14 22.21 11.79
10/18/2022 1:00:00 PM 11.22 52.196 0.328 8.16 23.66 11.91
10/18/2022 1:15:00 PM 11.27 52.286 0.327 8.19 23 12.07
10/18/2022 1:30:00 PM 11.32 52.376 0.326 8.21 22.49 12.21
10/18/2022 1:45:00 PM 11.35 52.43 0.326 8.25 22.92 12.35
10/18/2022 2:00:00 PM 11.38 52.484 0.326 8.27 23 12.49
10/18/2022 2:15:00 PM 11.42 52.556 0.326 8.3 27.24 12.54
10/18/2022 2:30:00 PM 11.41 52.538 0.326 8.32 26.29 12.6
10/18/2022 2:45:00 PM 11.42 52.556 0.325 8.33 25.85 12.63
10/18/2022 3:00:00 PM 11.43 52.574 0.325 8.35 25.43 12.66
10/18/2022 3:15:00 PM 11.43 52.574 0.324 8.37 26.02 12.71
10/18/2022 3:30:00 PM 11.46 52.628 0.324 8.38 25.6 12.72
10/18/2022 3:45:00 PM 11.47 52.646 0.323 8.39 23.89 12.71
10/18/2022 4:00:00 PM 11.47 52.646 0.323 8.41 23.84 12.74
10/18/2022 4:15:00 PM 11.46 52.628 0.322 8.41 23.61 12.7
10/18/2022 4:30:00 PM 11.46 52.628 0.322 8.43 23.48 12.67
10/18/2022 4:45:00 PM 11.46 52.628 0.322 8.44 23.92 12.54
10/18/2022 5:00:00 PM 11.45 52.61 0.322 8.43 24.14 12.47
10/18/2022 5:15:00 PM 11.45 52.61 0.322 8.44 24.24 12.42
10/18/2022 5:30:00 PM 11.44 52.592 0.322 8.44 24.35 12.37
10/18/2022 5:45:00 PM 11.43 52.574 0.322 8.44 26.29 12.29
10/18/2022 6:00:00 PM 11.4 52.52 0.322 8.44 27.1 12.16
10/18/2022 6:15:00 PM 11.38 52.484 0.322 8.43 26.45 12
10/18/2022 6:30:00 PM 11.33 52.394 0.322 8.42 33.11 11.9
10/18/2022 6:45:00 PM 11.29 52.322 0.322 8.4 31.41 11.79
10/18/2022 7:00:00 PM 11.26 52.268 0.322 8.39 31.95 11.66
10/18/2022 7:15:00 PM 11.23 52.214 0.322 8.37 29.62 11.56
10/18/2022 7:30:00 PM 11.2 52.16 0.323 8.36 26.34 11.43
10/18/2022 7:45:00 PM 11.16 52.088 0.323 8.34 35.77 11.33
10/18/2022 8:00:00 PM 11.13 52.034 0.323 8.32 37.72 11.22
10/18/2022 8:15:00 PM 11.1 51.98 0.323 8.3 45.35 11.13
10/18/2022 8:30:00 PM 11.07 51.926 0.324 8.28 36.65 11.03
10/18/2022 8:45:00 PM 11.04 51.872 0.324 8.26 40.47 10.94
10/18/2022 9:00:00 PM 11.03 51.854 0.324 8.25 35.81 10.85
10/18/2022 9:15:00 PM 11 51.8 0.324 8.23 35.64 10.78
10/18/2022 9:30:00 PM 10.97 51.746 0.324 8.21 34.2 10.72
10/18/2022 9:45:00 PM 10.94 51.692 0.324 8.19 39.1 10.61
10/18/2022 10:00:00 PM 10.91 51.638 0.324 8.17 34.7 10.57
10/18/2022 10:15:00 PM 10.88 51.584 0.324 8.15 48.46 10.51
10/18/2022 10:30:00 PM 10.85 51.53 0.325 8.14 31.79 10.43
10/18/2022 10:45:00 PM 10.83 51.494 0.326 8.12 34.41 10.38
10/18/2022 11:00:00 PM 10.78 51.404 0.326 8.09 35.49 10.32
10/18/2022 11:15:00 PM 10.76 51.368 0.328 8.08 33.52 10.24
10/18/2022 11:30:00 PM 10.71 51.278 0.329 8.06 34.9 10.23
10/18/2022 11:45:00 PM 10.68 51.224 0.33 8.04 25.59 10.18
10/19/2022 12:00:00 AM 10.65 51.17 0.33 8.03 30.16 10.15
10/19/2022 12:15:00 AM 10.61 51.098 0.33 8.02 27.81 10.11
10/19/2022 12:30:00 AM 10.58 51.044 0.33 8 28.69 10.09
10/19/2022 12:45:00 AM 10.53 50.954 0.33 8 40.19 10.07
10/19/2022 1:00:00 AM 10.5 50.9 0.329 7.99 31.91 10.04
10/19/2022 1:15:00 AM 10.46 50.828 0.329 7.97 28.75 10.02
10/19/2022 1:30:00 AM 10.43 50.774 0.329 7.97 29.84 10.01
10/19/2022 1:45:00 AM 10.38 50.684 0.328 7.96 27.33 10.01
10/19/2022 2:00:00 AM 10.33 50.594 0.329 7.96 29.94 9.99
10/19/2022 2:15:00 AM 10.3 50.54 0.329 7.95 33.47 9.99
10/19/2022 2:30:00 AM 10.28 50.504 0.329 7.94 53.43 9.97
10/19/2022 2:45:00 AM 10.26 50.468 0.329 7.94 33.64 9.97
10/19/2022 3:00:00 AM 10.25 50.45 0.329 7.93 28.2 9.95
10/19/2022 3:15:00 AM 10.21 50.378 0.329 7.93 32.53 9.95
10/19/2022 3:30:00 AM 10.2 50.36 0.328 7.92 31.4 9.94
10/19/2022 3:45:00 AM 10.17 50.306 0.328 7.91 34.16 9.95
10/19/2022 4:00:00 AM 10.18 50.324 0.327 7.91 39.32 9.92
10/19/2022 4:15:00 AM 10.18 50.324 0.327 7.91 43.68 9.92
10/19/2022 4:30:00 AM 10.13 50.234 0.327 7.9 48.09 9.93
10/19/2022 4:45:00 AM 10.13 50.234 0.327 7.9 37.31 9.92
10/19/2022 5:00:00 AM 10.14 50.252 0.328 7.9 35.46 9.89
10/19/2022 5:15:00 AM 10.12 50.216 0.328 7.89 48.88 9.91
10/19/2022 5:30:00 AM 10.11 50.198 0.328 7.88 54.52 9.9
10/19/2022 5:45:00 AM 10.1 50.18 0.328 7.88 49.09 9.89
10/19/2022 6:00:00 AM 10.08 50.144 0.328 7.88 54.5 9.89
10/19/2022 6:15:00 AM 10.07 50.126 0.329 7.87 38.22 9.87
10/19/2022 6:30:00 AM 10.06 50.108 0.329 7.87 36.97 9.89
10/19/2022 6:45:00 AM 10.03 50.054 0.328 7.87 35.53 9.89
10/19/2022 7:00:00 AM 10 50 0.328 7.86 30.47 9.91
10/19/2022 7:15:00 AM 9.98 49.964 0.327 7.86 44.23 9.89
10/19/2022 7:30:00 AM 9.96 49.928 0.327 7.86 38.25 9.9
10/19/2022 7:45:00 AM 9.95 49.91 0.328 7.85 33.76 9.93
10/19/2022 8:00:00 AM 9.94 49.892 0.328 7.85 43.32 9.97
10/19/2022 8:15:00 AM 9.96 49.928 0.328 7.86 39.52 10.05
10/19/2022 8:30:00 AM 9.96 49.928 0.329 7.87 34.59 10.16
10/19/2022 8:45:00 AM 9.97 49.946 0.329 7.87 61.28 10.31
10/19/2022 9:00:00 AM 9.96 49.928 0.329 7.88 47.42 10.39
10/19/2022 9:15:00 AM 9.95 49.91 0.329 7.89 43.55 10.51
10/19/2022 9:30:00 AM 9.95 49.91 0.329 7.9 43.52 10.63
10/19/2022 9:45:00 AM 9.99 49.982 0.328 7.92 42.69 10.79
10/19/2022 10:00:00 AM 10.02 50.036 0.329 7.94 36.81 10.96
10/19/2022 10:15:00 AM 10.04 50.072 0.328 7.96 40.57 11.17
10/19/2022 10:30:00 AM 10.06 50.108 0.327 7.98 42.87 11.3
10/19/2022 10:45:00 AM 10.09 50.162 0.328 8 57.92 11.47
10/19/2022 11:00:00 AM 10.14 50.252 0.318 8.03 44.79 11.58
10/19/2022 11:15:00 AM 10.19 50.342 0.307 8.05 47.23 11.72
10/19/2022 11:30:00 AM 10.26 50.468 0.33 8.08 46.12 11.92
10/19/2022 11:45:00 AM 10.27 50.486 0.33 8.11 44.78 12.07
10/19/2022 12:00:00 PM 10.32 50.576 0.33 8.13 45.5 12.2
10/19/2022 12:15:00 PM 10.35 50.63 0.329 8.15 45.32 12.28
10/19/2022 12:30:00 PM 10.32 50.576 0.329 8.17 45.74 12.36
10/19/2022 12:45:00 PM 10.34 50.612 0.328 8.2 44.16 12.41
10/19/2022 1:00:00 PM 10.34 50.612 0.328 8.22 46.83 12.39
10/19/2022 1:15:00 PM 10.35 50.63 0.327 8.23 46.44 12.43
10/19/2022 1:30:00 PM 10.35 50.63 0.326 8.25 43.49 12.51
10/19/2022 1:45:00 PM 10.35 50.63 0.326 8.27 46.41 12.64
10/19/2022 2:00:00 PM 10.39 50.702 0.326 8.3 378.7 12.75
10/19/2022 2:15:00 PM 10.43 50.774 0.326 8.32 430.1 12.87
10/19/2022 2:30:00 PM 10.43 50.774 0.325 8.34 46.63 12.92
10/19/2022 2:45:00 PM 10.45 50.81 0.325 8.36 46.68 12.97
10/19/2022 3:00:00 PM 10.48 50.864 0.325 8.38 597.9 13.02
10/19/2022 3:15:00 PM 10.49 50.882 0.325 8.4 57.45 13.07
10/19/2022 3:30:00 PM 10.52 50.936 0.324 8.41 54.14 13.05
10/19/2022 3:45:00 PM 10.52 50.936 0.324 8.42 51.99 13.03
10/19/2022 4:00:00 PM 10.55 50.99 0.324 8.43 53.24 12.98
10/19/2022 4:15:00 PM 10.57 51.026 0.323 8.44 48.19 12.99
10/19/2022 4:30:00 PM 10.56 51.008 0.323 8.44 51.63 12.92
10/19/2022 4:45:00 PM 10.58 51.044 0.323 8.44 54.36 12.86
10/19/2022 5:00:00 PM 10.56 51.008 0.323 8.44 56.15 12.79
10/19/2022 5:15:00 PM 10.56 51.008 0.323 8.43 49.91 12.7
10/19/2022 5:30:00 PM 10.55 50.99 0.323 8.43 54.34 12.65
10/19/2022 5:45:00 PM 10.54 50.972 0.324 8.43 59.89 12.57
10/19/2022 6:00:00 PM 10.51 50.918 0.324 8.42 52.69 12.46
10/19/2022 6:15:00 PM 10.48 50.864 0.324 8.41 52.59 12.31
10/19/2022 6:30:00 PM 10.47 50.846 0.324 8.4 57.75 12.16
10/19/2022 6:45:00 PM 10.44 50.792 0.324 8.39 60.5 12.01
10/19/2022 7:00:00 PM 10.43 50.774 0.324 8.38 62.79 11.93
10/19/2022 7:15:00 PM 10.4 50.72 0.324 8.36 58.05 11.81
10/19/2022 7:30:00 PM 10.39 50.702 0.324 8.35 50.9 11.69
10/19/2022 7:45:00 PM 10.36 50.648 0.324 8.33 60.55 11.59
10/19/2022 8:00:00 PM 10.33 50.594 0.325 8.31 51.89 11.48
10/19/2022 8:15:00 PM 10.32 50.576 0.325 8.29 51.3 11.38
10/19/2022 8:30:00 PM 10.29 50.522 0.325 8.27 68.44 11.28
10/19/2022 8:45:00 PM 10.26 50.468 0.325 8.26 72.58 11.21
10/19/2022 9:00:00 PM 10.22 50.396 0.326 8.24 60.43 11.13
10/19/2022 9:15:00 PM 10.2 50.36 0.325 8.22 71.49 11.05
10/19/2022 9:30:00 PM 10.19 50.342 0.325 8.2 55.67 10.99
10/19/2022 9:45:00 PM 10.16 50.288 0.325 8.19 56.82 10.91
10/19/2022 10:00:00 PM 10.12 50.216 0.325 8.17 56.44 10.84
10/19/2022 10:15:00 PM 10.11 50.198 0.325 8.15 51.26 10.77
10/19/2022 10:30:00 PM 10.1 50.18 0.325 8.13 52.26 10.7
10/19/2022 10:45:00 PM 10.07 50.126 0.325 8.11 67.37 10.65
10/19/2022 11:00:00 PM 10.04 50.072 0.326 8.09 64.17 10.58
10/19/2022 11:15:00 PM 10.04 50.072 0.326 8.07 51.53 10.53
10/19/2022 11:30:00 PM 10.05 50.09 0.327 8.05 51.8 10.49
10/19/2022 11:45:00 PM 10.02 50.036 0.328 8.04 52.21 10.45
10/20/2022 12:00:00 AM 10.02 50.036 0.328 8.03 49.28 10.41
10/20/2022 12:15:00 AM 10.01 50.018 0.328 8.01 62.66 10.35
10/20/2022 12:30:00 AM 10.02 50.036 0.327 8 52.93 10.33
10/20/2022 12:45:00 AM 9.98 49.964 0.327 7.99 61.47 10.31
10/20/2022 1:00:00 AM 9.95 49.91 0.327 7.98 80.53 10.29
10/20/2022 1:15:00 AM 9.94 49.892 0.326 7.97 72.51 10.28
10/20/2022 1:30:00 AM 9.91 49.838 0.326 7.96 65.4 10.26
10/20/2022 1:45:00 AM 9.88 49.784 0.326 7.96 68.43 10.25
10/20/2022 2:00:00 AM 9.85 49.73 0.326 7.95 63.04 10.23
10/20/2022 2:15:00 AM 9.84 49.712 0.326 7.94 60.67 10.21
10/20/2022 2:30:00 AM 9.8 49.64 0.326 7.93 66.15 10.19
10/20/2022 2:45:00 AM 9.77 49.586 0.327 7.93 74.37 10.19
10/20/2022 3:00:00 AM 9.74 49.532 0.326 7.92 66.58 10.17
10/20/2022 3:15:00 AM 9.73 49.514 0.326 7.92 63.81 10.16
10/20/2022 3:30:00 AM 9.68 49.424 0.326 7.92 72.69 10.15
10/20/2022 3:45:00 AM 9.66 49.388 0.325 7.91 80.31 10.15
10/20/2022 4:00:00 AM 9.62 49.316 0.325 7.91 76.27 10.15
10/20/2022 4:15:00 AM 9.6 49.28 0.325 7.9 77.85 10.15
10/20/2022 4:30:00 AM 9.57 49.226 0.325 7.9 66.35 10.12
10/20/2022 4:45:00 AM 9.53 49.154 0.325 7.9 77.37 10.13
10/20/2022 5:00:00 AM 9.49 49.082 0.325 7.89 79.75 10.14
10/20/2022 5:15:00 AM 9.46 49.028 0.326 7.89 79.17 10.14
10/20/2022 5:30:00 AM 9.42 48.956 0.326 7.88 97.92 10.15
10/20/2022 5:45:00 AM 9.39 48.902 0.326 7.88 84.91 10.14
10/20/2022 6:00:00 AM 9.35 48.83 0.327 7.88 76.91 10.14
10/20/2022 6:15:00 AM 9.31 48.758 0.326 7.87 98.4 10.17
10/20/2022 6:30:00 AM 9.29 48.722 0.326 7.87 91.06 10.15
10/20/2022 6:45:00 AM 9.25 48.65 0.326 7.87 95.4 10.17
10/20/2022 7:00:00 AM 9.21 48.578 0.326 7.87 86.55 10.17
10/20/2022 7:15:00 AM 9.17 48.506 0.326 7.86 92.56 10.17
10/20/2022 7:30:00 AM 9.14 48.452 0.326 7.86 83.95 10.19
10/20/2022 7:45:00 AM 9.12 48.416 0.326 7.86 112.5 10.21
10/20/2022 8:00:00 AM 9.08 48.344 0.327 7.86 94.28 10.24
10/20/2022 8:15:00 AM 9.06 48.308 0.327 7.86 90.47 10.28
10/20/2022 8:30:00 AM 9.05 48.29 0.328 7.86 82.28 10.35
10/20/2022 8:45:00 AM 9.05 48.29 0.328 7.87 92.57 10.43
10/20/2022 9:00:00 AM 9.1 48.38 0.328 7.88 73.09 10.54
10/20/2022 9:15:00 AM 9.16 48.488 0.328 7.89 77.39 10.71
10/20/2022 9:30:00 AM 9.22 48.596 0.328 7.9 76.11 10.82
10/20/2022 9:45:00 AM 9.23 48.614 0.328 7.91 74.9 10.95
10/20/2022 10:00:00 AM 9.23 48.614 0.328 7.92 80.02 11.08
10/20/2022 10:15:00 AM 9.29 48.722 0.327 7.94 88.54 11.2
10/20/2022 10:30:00 AM 9.27 48.686 0.327 7.95 67.89 11.34
10/20/2022 10:45:00 AM 9.31 48.758 0.328 7.97 74.52 11.47
10/20/2022 11:00:00 AM 9.36 48.848 0.328 8 77.31 11.61
10/20/2022 11:15:00 AM 9.41 48.938 0.329 8.02 76.6 11.71
10/20/2022 11:30:00 AM 9.46 49.028 0.329 8.04 85.84 11.83
10/20/2022 11:45:00 AM 9.53 49.154 0.33 8.06 79.83 11.92
10/20/2022 12:00:00 PM 9.58 49.244 0.33 8.08 83.71 12.03
10/20/2022 12:15:00 PM 9.63 49.334 0.33 8.1 84.18 12.16
10/20/2022 12:30:00 PM 9.68 49.424 0.33 8.11 77.11 12.26
10/20/2022 12:45:00 PM 9.74 49.532 0.33 8.13 81.34 12.33
10/20/2022 1:00:00 PM 9.8 49.64 0.329 8.16 80.17 12.44
10/20/2022 1:15:00 PM 9.86 49.748 0.328 8.18 145.4 12.48
10/20/2022 1:30:00 PM 9.9 49.82 0.328 8.19 125.4 12.56
10/20/2022 1:45:00 PM 9.95 49.91 0.328 8.21 128.2 12.61
10/20/2022 2:00:00 PM 10 50 0.328 8.22 144.5 12.51
10/20/2022 2:15:00 PM 10.05 50.09 0.328 8.24 148.3 12.63
10/20/2022 2:30:00 PM 10.11 50.198 0.328 8.26 151.6 12.62
10/20/2022 2:45:00 PM 10.17 50.306 0.328 8.28 159.5 12.71
10/20/2022 3:00:00 PM 10.21 50.378 0.328 8.29 137.7 12.85
10/20/2022 3:15:00 PM 10.25 50.45 0.328 8.31 35.1 12.77
10/20/2022 3:30:00 PM 10.28 50.504 0.327 8.33 43.55 12.82
10/20/2022 3:45:00 PM 10.32 50.576 0.327 8.34 34.77 12.78
10/20/2022 4:00:00 PM 10.33 50.594 0.326 8.35 31.1 12.81
10/20/2022 4:15:00 PM 10.33 50.594 0.327 8.36 55.93 12.81
10/20/2022 4:30:00 PM 10.35 50.63 0.326 8.37 31.62 12.83
10/20/2022 4:45:00 PM 10.36 50.648 0.326 8.37 30.09 12.78
10/20/2022 5:00:00 PM 10.35 50.63 0.326 8.37 49.98 12.68
10/20/2022 5:15:00 PM 10.34 50.612 0.326 8.37 22.93 12.62
10/20/2022 5:30:00 PM 10.33 50.594 0.326 8.37 24.07 12.53
10/20/2022 5:45:00 PM 10.32 50.576 0.326 8.36 29.9 12.42
10/20/2022 6:00:00 PM 10.29 50.522 0.326 8.36 26.86 12.35
10/20/2022 6:15:00 PM 10.26 50.468 0.326 8.35 28.62 12.23
10/20/2022 6:30:00 PM 10.24 50.432 0.326 8.34 26.04 12.11
10/20/2022 6:45:00 PM 10.2 50.36 0.326 8.32 29.48 11.89
10/20/2022 7:00:00 PM 10.16 50.288 0.326 8.3 33.71 11.68
10/20/2022 7:15:00 PM 10.12 50.216 0.326 8.29 36.57 11.71
10/20/2022 7:30:00 PM 10.09 50.162 0.326 8.27 41.52 11.66
10/20/2022 7:45:00 PM 10.06 50.108 0.326 8.25 113.3 11.52
10/20/2022 8:00:00 PM 10.02 50.036 0.326 8.23 40.19 11.45
10/20/2022 8:15:00 PM 9.99 49.982 0.326 8.22 36.02 11.32
10/20/2022 8:30:00 PM 9.95 49.91 0.327 8.2 37.37 11.25
10/20/2022 8:45:00 PM 9.93 49.874 0.327 8.19 38.31 11.13
10/20/2022 9:00:00 PM 9.91 49.838 0.327 8.17 36.06 11.11
10/20/2022 9:15:00 PM 9.88 49.784 0.327 8.15 38.66 11.03
10/20/2022 9:30:00 PM 9.85 49.73 0.327 8.14 64.68 10.97
10/20/2022 9:45:00 PM 9.81 49.658 0.327 8.13 57.94 10.89
10/20/2022 10:00:00 PM 9.78 49.604 0.327 8.11 56.38 10.83
10/20/2022 10:15:00 PM 9.75 49.55 0.327 8.1 58.58 10.78
10/20/2022 10:30:00 PM 9.72 49.496 0.328 8.08 61.02 10.74
10/20/2022 10:45:00 PM 9.7 49.46 0.329 8.07 58.03 10.67
10/20/2022 11:00:00 PM 9.69 49.442 0.329 8.05 117.9 10.63
10/20/2022 11:15:00 PM 9.68 49.424 0.331 8.04 49.67 10.55
10/20/2022 11:30:00 PM 9.67 49.406 0.331 8.02 48.21 10.51
10/20/2022 11:45:00 PM 9.67 49.406 0.332 8.01 48.22 10.47
10/21/2022 12:00:00 AM 9.67 49.406 0.333 7.99 50.07 10.43
10/21/2022 12:15:00 AM 9.66 49.388 0.333 7.98 48.28 10.4
10/21/2022 12:30:00 AM 9.65 49.37 0.333 7.97 56.58 10.37
10/21/2022 12:45:00 AM 9.63 49.334 0.333 7.96 56.32 10.35
10/21/2022 1:00:00 AM 9.63 49.334 0.333 7.95 51.79 10.3
10/21/2022 1:15:00 AM 9.62 49.316 0.333 7.94 52.76 10.29
10/21/2022 1:30:00 AM 9.61 49.298 0.332 7.93 50.82 10.27
10/21/2022 1:45:00 AM 9.6 49.28 0.332 7.92 53.79 10.25
10/21/2022 2:00:00 AM 9.59 49.262 0.333 7.92 52.34 10.21
10/21/2022 2:15:00 AM 9.58 49.244 0.333 7.91 53.13 10.2
10/21/2022 2:30:00 AM 9.56 49.208 0.333 7.9 56.79 10.22
10/21/2022 2:45:00 AM 9.56 49.208 0.333 7.9 64.44 10.18
10/21/2022 3:00:00 AM 9.54 49.172 0.334 7.9 62.1 10.17
10/21/2022 3:15:00 AM 9.52 49.136 0.333 7.89 23.34 10.15
10/21/2022 3:30:00 AM 9.51 49.118 0.333 7.89 23.07 10.13
10/21/2022 3:45:00 AM 9.48 49.064 0.333 7.88 24.37 10.12
10/21/2022 4:00:00 AM 9.47 49.046 0.332 7.88 22.69 10.08
10/21/2022 4:15:00 AM 9.44 48.992 0.332 7.88 25.47 10.13
10/21/2022 4:30:00 AM 9.41 48.938 0.331 7.87 24.94 10.11
10/21/2022 4:45:00 AM 9.39 48.902 0.331 7.87 25.78 10.13
10/21/2022 5:00:00 AM 9.36 48.848 0.332 7.87 25.97 10.05
10/21/2022 5:15:00 AM 9.32 48.776 0.332 7.86 32.77 10.09
10/21/2022 5:30:00 AM 9.3 48.74 0.332 7.86 21.46 9.98
10/21/2022 5:45:00 AM 9.27 48.686 0.332 7.86 22.63 10.07
10/21/2022 6:00:00 AM 9.23 48.614 0.332 7.85 23.68 10.1
10/21/2022 6:15:00 AM 9.19 48.542 0.332 7.85 24.14 10.06
10/21/2022 6:30:00 AM 9.16 48.488 0.331 7.85 57.49 10.14
10/21/2022 6:45:00 AM 9.12 48.416 0.331 7.84 22.64 10.13
10/21/2022 7:00:00 AM 9.08 48.344 0.331 7.84 24.41 10.14
10/21/2022 7:15:00 AM 9.04 48.272 0.33 7.84 26 10.15
10/21/2022 7:30:00 AM 8.99 48.182 0.33 7.83 25.94 10.17
10/21/2022 7:45:00 AM 8.95 48.11 0.33 7.83 46.23 10.18
10/21/2022 8:00:00 AM 8.92 48.056 0.331 7.83 34.52 10.21
10/21/2022 8:15:00 AM 8.88 47.984 0.331 7.83 33.96 10.27
10/21/2022 8:30:00 AM 8.86 47.948 0.331 7.83 32.22 10.33
10/21/2022 8:45:00 AM 8.85 47.93 0.331 7.84 31.21 10.4
10/21/2022 9:00:00 AM 8.87 47.966 0.331 7.85 32.05 10.56
10/21/2022 9:15:00 AM 8.91 48.038 0.331 7.86 31.67 10.72
10/21/2022 9:30:00 AM 8.94 48.092 0.331 7.87 33.18 10.84
10/21/2022 9:45:00 AM 8.96 48.128 0.331 7.88 34.71 10.98
10/21/2022 10:00:00 AM 9.02 48.236 0.331 7.89 35.31 11.1
10/21/2022 10:15:00 AM 9.05 48.29 0.331 7.91 34.23 11.24
10/21/2022 10:30:00 AM 9.1 48.38 0.331 7.93 34.28 11.38
10/21/2022 10:45:00 AM 9.12 48.416 0.331 7.95 33.28 11.5
10/21/2022 11:00:00 AM 9.18 48.524 0.332 7.97 32.38 11.68
10/21/2022 11:15:00 AM 9.23 48.614 0.332 7.99 33.23 11.8
10/21/2022 11:30:00 AM 9.29 48.722 0.333 8.01 34.51 11.91
10/21/2022 11:45:00 AM 9.38 48.884 0.333 8.03 34.56 12.04
10/21/2022 12:00:00 PM 9.43 48.974 0.333 8.05 35.37 12.12
10/21/2022 12:15:00 PM 9.5 49.1 0.333 8.07 34.7 12.28
10/21/2022 12:30:00 PM 9.56 49.208 0.333 8.09 34.05 12.36
10/21/2022 12:45:00 PM 9.62 49.316 0.333 8.11 35.07 12.47
10/21/2022 1:00:00 PM 9.68 49.424 0.332 8.13 35.21 12.58
10/21/2022 1:15:00 PM 9.75 49.55 0.332 8.15 36.2 12.67
10/21/2022 1:30:00 PM 9.81 49.658 0.331 8.18 36.98 12.77
10/21/2022 1:45:00 PM 9.88 49.784 0.331 8.19 35.73 12.84
10/21/2022 2:00:00 PM 9.95 49.91 0.331 8.21 34.8 12.92
10/21/2022 2:15:00 PM 10.03 50.054 0.331 8.24 37.36 12.97
10/21/2022 2:30:00 PM 10.1 50.18 0.331 8.26 39.18 13.05
10/21/2022 2:45:00 PM 10.17 50.306 0.331 8.27 41.1 13.08
10/21/2022 3:00:00 PM 10.23 50.414 0.33 8.3 40.02 13.12
10/21/2022 3:15:00 PM 10.29 50.522 0.33 8.31 40.84 13.13
10/21/2022 3:30:00 PM 10.35 50.63 0.33 8.32 40.26 13.17
10/21/2022 3:45:00 PM 10.4 50.72 0.33 8.34 41.26 13.16
10/21/2022 4:00:00 PM 10.43 50.774 0.329 8.34 41.22 13.12
10/21/2022 4:15:00 PM 10.46 50.828 0.329 8.36 42.15 13.12
10/21/2022 4:30:00 PM 10.49 50.882 0.329 8.36 44.08 13.09
10/21/2022 4:45:00 PM 10.5 50.9 0.329 8.37 44.15 12.97
10/21/2022 5:00:00 PM 10.51 50.918 0.329 8.37 45.34 12.94
10/21/2022 5:15:00 PM 10.52 50.936 0.329 8.37 46.59 12.88
10/21/2022 5:30:00 PM 10.52 50.936 0.329 8.37 46.02 12.76
10/21/2022 5:45:00 PM 10.51 50.918 0.329 8.36 46.4 12.65
10/21/2022 6:00:00 PM 10.49 50.882 0.33 8.35 57.82 12.53
10/21/2022 6:15:00 PM 10.47 50.846 0.33 8.34 46.54 12.36
10/21/2022 6:30:00 PM 10.44 50.792 0.33 8.33 46.99 12.26
10/21/2022 6:45:00 PM 10.41 50.738 0.33 8.31 46.86 12.09
10/21/2022 7:00:00 PM 10.38 50.684 0.33 8.3 47.74 11.96
10/21/2022 7:15:00 PM 10.35 50.63 0.33 8.28 47.74 11.83
10/21/2022 7:30:00 PM 10.32 50.576 0.33 8.26 48.54 11.68
10/21/2022 7:45:00 PM 10.28 50.504 0.33 8.24 51.2 11.6
10/21/2022 8:00:00 PM 10.25 50.45 0.33 8.22 51.11 11.48
10/21/2022 8:15:00 PM 10.21 50.378 0.33 8.2 51.07 11.39
10/21/2022 8:30:00 PM 10.18 50.324 0.331 8.19 107 11.29
10/21/2022 8:45:00 PM 10.16 50.288 0.331 8.18 103.8 11.2
10/21/2022 9:00:00 PM 10.13 50.234 0.331 8.16 100.9 11.13
10/21/2022 9:15:00 PM 10.12 50.216 0.331 8.14 92.81 11.03
10/21/2022 9:30:00 PM 10.09 50.162 0.331 8.12 91.53 10.99
10/21/2022 9:45:00 PM 10.06 50.108 0.331 8.12 159.5 10.93
10/21/2022 10:00:00 PM 10.04 50.072 0.331 8.1 177.3 10.86
10/21/2022 10:15:00 PM 10.01 50.018 0.331 8.08 187.6 10.79
10/21/2022 10:30:00 PM 9.98 49.964 0.331 8.07 115.5 10.75
10/21/2022 10:45:00 PM 9.97 49.946 0.332 8.05 115.4 10.68
10/21/2022 11:00:00 PM 9.94 49.892 0.333 8.03 108.1 10.62
10/21/2022 11:15:00 PM 9.92 49.856 0.335 8.02 104 10.57
10/21/2022 11:30:00 PM 9.89 49.802 0.336 8 140.8 10.54
10/21/2022 11:45:00 PM 9.88 49.784 0.337 7.99 125.1 10.48
10/22/2022 12:00:00 AM 9.86 49.748 0.338 7.98 120.4 10.41
10/22/2022 12:15:00 AM 9.83 49.694 0.338 7.96 120.5 10.42
10/22/2022 12:30:00 AM 9.81 49.658 0.338 7.95 122.6 10.35
10/22/2022 12:45:00 AM 9.8 49.64 0.338 7.94 111.3 10.37
10/22/2022 1:00:00 AM 9.78 49.604 0.337 7.93 134.4 10.34
10/22/2022 1:15:00 AM 9.76 49.568 0.336 7.93 109.5 10.31
10/22/2022 1:30:00 AM 9.74 49.532 0.336 7.92 117.3 10.28
10/22/2022 1:45:00 AM 9.72 49.496 0.335 7.91 110.7 10.27
10/22/2022 2:00:00 AM 9.71 49.478 0.335 7.91 102.5 10.27
10/22/2022 2:15:00 AM 9.69 49.442 0.335 7.9 103.1 10.24
10/22/2022 2:30:00 AM 9.67 49.406 0.335 7.9 108 10.22
10/22/2022 2:45:00 AM 9.66 49.388 0.335 7.89 116.3 10.21
10/22/2022 3:00:00 AM 9.64 49.352 0.335 7.89 104.7 10.2
10/22/2022 3:15:00 AM 9.64 49.352 0.334 7.89 100.1 10.18
10/22/2022 3:30:00 AM 9.61 49.298 0.334 7.88 77.25 10.17
10/22/2022 3:45:00 AM 9.6 49.28 0.333 7.88 69.84 10.14
10/22/2022 4:00:00 AM 9.58 49.244 0.332 7.88 76.29 10.16
10/22/2022 4:15:00 AM 9.54 49.172 0.331 7.87 69.88 10.13
10/22/2022 4:30:00 AM 9.52 49.136 0.331 7.87 67.36 10.15
10/22/2022 4:45:00 AM 9.5 49.1 0.331 7.87 65.51 10.14
10/22/2022 5:00:00 AM 9.47 49.046 0.331 7.86 63.94 10.15
10/22/2022 5:15:00 AM 9.45 49.01 0.331 7.86 63.2 10.1
10/22/2022 5:30:00 AM 9.42 48.956 0.332 7.85 62.33 10.12
10/22/2022 5:45:00 AM 9.4 48.92 0.332 7.86 62.11 10.13
10/22/2022 6:00:00 AM 9.36 48.848 0.332 7.85 80.76 10.12
10/22/2022 6:15:00 AM 9.33 48.794 0.332 7.85 69.07 10.14
10/22/2022 6:30:00 AM 9.29 48.722 0.332 7.84 66.49 10.13
10/22/2022 6:45:00 AM 9.26 48.668 0.331 7.85 68.37 10.16
10/22/2022 7:00:00 AM 9.22 48.596 0.331 7.84 70.34 10.14
10/22/2022 7:15:00 AM 9.19 48.542 0.331 7.84 64.4 10.16
10/22/2022 7:30:00 AM 9.14 48.452 0.33 7.84 55.6 10.18
10/22/2022 7:45:00 AM 9.11 48.398 0.33 7.85 61.01 10.13
10/22/2022 8:00:00 AM 9.08 48.344 0.331 7.84 105.3 10.22
10/22/2022 8:15:00 AM 9.05 48.29 0.331 7.84 49.35 10.27
10/22/2022 8:30:00 AM 9.04 48.272 0.332 7.84 49.64 10.35
10/22/2022 8:45:00 AM 9.04 48.272 0.332 7.85 54.87 10.42
10/22/2022 9:00:00 AM 9.06 48.308 0.332 7.86 45.33 10.55
10/22/2022 9:15:00 AM 9.12 48.416 0.332 7.87 50.91 10.71
10/22/2022 9:30:00 AM 9.14 48.452 0.332 7.88 32.33 10.84
10/22/2022 9:45:00 AM 9.17 48.506 0.332 7.89 29.62 10.98
10/22/2022 10:00:00 AM 9.22 48.596 0.331 7.91 33.03 11.07
10/22/2022 10:15:00 AM 9.25 48.65 0.331 7.92 32.49 11.24
10/22/2022 10:30:00 AM 9.28 48.704 0.332 7.94 33.04 11.38
10/22/2022 10:45:00 AM 9.32 48.776 0.332 7.96 35.8 11.54
10/22/2022 11:00:00 AM 9.39 48.902 0.332 7.98 35.01 11.68
10/22/2022 11:15:00 AM 9.46 49.028 0.333 7.99 33.98 11.81
10/22/2022 11:30:00 AM 9.54 49.172 0.334 8.02 34.12 11.95
10/22/2022 11:45:00 AM 9.61 49.298 0.334 8.04 36.56 12.05
10/22/2022 12:00:00 PM 9.67 49.406 0.335 8.06 34.98 12.17
10/22/2022 12:15:00 PM 9.74 49.532 0.335 8.08 37.34 12.3
10/22/2022 12:30:00 PM 9.81 49.658 0.335 8.1 38.73 12.38
10/22/2022 12:45:00 PM 9.89 49.802 0.334 8.13 31.2 12.51
10/22/2022 1:00:00 PM 9.96 49.928 0.334 8.15 30.7 12.57
10/22/2022 1:15:00 PM 10.04 50.072 0.334 8.17 28.84 12.69
10/22/2022 1:30:00 PM 10.12 50.216 0.333 8.19 32.27 12.79
10/22/2022 1:45:00 PM 10.19 50.342 0.333 8.21 30.93 12.82
10/22/2022 2:00:00 PM 10.27 50.486 0.333 8.23 31.28 12.89
10/22/2022 2:15:00 PM 10.36 50.648 0.333 8.25 30.65 12.93
10/22/2022 2:30:00 PM 10.44 50.792 0.334 8.28 32.48 13.03
10/22/2022 2:45:00 PM 10.52 50.936 0.334 8.29 34.97 13.05
10/22/2022 3:00:00 PM 10.59 51.062 0.334 8.31 32.99 13.11
10/22/2022 3:15:00 PM 10.66 51.188 0.334 8.33 32.38 13.16
10/22/2022 3:30:00 PM 10.72 51.296 0.333 8.34 36.85 13.11
10/22/2022 3:45:00 PM 10.77 51.386 0.333 8.35 38.16 13.14
10/22/2022 4:00:00 PM 10.82 51.476 0.332 8.36 37.06 13.13
10/22/2022 4:15:00 PM 10.86 51.548 0.332 8.38 37.6 13.07
10/22/2022 4:30:00 PM 10.89 51.602 0.332 8.38 37.21 13
10/22/2022 4:45:00 PM 10.92 51.656 0.332 8.39 36.24 12.97
10/22/2022 5:00:00 PM 10.94 51.692 0.332 8.39 45 12.93
10/22/2022 5:15:00 PM 10.96 51.728 0.332 8.4 39.22 12.84
10/22/2022 5:30:00 PM 10.96 51.728 0.332 8.39 42.55 12.73
10/22/2022 5:45:00 PM 10.96 51.728 0.332 8.38 42.7 12.62
10/22/2022 6:00:00 PM 10.94 51.692 0.332 8.35 136.4 12.18
10/22/2022 6:15:00 PM 10.93 51.674 0.332 8.35 41.53 12.22
10/22/2022 6:30:00 PM 10.91 51.638 0.333 8.34 79.91 12.07
10/22/2022 6:45:00 PM 10.89 51.602 0.333 8.33 12.59 11.88
10/22/2022 7:00:00 PM 10.86 51.548 0.332 8.31 25.41 11.8
10/22/2022 7:15:00 PM 10.84 51.512 0.332 8.29 172.7 11.7
10/22/2022 7:30:00 PM 10.81 51.458 0.332 8.26 20.19 11.4
10/22/2022 7:45:00 PM 10.78 51.404 0.332 8.25 146.6 11.25
10/22/2022 8:00:00 PM 10.76 51.368 0.332 8.22 17.31 11.25
10/22/2022 8:15:00 PM 10.73 51.314 0.333 8.2 26.72 11.15
10/22/2022 8:30:00 PM 10.71 51.278 0.333 8.19 117.3 11.06
10/22/2022 8:45:00 PM 10.69 51.242 0.333 8.16 11.9 11.04
10/22/2022 9:00:00 PM 10.66 51.188 0.333 8.15 46.63 10.88
10/22/2022 9:15:00 PM 10.65 51.17 0.333 8.14 19.43 10.83
10/22/2022 9:30:00 PM 10.63 51.134 0.333 8.12 18.42 10.74
10/22/2022 9:45:00 PM 10.61 51.098 0.333 8.1 15.57 10.65
10/22/2022 10:00:00 PM 10.59 51.062 0.334 8.09 19.93 10.61
10/22/2022 10:15:00 PM 10.57 51.026 0.333 8.07 28.24 10.56
10/22/2022 10:30:00 PM 10.54 50.972 0.334 8.05 13.58 10.54
10/22/2022 10:45:00 PM 10.52 50.936 0.334 8.04 55.75 10.42
10/22/2022 11:00:00 PM 10.5 50.9 0.335 8.02 40.92 10.42
10/22/2022 11:15:00 PM 10.48 50.864 0.335 8.01 10.91 10.3
10/22/2022 11:30:00 PM 10.46 50.828 0.336 7.99 10.74 10.28
10/22/2022 11:45:00 PM 10.44 50.792 0.336 7.97 190.4 10.25
10/23/2022 12:00:00 AM 10.43 50.774 0.336 7.96 16.64 10.18
10/23/2022 12:15:00 AM 10.4 50.72 0.336 7.94 27.03 10.15
10/23/2022 12:30:00 AM 10.39 50.702 0.337 7.94 11.85 10.05
10/23/2022 12:45:00 AM 10.37 50.666 0.336 7.92 14.49 10.09
10/23/2022 1:00:00 AM 10.35 50.63 0.335 7.92 35.4 10.08
10/23/2022 1:15:00 AM 10.33 50.594 0.335 7.91 11.49 10.03
10/23/2022 1:30:00 AM 10.31 50.558 0.335 7.9 12.72 10.05
10/23/2022 1:45:00 AM 10.29 50.522 0.335 7.89 13.21 10
10/23/2022 2:00:00 AM 10.28 50.504 0.336 7.89 13.08 9.96
10/23/2022 2:15:00 AM 10.26 50.468 0.336 7.89 12.03 9.87
10/23/2022 2:30:00 AM 10.25 50.45 0.336 7.88 3048 9.93
10/23/2022 2:45:00 AM 10.23 50.414 0.337 7.87 2831 9.88
10/23/2022 3:00:00 AM 10.22 50.396 0.337 7.87 2032 9.91
10/23/2022 3:15:00 AM 10.2 50.36 0.337 7.86 3195 9.98
10/23/2022 3:30:00 AM 10.19 50.342 0.337 7.86 2964 9.89
10/23/2022 3:45:00 AM 10.17 50.306 0.336 7.85 4525 9.88
10/23/2022 4:00:00 AM 10.15 50.27 0.335 7.85 4525 9.83
10/23/2022 4:15:00 AM 10.13 50.234 0.335 7.85 4525 9.85
10/23/2022 4:30:00 AM 10.1 50.18 0.335 7.85 4525 9.91
10/23/2022 4:45:00 AM 10.09 50.162 0.334 7.84 3226 9.9
10/23/2022 5:00:00 AM 10.06 50.108 0.335 7.84 3344 9.84
10/23/2022 5:15:00 AM 10.04 50.072 0.335 7.84 4525 9.84
10/23/2022 5:30:00 AM 10.02 50.036 0.335 7.83 4507 9.87
10/23/2022 5:45:00 AM 9.99 49.982 0.335 7.83 4525 9.83
10/23/2022 6:00:00 AM 9.97 49.946 0.335 7.83 2030 9.83
10/23/2022 6:15:00 AM 9.94 49.892 0.334 7.82 4525 9.85
10/23/2022 6:30:00 AM 9.91 49.838 0.334 7.81 2827 9.88
10/23/2022 6:45:00 AM 9.88 49.784 0.333 7.81 4342 9.78
10/23/2022 7:00:00 AM 9.85 49.73 0.332 7.82 3167 9.8
10/23/2022 7:15:00 AM 9.81 49.658 0.332 7.81 3480 9.83
10/23/2022 7:30:00 AM 9.78 49.604 0.332 7.81 4525 9.89
10/23/2022 7:45:00 AM 9.75 49.55 0.332 7.8 3892 9.91
10/23/2022 8:00:00 AM 9.73 49.514 0.331 7.81 4033 9.95
10/23/2022 8:15:00 AM 9.71 49.478 0.332 7.81 3753 9.97
10/23/2022 8:30:00 AM 9.69 49.442 0.332 7.81 3585 10.07
10/23/2022 8:45:00 AM 9.67 49.406 0.332 7.81 2402 10.11
10/23/2022 9:00:00 AM 9.67 49.406 0.332 7.83 2583 10.22
10/23/2022 9:15:00 AM 9.67 49.406 0.332 7.83 2905 10.34
10/23/2022 9:30:00 AM 9.71 49.478 0.331 7.85 2726 10.44
10/23/2022 9:45:00 AM 9.7 49.46 0.33 7.86 3333 10.64
10/23/2022 10:00:00 AM 9.72 49.496 0.33 7.87 2363 10.61
10/23/2022 10:15:00 AM 9.76 49.568 0.329 7.89 3273 10.9
10/23/2022 10:30:00 AM 9.85 49.73 0.329 7.91 4056 11.14
10/23/2022 10:45:00 AM 9.89 49.802 0.329 7.93 3662 11.43
10/23/2022 11:00:00 AM 9.94 49.892 0.329 7.96 2703 11.59
10/23/2022 11:15:00 AM 9.99 49.982 0.329 7.99 3568 11.7
10/23/2022 11:30:00 AM 10.07 50.126 0.329 8.01 2299 11.92
10/23/2022 11:45:00 AM 10.14 50.252 0.329 8.04 2120 12.02
10/23/2022 12:00:00 PM 10.25 50.45 0.329 8.08 2370 12.25
10/23/2022 12:15:00 PM 10.36 50.648 0.329 8.11 3725 12.53
10/23/2022 12:30:00 PM 10.45 50.81 0.328 8.15 2630 12.76
10/23/2022 12:45:00 PM 10.53 50.954 0.328 8.19 2557 12.86
10/23/2022 1:00:00 PM 10.57 51.026 0.327 8.21 2586 12.92
10/23/2022 1:15:00 PM 10.62 51.116 0.327 8.23 2355 13.05
10/23/2022 1:30:00 PM 10.65 51.17 0.326 8.26 2106 13.17
10/23/2022 1:45:00 PM 10.7 51.26 0.326 8.27 1859 13.16
10/23/2022 2:00:00 PM 10.77 51.386 0.326 8.3 2117 13.26
10/23/2022 2:15:00 PM 10.84 51.512 0.326 8.33 2381 13.31
10/23/2022 2:30:00 PM 10.88 51.584 0.326 8.34 2825 13.44
10/23/2022 2:45:00 PM 10.91 51.638 0.327 8.36 2748 13.29
10/23/2022 3:00:00 PM 10.95 51.71 0.327 8.37 1575 13.3
10/23/2022 3:15:00 PM 10.99 51.782 0.328 8.38 1542 13.29
10/23/2022 3:30:00 PM 11.04 51.872 0.326 8.4 943.5 13.37
10/23/2022 3:45:00 PM 11.08 51.944 0.326 8.41 1284 13.35
10/23/2022 4:00:00 PM 11.12 52.016 0.327 8.42 1259 13.29
10/23/2022 4:15:00 PM 11.14 52.052 0.326 8.43 2881 13.24
10/23/2022 4:30:00 PM 11.17 52.106 0.326 8.43 2263 13.1
10/23/2022 4:45:00 PM 11.19 52.142 0.326 8.43 2326 13.01
10/23/2022 5:00:00 PM 11.21 52.178 0.326 8.43 1647 13.02
10/23/2022 5:15:00 PM 11.22 52.196 0.327 8.43 2183 12.89
10/23/2022 5:30:00 PM 11.23 52.214 0.327 8.42 2302 12.82
10/23/2022 5:45:00 PM 11.23 52.214 0.328 8.41 1992 12.55
10/23/2022 6:00:00 PM 11.23 52.214 0.328 8.4 2031 12.4
10/23/2022 6:15:00 PM 11.23 52.214 0.328 8.39 1373 12.14
10/23/2022 6:30:00 PM 11.23 52.214 0.329 8.36 1609 12.14
10/23/2022 6:45:00 PM 11.22 52.196 0.329 8.34 1603 11.91
10/23/2022 7:00:00 PM 11.21 52.178 0.329 8.32 1518 11.79
10/23/2022 7:15:00 PM 11.21 52.178 0.329 8.3 1892 11.61
10/23/2022 7:30:00 PM 11.2 52.16 0.329 8.28 1914 11.54
10/23/2022 7:45:00 PM 11.2 52.16 0.33 8.26 1802 11.37
10/23/2022 8:00:00 PM 11.19 52.142 0.33 8.24 1724 11.26
10/23/2022 8:15:00 PM 11.18 52.124 0.33 8.21 1510 11.15
10/23/2022 8:30:00 PM 11.18 52.124 0.331 8.19 2097 11.04
10/23/2022 8:45:00 PM 11.18 52.124 0.331 8.17 2178 11
10/23/2022 9:00:00 PM 11.18 52.124 0.332 8.15 1853 10.84
10/23/2022 9:15:00 PM 11.18 52.124 0.332 8.12 1838 10.75
10/23/2022 9:30:00 PM 11.18 52.124 0.332 8.1 1927 10.64
10/23/2022 9:45:00 PM 11.18 52.124 0.332 8.08 2121 10.55
10/23/2022 10:00:00 PM 11.19 52.142 0.332 8.06 2270 10.45
10/23/2022 10:15:00 PM 11.19 52.142 0.332 8.04 1780 10.42
10/23/2022 10:30:00 PM 11.2 52.16 0.332 8.02 1978 10.3
10/23/2022 10:45:00 PM 11.2 52.16 0.333 8.01 2067 10.26
10/23/2022 11:00:00 PM 11.21 52.178 0.334 7.99 2193 10.24
10/23/2022 11:15:00 PM 11.22 52.196 0.334 7.97 1801 10.12
10/23/2022 11:30:00 PM 11.23 52.214 0.336 7.95 2018 10.09
10/23/2022 11:45:00 PM 11.24 52.232 0.336 7.94 1741 9.94
10/24/2022 12:00:00 AM 11.26 52.268 0.336 7.92 1768 10.01
10/24/2022 12:15:00 AM 11.27 52.286 0.335 7.92 1753 9.95
10/24/2022 12:30:00 AM 11.29 52.322 0.335 7.91 1805 9.9
10/24/2022 12:45:00 AM 11.3 52.34 0.334 7.89 1607 9.84
10/24/2022 1:00:00 AM 11.31 52.358 0.335 7.89 1673 9.72
10/24/2022 1:15:00 AM 11.33 52.394 0.335 7.87 1355 9.79
10/24/2022 1:30:00 AM 11.35 52.43 0.334 7.87 1441 9.78
10/24/2022 1:45:00 AM 11.36 52.448 0.335 7.86 1864 9.68
10/24/2022 2:00:00 AM 11.38 52.484 0.335 7.85 1576 9.71
10/24/2022 2:15:00 AM 11.4 52.52 0.336 7.84 1786 9.68
10/24/2022 2:30:00 AM 11.42 52.556 0.336 7.83 1564 9.72
10/24/2022 2:45:00 AM 11.44 52.592 0.337 7.83 1488 9.65
10/24/2022 3:00:00 AM 11.46 52.628 0.337 7.82 1563 9.6
10/24/2022 3:15:00 AM 11.49 52.682 0.337 7.82 1889 9.56
10/24/2022 3:30:00 AM 11.5 52.7 0.337 7.81 1791 9.57
10/24/2022 3:45:00 AM 11.52 52.736 0.336 7.8 1883 9.52
10/24/2022 4:00:00 AM 11.54 52.772 0.335 7.8 1904 9.51
10/24/2022 4:15:00 AM 11.56 52.808 0.335 7.8 2176 9.45
10/24/2022 4:30:00 AM 11.57 52.826 0.335 7.8 1929 9.4
10/24/2022 4:45:00 AM 11.59 52.862 0.335 7.8 2151 9.43
10/24/2022 5:00:00 AM 11.6 52.88 0.335 7.79 2361 9.38
10/24/2022 5:15:00 AM 11.61 52.898 0.336 7.79 2052 9.43
10/24/2022 5:30:00 AM 11.63 52.934 0.336 7.78 2872 9.35
10/24/2022 5:45:00 AM 11.65 52.97 0.337 7.78 3113 9.35
10/24/2022 6:00:00 AM 11.66 52.988 0.336 7.77 3157 9.35
10/24/2022 6:15:00 AM 11.67 53.006 0.336 7.77 2984 9.32
10/24/2022 6:30:00 AM 11.68 53.024 0.336 7.77 2929 9.33
10/24/2022 6:45:00 AM 11.69 53.042 0.336 7.76 3249 9.29
10/24/2022 7:00:00 AM 11.7 53.06 0.335 7.76 2149 9.34
10/24/2022 7:15:00 AM 11.7 53.06 0.335 7.76 2396 9.3
10/24/2022 7:30:00 AM 11.71 53.078 0.335 7.76 3084 9.28
10/24/2022 7:45:00 AM 11.72 53.096 0.335 7.75 2346 9.23
10/24/2022 8:00:00 AM 11.73 53.114 0.335 7.75 4451 9.3
10/24/2022 8:15:00 AM 11.74 53.132 0.336 7.75 2770 9.3
10/24/2022 8:30:00 AM 11.77 53.186 0.336 7.76 3495 9.36
10/24/2022 8:45:00 AM 11.8 53.24 0.336 7.76 3059 9.52
10/24/2022 9:00:00 AM 11.83 53.294 0.336 7.77 1748 9.67
10/24/2022 9:15:00 AM 11.84 53.312 0.335 7.78 1713 9.65
10/24/2022 9:30:00 AM 11.87 53.366 0.335 7.79 1173 9.78
10/24/2022 9:45:00 AM 11.9 53.42 0.335 7.81 1214 9.93
10/24/2022 10:00:00 AM 11.94 53.492 0.334 7.83 954.3 10.05
10/24/2022 10:15:00 AM 12.01 53.618 0.334 7.85 936.6 10.32
10/24/2022 10:30:00 AM 12.06 53.708 0.334 7.87 916.4 10.46
10/24/2022 10:45:00 AM 12.12 53.816 0.334 7.9 891.5 10.77
10/24/2022 11:00:00 AM 12.2 53.96 0.334 7.93 930.3 10.94
10/24/2022 11:15:00 AM 12.23 54.014 0.335 7.96 1200 11.12
10/24/2022 11:30:00 AM 12.27 54.086 0.335 7.98 1909 11.27
10/24/2022 11:45:00 AM 12.29 54.122 0.335 8 1414 11.34
10/24/2022 12:00:00 PM 12.33 54.194 0.335 8.02 1408 11.38
10/24/2022 12:15:00 PM 12.37 54.266 0.335 8.04 1360 11.42
10/24/2022 12:30:00 PM 12.42 54.356 0.334 8.06 1030 11.55
10/24/2022 12:45:00 PM 12.46 54.428 0.334 8.08 1007 11.74
10/24/2022 1:00:00 PM 12.5 54.5 0.333 8.11 1143 11.72
10/24/2022 1:15:00 PM 12.52 54.536 0.332 8.13 1236 11.86
10/24/2022 1:30:00 PM 12.56 54.608 0.332 8.15 1241 11.82
10/24/2022 1:45:00 PM 12.6 54.68 0.332 8.17 1591 11.99
10/24/2022 2:00:00 PM 12.64 54.752 0.331 8.19 1399 12.07
10/24/2022 2:15:00 PM 12.69 54.842 0.331 8.21 1470 12.18
10/24/2022 2:30:00 PM 12.73 54.914 0.331 8.24 1570 12.27
10/24/2022 2:45:00 PM 12.76 54.968 0.331 8.26 1653 12.36
10/24/2022 3:00:00 PM 12.78 55.004 0.331 8.28 1686 12.29
10/24/2022 3:15:00 PM 12.8 55.04 0.331 8.29 1665 12.23
10/24/2022 3:30:00 PM 12.82 55.076 0.33 8.29 1873 12.21
10/24/2022 3:45:00 PM 12.84 55.112 0.33 8.3 1782 12.14
10/24/2022 4:00:00 PM 12.86 55.148 0.329 8.31 2240 12.16
10/24/2022 4:15:00 PM 12.88 55.184 0.329 8.31 2487 11.99
10/24/2022 4:30:00 PM 12.89 55.202 0.329 8.32 2520 11.89
10/24/2022 4:45:00 PM 12.9 55.22 0.329 8.33 3071 11.83
10/24/2022 5:00:00 PM 12.91 55.238 0.329 8.32 3696 11.63
10/24/2022 5:15:00 PM 12.91 55.238 0.328 8.31 4525 11.63
10/24/2022 5:30:00 PM 12.92 55.256 0.329 8.31 4525 11.52
10/24/2022 5:45:00 PM 12.92 55.256 0.328 8.3 4525 11.38
10/24/2022 6:00:00 PM 12.92 55.256 0.328 8.28 4525 11.24
10/24/2022 6:15:00 PM 12.92 55.256 0.328 8.27 4525 11.12
10/24/2022 6:30:00 PM 12.93 55.274 0.328 8.25 4525 10.96
10/24/2022 6:45:00 PM 12.93 55.274 0.328 8.23 4525 10.89
10/24/2022 7:00:00 PM 12.93 55.274 0.328 8.21 674.9 10.78
10/24/2022 7:15:00 PM 12.93 55.274 0.328 8.2 215.5 10.69
10/24/2022 7:30:00 PM 12.93 55.274 0.328 8.17 197.8 10.55
10/24/2022 7:45:00 PM 12.92 55.256 0.328 8.16 195 10.44
10/24/2022 8:00:00 PM 12.92 55.256 0.328 8.13 188.8 10.38
10/24/2022 8:15:00 PM 12.92 55.256 0.328 8.12 207.4 10.21
10/24/2022 8:30:00 PM 12.92 55.256 0.328 8.09 173 10.12
10/24/2022 8:45:00 PM 12.93 55.274 0.328 8.07 196.5 10.03
10/24/2022 9:00:00 PM 12.93 55.274 0.329 8.05 184.7 9.97
10/24/2022 9:15:00 PM 12.93 55.274 0.329 8.03 207.7 9.93
10/24/2022 9:30:00 PM 12.93 55.274 0.328 8.01 190.3 9.84
10/24/2022 9:45:00 PM 12.94 55.292 0.328 7.99 186.7 9.74
10/24/2022 10:00:00 PM 12.94 55.292 0.329 7.97 168.2 9.7
10/24/2022 10:15:00 PM 12.94 55.292 0.328 7.95 155.7 9.65
10/24/2022 10:30:00 PM 12.95 55.31 0.329 7.93 162.2 9.53
10/24/2022 10:45:00 PM 12.95 55.31 0.329 7.92 143.4 9.51
10/24/2022 11:00:00 PM 12.96 55.328 0.33 7.91 142.1 9.52
10/24/2022 11:15:00 PM 12.97 55.346 0.331 7.89 124.9 9.43
10/24/2022 11:30:00 PM 12.98 55.364 0.331 7.88 123 9.38
10/24/2022 11:45:00 PM 12.98 55.364 0.332 7.87 124.7 9.35
10/25/2022 12:00:00 AM 12.99 55.382 0.332 7.86 113.1 9.32
10/25/2022 12:15:00 AM 13 55.4 0.332 7.85 119.9 9.29
10/25/2022 12:30:00 AM 13.01 55.418 0.332 7.84 128.7 9.27
10/25/2022 12:45:00 AM 13.01 55.418 0.331 7.83 118.9 9.25
10/25/2022 1:00:00 AM 13.02 55.436 0.331 7.82 120.8 9.22
10/25/2022 1:15:00 AM 13.03 55.454 0.33 7.81 121.9 9.19
10/25/2022 1:30:00 AM 13.04 55.472 0.33 7.81 135.4 9.17
10/25/2022 1:45:00 AM 13.05 55.49 0.33 7.8 127.9 9.11
10/25/2022 2:00:00 AM 13.06 55.508 0.33 7.8 118.4 9.12
10/25/2022 2:15:00 AM 13.07 55.526 0.33 7.79 127 9.08
10/25/2022 2:30:00 AM 13.08 55.544 0.331 7.78 134.6 9.06
10/25/2022 2:45:00 AM 13.1 55.58 0.33 7.78 133.6 9.07
10/25/2022 3:00:00 AM 13.11 55.598 0.33 7.77 118.7 9.04
10/25/2022 3:15:00 AM 13.12 55.616 0.33 7.77 117.2 8.98
10/25/2022 3:30:00 AM 13.13 55.634 0.33 7.76 110 9.02
10/25/2022 3:45:00 AM 13.13 55.634 0.329 7.75 108.5 8.98
10/25/2022 4:00:00 AM 13.14 55.652 0.328 7.75 106.5 8.99
10/25/2022 4:15:00 AM 13.15 55.67 0.328 7.74 110.6 8.97
10/25/2022 4:30:00 AM 13.16 55.688 0.328 7.74 114.8 8.92
10/25/2022 4:45:00 AM 13.16 55.688 0.329 7.73 110.6 8.92
10/25/2022 5:00:00 AM 13.17 55.706 0.329 7.72 111.2 8.9
10/25/2022 5:15:00 AM 13.17 55.706 0.33 7.72 81.18 8.91
10/25/2022 5:30:00 AM 13.18 55.724 0.33 7.71 72.86 8.89
10/25/2022 5:45:00 AM 13.18 55.724 0.331 7.71 74.68 8.87
10/25/2022 6:00:00 AM 13.19 55.742 0.331 7.71 73.78 8.88
10/25/2022 6:15:00 AM 13.19 55.742 0.331 7.7 82.06 8.86
10/25/2022 6:30:00 AM 13.19 55.742 0.331 7.7 87.44 8.86
10/25/2022 6:45:00 AM 13.2 55.76 0.331 7.69 77.9 8.87
10/25/2022 7:00:00 AM 13.2 55.76 0.331 7.69 78.01 8.82
10/25/2022 7:15:00 AM 13.2 55.76 0.331 7.69 71.72 8.84
10/25/2022 7:30:00 AM 13.2 55.76 0.331 7.69 76.94 8.85
10/25/2022 7:45:00 AM 13.21 55.778 0.332 7.68 76.21 8.83
10/25/2022 8:00:00 AM 13.21 55.778 0.332 7.68 76.72 8.85
10/25/2022 8:15:00 AM 13.22 55.796 0.333 7.68 74.86 8.9
10/25/2022 8:30:00 AM 13.24 55.832 0.334 7.69 78.51 8.96
10/25/2022 8:45:00 AM 13.26 55.868 0.334 7.69 76.67 9.01
10/25/2022 9:00:00 AM 13.28 55.904 0.334 7.7 82.93 9.13
10/25/2022 9:15:00 AM 13.31 55.958 0.334 7.72 73.36 9.31
10/25/2022 9:30:00 AM 13.33 55.994 0.334 7.73 77.52 9.39
10/25/2022 9:45:00 AM 13.35 56.03 0.334 7.74 75.44 9.48
10/25/2022 10:00:00 AM 13.39 56.102 0.334 7.76 76.37 9.67
10/25/2022 10:15:00 AM 13.43 56.174 0.334 7.78 78.43 9.87
10/25/2022 10:30:00 AM 13.46 56.228 0.334 7.8 73.44 10.06
10/25/2022 10:45:00 AM 13.49 56.282 0.335 7.83 81.88 10.19
10/25/2022 11:00:00 AM 13.54 56.372 0.335 7.85 78.67 10.38
10/25/2022 11:15:00 AM 13.59 56.462 0.336 7.87 77.89 10.52
10/25/2022 11:30:00 AM 13.63 56.534 0.336 7.9 83.28 10.7
10/25/2022 11:45:00 AM 13.67 56.606 0.337 7.93 85.89 10.84
10/25/2022 12:00:00 PM 13.7 56.66 0.337 7.95 83.27 10.94
10/25/2022 12:15:00 PM 13.74 56.732 0.337 7.97 97.12 11.05
10/25/2022 12:30:00 PM 13.78 56.804 0.336 7.99 157.3 11.14
10/25/2022 12:45:00 PM 13.8 56.84 0.336 8.01 233.9 11.13
10/25/2022 1:00:00 PM 13.83 56.894 0.335 8.03 79.1 11.24
10/25/2022 1:15:00 PM 13.87 56.966 0.335 8.05 79.64 11.35
10/25/2022 1:30:00 PM 13.9 57.02 0.335 8.07 80.93 11.43
10/25/2022 1:45:00 PM 13.92 57.056 0.334 8.09 81.38 11.49
10/25/2022 2:00:00 PM 13.95 57.11 0.334 8.11 82.51 11.52
10/25/2022 2:15:00 PM 13.98 57.164 0.334 8.13 72.09 11.58
10/25/2022 2:30:00 PM 14 57.2 0.334 8.14 75.62 11.57
10/25/2022 2:45:00 PM 14.03 57.254 0.334 8.15 66.61 11.6
10/25/2022 3:00:00 PM 14.05 57.29 0.334 8.16 75.62 11.59
10/25/2022 3:15:00 PM 14.08 57.344 0.334 8.18 70.51 11.59
10/25/2022 3:30:00 PM 14.1 57.38 0.333 8.18 77.07 11.57
10/25/2022 3:45:00 PM 14.12 57.416 0.333 8.19 75.61 11.5
10/25/2022 4:00:00 PM 14.14 57.452 0.332 8.19 77.9 11.43
10/25/2022 4:15:00 PM 14.15 57.47 0.332 8.18 83.48 11.37
10/25/2022 4:30:00 PM 14.16 57.488 0.332 8.19 79.85 11.3
10/25/2022 4:45:00 PM 14.17 57.506 0.332 8.18 88.77 11.18
10/25/2022 5:00:00 PM 14.18 57.524 0.332 8.18 73.82 11.09
10/25/2022 5:15:00 PM 14.17 57.506 0.332 8.16 68.87 10.96
10/25/2022 5:30:00 PM 14.17 57.506 0.332 8.14 72.98 10.82
10/25/2022 5:45:00 PM 14.17 57.506 0.332 8.13 62.19 10.66
10/25/2022 6:00:00 PM 14.17 57.506 0.332 8.12 57.27 10.56
10/25/2022 6:15:00 PM 14.17 57.506 0.332 8.1 57.8 10.4
10/25/2022 6:30:00 PM 14.16 57.488 0.332 8.08 65.69 10.29
10/25/2022 6:45:00 PM 14.16 57.488 0.332 8.06 69.32 10.2
10/25/2022 7:00:00 PM 14.15 57.47 0.332 8.05 64.67 10.1
10/25/2022 7:15:00 PM 14.15 57.47 0.332 8.03 96.21 9.96
10/25/2022 7:30:00 PM 14.14 57.452 0.332 8.02 73.59 9.89
10/25/2022 7:45:00 PM 14.14 57.452 0.332 8 77.36 9.82
10/25/2022 8:00:00 PM 14.14 57.452 0.333 7.98 69.12 9.74
10/25/2022 8:15:00 PM 14.14 57.452 0.333 7.97 70.68 9.66
10/25/2022 8:30:00 PM 14.14 57.452 0.333 7.95 76.38 9.56
10/25/2022 8:45:00 PM 14.14 57.452 0.333 7.94 70.03 9.5
10/25/2022 9:00:00 PM 14.13 57.434 0.333 7.93 69.3 9.44
10/25/2022 9:15:00 PM 14.13 57.434 0.333 7.91 71.45 9.36
10/25/2022 9:30:00 PM 14.13 57.434 0.333 7.9 66.24 9.31
10/25/2022 9:45:00 PM 14.13 57.434 0.332 7.89 70.02 9.22
10/25/2022 10:00:00 PM 14.13 57.434 0.332 7.87 79.02 9.17
10/25/2022 10:15:00 PM 14.13 57.434 0.332 7.86 75.94 9.13
10/25/2022 10:30:00 PM 14.13 57.434 0.332 7.85 74.23 9.08
10/25/2022 10:45:00 PM 14.13 57.434 0.333 7.84 73.33 9.06
10/25/2022 11:00:00 PM 14.13 57.434 0.333 7.83 82.92 9.02
10/25/2022 11:15:00 PM 14.14 57.452 0.334 7.82 73.99 8.98
10/25/2022 11:30:00 PM 14.14 57.452 0.334 7.82 80.04 8.94
10/25/2022 11:45:00 PM 14.14 57.452 0.335 7.81 83.88 8.9
10/26/2022 12:00:00 AM 14.15 57.47 0.335 7.8 75.31 8.87
10/26/2022 12:15:00 AM 14.15 57.47 0.334 7.8 76.55 8.85
10/26/2022 12:30:00 AM 14.16 57.488 0.334 7.8 80.92 8.82
10/26/2022 12:45:00 AM 14.16 57.488 0.333 7.79 83.66 8.81
10/26/2022 1:00:00 AM 14.16 57.488 0.332 7.79 87.04 8.77
10/26/2022 1:15:00 AM 14.16 57.488 0.332 7.78 90.43 8.74
10/26/2022 1:30:00 AM 14.17 57.506 0.332 7.78 93.47 8.73
10/26/2022 1:45:00 AM 14.17 57.506 0.332 7.78 100.1 8.71
10/26/2022 2:00:00 AM 14.17 57.506 0.332 7.77 138.7 8.68
10/26/2022 2:15:00 AM 14.17 57.506 0.332 7.77 120.3 8.67
10/26/2022 2:30:00 AM 14.17 57.506 0.333 7.76 109.8 8.66
10/26/2022 2:45:00 AM 14.17 57.506 0.333 7.76 130.5 8.64
10/26/2022 3:00:00 AM 14.17 57.506 0.332 7.76 127.3 8.62
10/26/2022 3:15:00 AM 14.16 57.488 0.332 7.76 140 8.62
10/26/2022 3:30:00 AM 14.16 57.488 0.332 7.75 136 8.6
10/26/2022 3:45:00 AM 14.16 57.488 0.331 7.74 124 8.6
10/26/2022 4:00:00 AM 14.15 57.47 0.33 7.74 133.3 8.59
10/26/2022 4:15:00 AM 14.14 57.452 0.33 7.74 119.5 8.58
10/26/2022 4:30:00 AM 14.13 57.434 0.329 7.74 124.6 8.58
10/26/2022 4:45:00 AM 14.13 57.434 0.329 7.74 134.9 8.55
10/26/2022 5:00:00 AM 14.12 57.416 0.329 7.73 154.5 8.55
10/26/2022 5:15:00 AM 14.12 57.416 0.33 7.73 143.4 8.54
10/26/2022 5:30:00 AM 14.11 57.398 0.33 7.73 131.9 8.53
10/26/2022 5:45:00 AM 14.11 57.398 0.33 7.73 136 8.54
10/26/2022 6:00:00 AM 14.11 57.398 0.33 7.73 133.3 8.53
10/26/2022 6:15:00 AM 14.1 57.38 0.33 7.72 137.2 8.54
10/26/2022 6:30:00 AM 14.09 57.362 0.329 7.72 134.1 8.52
10/26/2022 6:45:00 AM 14.09 57.362 0.329 7.72 129.2 8.52
10/26/2022 7:00:00 AM 14.08 57.344 0.329 7.72 127.7 8.52
10/26/2022 7:15:00 AM 14.07 57.326 0.329 7.72 131.9 8.52
10/26/2022 7:30:00 AM 14.06 57.308 0.329 7.72 128.6 8.51
10/26/2022 7:45:00 AM 14.06 57.308 0.329 7.72 73.58 8.51
10/26/2022 8:00:00 AM 14.05 57.29 0.33 7.71 70.2 8.56
10/26/2022 8:15:00 AM 14.04 57.272 0.331 7.73 74.58 8.57
10/26/2022 8:30:00 AM 14.04 57.272 0.332 7.72 137.5 8.67
10/26/2022 8:45:00 AM 14.05 57.29 0.332 7.73 113.1 8.77
10/26/2022 9:00:00 AM 14.07 57.326 0.332 7.74 129.2 8.9
10/26/2022 9:15:00 AM 14.08 57.344 0.333 7.75 111.9 8.98
10/26/2022 9:30:00 AM 14.09 57.362 0.332 7.77 108.5 9.12
10/26/2022 9:45:00 AM 14.1 57.38 0.332 7.78 99.66 9.18
10/26/2022 10:00:00 AM 14.11 57.398 0.332 7.78 85.92 9.29
10/26/2022 10:15:00 AM 14.13 57.434 0.332 7.8 80.24 9.4
10/26/2022 10:30:00 AM 14.16 57.488 0.333 7.81 71.25 9.52
10/26/2022 10:45:00 AM 14.2 57.56 0.333 7.83 74.96 9.72
10/26/2022 11:00:00 AM 14.25 57.65 0.334 7.86 115.5 9.92
10/26/2022 11:15:00 AM 14.27 57.686 0.335 7.88 117.2 10.06
10/26/2022 11:30:00 AM 14.3 57.74 0.335 7.91 139.1 10.15
10/26/2022 11:45:00 AM 14.3 57.74 0.336 7.92 82.49 10.13
10/26/2022 12:00:00 PM 14.31 57.758 0.336 7.93 126.6 10.2
10/26/2022 12:15:00 PM 14.34 57.812 0.336 7.95 126.3 10.34
10/26/2022 12:30:00 PM 14.37 57.866 0.336 7.97 123.9 10.51
10/26/2022 12:45:00 PM 14.38 57.884 0.336 7.99 127 10.58
10/26/2022 1:00:00 PM 14.38 57.884 0.335 8 139.9 10.56
10/26/2022 1:15:00 PM 14.38 57.884 0.335 8.02 130.5 10.55
10/26/2022 1:30:00 PM 14.39 57.902 0.334 8.03 132.4 10.59
10/26/2022 1:45:00 PM 14.42 57.956 0.334 8.05 107 10.75
10/26/2022 2:00:00 PM 14.49 58.082 0.334 8.08 122.7 10.98
10/26/2022 2:15:00 PM 14.55 58.19 0.334 8.11 144.6 11.19
10/26/2022 2:30:00 PM 14.58 58.244 0.334 8.15 148.1 11.32
10/26/2022 2:45:00 PM 14.59 58.262 0.334 8.16 136 11.35
10/26/2022 3:00:00 PM 14.59 58.262 0.334 8.17 150.8 11.29
10/26/2022 3:15:00 PM 14.62 58.316 0.334 8.19 130.3 11.26
10/26/2022 3:30:00 PM 14.63 58.334 0.334 8.2 132.8 11.31
10/26/2022 3:45:00 PM 14.67 58.406 0.333 8.22 104.3 11.41
10/26/2022 4:00:00 PM 14.7 58.46 0.333 8.24 126.8 11.46
10/26/2022 4:15:00 PM 14.72 58.496 0.332 8.27 117.4 11.52
10/26/2022 4:30:00 PM 14.72 58.496 0.331 8.27 117.4 11.47
10/26/2022 4:45:00 PM 14.72 58.496 0.331 8.27 134 11.44
10/26/2022 5:00:00 PM 14.72 58.496 0.331 8.27 128.4 11.34
10/26/2022 5:15:00 PM 14.73 58.514 0.331 8.28 127.4 11.27
10/26/2022 5:30:00 PM 14.73 58.514 0.331 8.28 139.1 11.15
10/26/2022 5:45:00 PM 14.73 58.514 0.331 8.27 140.4 11.05
10/26/2022 6:00:00 PM 14.73 58.514 0.331 8.26 162 10.9
10/26/2022 6:15:00 PM 14.72 58.496 0.331 8.25 152.3 10.71
10/26/2022 6:30:00 PM 14.71 58.478 0.33 8.23 156.5 10.59
10/26/2022 6:45:00 PM 14.7 58.46 0.33 8.21 167.8 10.47
10/26/2022 7:00:00 PM 14.7 58.46 0.33 8.19 206.1 10.36
10/26/2022 7:15:00 PM 14.69 58.442 0.33 8.18 203.2 10.23
10/26/2022 7:30:00 PM 14.68 58.424 0.33 8.16 221.5 10.12
10/26/2022 7:45:00 PM 14.67 58.406 0.33 8.14 106 10
10/26/2022 8:00:00 PM 14.65 58.37 0.33 8.12 96.7 9.89
10/26/2022 8:15:00 PM 14.64 58.352 0.33 8.1 113.5 9.77
10/26/2022 8:30:00 PM 14.62 58.316 0.331 8.08 87.77 9.67
10/26/2022 8:45:00 PM 14.59 58.262 0.331 8.06 103.4 9.56
10/26/2022 9:00:00 PM 14.57 58.226 0.331 8.04 102.9 9.45
10/26/2022 9:15:00 PM 14.54 58.172 0.331 8.02 77.32 9.39
10/26/2022 9:30:00 PM 14.51 58.118 0.331 8.01 82.9 9.29
10/26/2022 9:45:00 PM 14.48 58.064 0.33 7.98 68.51 9.22
10/26/2022 10:00:00 PM 14.47 58.046 0.33 7.97 75.86 9.15
10/26/2022 10:15:00 PM 14.44 57.992 0.331 7.96 74.2 9.06
10/26/2022 10:30:00 PM 14.41 57.938 0.331 7.94 73.07 9
10/26/2022 10:45:00 PM 14.39 57.902 0.332 7.92 93.64 8.9
10/26/2022 11:00:00 PM 14.37 57.866 0.332 7.9 78.27 8.82
10/26/2022 11:15:00 PM 14.34 57.812 0.333 7.89 26.9 8.83
10/26/2022 11:30:00 PM 14.31 57.758 0.334 7.87 114.6 8.8
10/26/2022 11:45:00 PM 14.28 57.704 0.335 7.86 91.71 8.73
10/27/2022 12:00:00 AM 14.25 57.65 0.335 7.85 63.57 8.74
10/27/2022 12:15:00 AM 14.23 57.614 0.336 7.84 71.19 8.71
10/27/2022 12:30:00 AM 14.21 57.578 0.335 7.83 73.38 8.68
10/27/2022 12:45:00 AM 14.2 57.56 0.335 7.83 71.43 8.68
10/27/2022 1:00:00 AM 14.18 57.524 0.335 7.82 42.96 8.63
10/27/2022 1:15:00 AM 14.16 57.488 0.334 7.81 33.11 8.64
10/27/2022 1:30:00 AM 14.12 57.416 0.334 7.81 56.19 8.6
10/27/2022 1:45:00 AM 14.11 57.398 0.335 7.81 55.83 8.6
10/27/2022 2:00:00 AM 14.09 57.362 0.335 7.8 53.09 8.61
10/27/2022 2:15:00 AM 14.07 57.326 0.336 7.8 61.63 8.57
10/27/2022 2:30:00 AM 14.05 57.29 0.336 7.79 42.93 8.54
10/27/2022 2:45:00 AM 14.03 57.254 0.336 7.79 61.78 8.55
10/27/2022 3:00:00 AM 14.01 57.218 0.337 7.78 61.2 8.53
10/27/2022 3:15:00 AM 14 57.2 0.336 7.78 73.56 8.55
10/27/2022 3:30:00 AM 13.97 57.146 0.336 7.78 86.03 8.53
10/27/2022 3:45:00 AM 13.94 57.092 0.336 7.77 75.89 8.5
10/27/2022 4:00:00 AM 13.92 57.056 0.335 7.76 48.72 8.52
10/27/2022 4:15:00 AM 13.88 56.984 0.335 7.76 67.87 8.51
10/27/2022 4:30:00 AM 13.85 56.93 0.334 7.75 64.22 8.49
10/27/2022 4:45:00 AM 13.81 56.858 0.335 7.75 66.59 8.47
10/27/2022 5:00:00 AM 13.77 56.786 0.335 7.75 59.15 8.51
10/27/2022 5:15:00 AM 13.74 56.732 0.335 7.75 61.37 8.5
10/27/2022 5:30:00 AM 13.72 56.696 0.335 7.75 43.86 8.49
10/27/2022 5:45:00 AM 13.7 56.66 0.336 7.75 62.69 8.5
10/27/2022 6:00:00 AM 13.69 56.642 0.336 7.74 64.83 8.48
10/27/2022 6:15:00 AM 13.66 56.588 0.336 7.74 63.19 8.48
10/27/2022 6:30:00 AM 13.63 56.534 0.335 7.73 43 8.47
10/27/2022 6:45:00 AM 13.6 56.48 0.335 7.73 45.4 8.48
10/27/2022 7:00:00 AM 13.57 56.426 0.334 7.73 72.5 8.52
10/27/2022 7:15:00 AM 13.54 56.372 0.334 7.73 58.15 8.48
10/27/2022 7:30:00 AM 13.52 56.336 0.334 7.73 63.96 8.5
10/27/2022 7:45:00 AM 13.49 56.282 0.334 7.73 96.04 8.51
10/27/2022 8:00:00 AM 13.48 56.264 0.334 7.72 73.73 8.5
10/27/2022 8:15:00 AM 13.45 56.21 0.334 7.73 89.02 8.56
10/27/2022 8:30:00 AM 13.44 56.192 0.335 7.73 97.92 8.64
10/27/2022 8:45:00 AM 13.44 56.192 0.335 7.73 91.96 8.76
10/27/2022 9:00:00 AM 13.43 56.174 0.335 7.74 91.67 8.87
10/27/2022 9:15:00 AM 13.45 56.21 0.335 7.76 103.6 9.05
10/27/2022 9:30:00 AM 13.48 56.264 0.335 7.77 84.39 9.2
10/27/2022 9:45:00 AM 13.42 56.156 0.334 7.79 69.07 9.32
10/27/2022 10:00:00 AM 13.48 56.264 0.334 7.81 80.47 9.49
10/27/2022 10:15:00 AM 13.47 56.246 0.333 7.83 92.29 9.59
10/27/2022 10:30:00 AM 13.47 56.246 0.333 7.84 100.5 9.66
10/27/2022 10:45:00 AM 13.5 56.3 0.333 7.86 98.63 9.92
10/27/2022 11:00:00 AM 13.52 56.336 0.333 7.88 87.52 10.04
10/27/2022 11:15:00 AM 13.55 56.39 0.334 7.9 73.5 10.18
10/27/2022 11:30:00 AM 13.61 56.498 0.334 7.91 103.7 10.27
10/27/2022 11:45:00 AM 13.61 56.498 0.334 7.93 78.47 10.35
10/27/2022 12:00:00 PM 13.65 56.57 0.334 7.94 96.9 10.52
10/27/2022 12:15:00 PM 13.66 56.588 0.334 7.97 80.45 10.61
10/27/2022 12:30:00 PM 13.69 56.642 0.334 7.99 83.46 10.74
10/27/2022 12:45:00 PM 13.73 56.714 0.333 8 75.43 10.84
10/27/2022 1:00:00 PM 13.74 56.732 0.332 8.02 79.01 10.94
10/27/2022 1:15:00 PM 13.77 56.786 0.331 8.04 76.87 11.06
10/27/2022 1:30:00 PM 13.8 56.84 0.331 8.06 83.35 11.16
10/27/2022 1:45:00 PM 13.81 56.858 0.33 8.08 63.92 11.2
10/27/2022 2:00:00 PM 13.84 56.912 0.33 8.1 63.24 11.28
10/27/2022 2:15:00 PM 13.87 56.966 0.33 8.12 70.46 11.36
10/27/2022 2:30:00 PM 13.9 57.02 0.33 8.13 81.94 11.39
10/27/2022 2:45:00 PM 13.92 57.056 0.33 8.14 105.4 11.42
10/27/2022 3:00:00 PM 13.92 57.056 0.329 8.16 70.11 11.49
10/27/2022 3:15:00 PM 13.92 57.056 0.329 8.17 115.7 11.5
10/27/2022 3:30:00 PM 13.92 57.056 0.329 8.19 124.4 11.48
10/27/2022 3:45:00 PM 13.93 57.074 0.328 8.2 119.6 11.5
10/27/2022 4:00:00 PM 13.91 57.038 0.328 8.2 107.3 11.46
10/27/2022 4:15:00 PM 13.9 57.02 0.327 8.21 123.6 11.45
10/27/2022 4:30:00 PM 13.88 56.984 0.327 8.2 120.4 11.36
10/27/2022 4:45:00 PM 13.85 56.93 0.327 8.2 43.59 11.33
10/27/2022 5:00:00 PM 13.82 56.876 0.327 8.2 57.1 11.25
10/27/2022 5:15:00 PM 13.79 56.822 0.327 8.2 87.08 11.17
10/27/2022 5:30:00 PM 13.74 56.732 0.327 8.19 128.1 11.08
10/27/2022 5:45:00 PM 13.71 56.678 0.327 8.17 121 10.93
10/27/2022 6:00:00 PM 13.66 56.588 0.327 8.16 128.7 10.82
10/27/2022 6:15:00 PM 13.61 56.498 0.327 8.14 125.6 10.71
10/27/2022 6:30:00 PM 13.55 56.39 0.327 8.12 112.2 10.59
10/27/2022 6:45:00 PM 13.49 56.282 0.327 8.11 114.3 10.45
10/27/2022 7:00:00 PM 13.43 56.174 0.327 8.09 83.91 10.32
10/27/2022 7:15:00 PM 13.36 56.048 0.327 8.07 53.34 10.21
10/27/2022 7:30:00 PM 13.3 55.94 0.327 8.05 95.64 10.1
10/27/2022 7:45:00 PM 13.23 55.814 0.327 8.03 89.23 10
10/27/2022 8:00:00 PM 13.18 55.724 0.327 8.01 126.5 9.91
10/27/2022 8:15:00 PM 13.11 55.598 0.328 8 145.6 9.83
10/27/2022 8:30:00 PM 13.06 55.508 0.328 7.98 131.9 9.78
10/27/2022 8:45:00 PM 12.99 55.382 0.328 7.97 132.7 9.69
10/27/2022 9:00:00 PM 12.94 55.292 0.328 7.95 135.1 9.65
10/27/2022 9:15:00 PM 12.88 55.184 0.328 7.94 136.5 9.58
10/27/2022 9:30:00 PM 12.81 55.058 0.328 7.93 121.7 9.55
10/27/2022 9:45:00 PM 12.75 54.95 0.328 7.92 118 9.49
10/27/2022 10:00:00 PM 12.7 54.86 0.328 7.91 115.2 9.49
10/27/2022 10:15:00 PM 12.65 54.77 0.328 7.9 125 9.44
10/27/2022 10:30:00 PM 12.59 54.662 0.328 7.89 118.6 9.42
10/27/2022 10:45:00 PM 12.54 54.572 0.329 7.88 121.1 9.35
10/27/2022 11:00:00 PM 12.48 54.464 0.329 7.87 112.9 9.34
10/27/2022 11:15:00 PM 12.42 54.356 0.33 7.86 103.5 9.35
10/27/2022 11:30:00 PM 12.38 54.284 0.331 7.85 120.6 9.3
10/27/2022 11:45:00 PM 12.33 54.194 0.332 7.85 117.9 9.27
10/28/2022 12:00:00 AM 12.28 54.104 0.333 7.84 18.73 9.24
10/28/2022 12:15:00 AM 12.23 54.014 0.333 7.83 67.71 9.27
10/28/2022 12:30:00 AM 12.19 53.942 0.333 7.83 68.79 9.24
10/28/2022 12:45:00 AM 12.14 53.852 0.333 7.83 59.65 9.21
10/28/2022 1:00:00 AM 12.1 53.78 0.333 7.81 74.35 9.21
10/28/2022 1:15:00 AM 12.05 53.69 0.333 7.81 69.92 9.21
10/28/2022 1:30:00 AM 12 53.6 0.332 7.81 76.28 9.21
10/28/2022 1:45:00 AM 11.96 53.528 0.332 7.81 76.9 9.21
10/28/2022 2:00:00 AM 11.92 53.456 0.332 7.8 78.04 9.2
10/28/2022 2:15:00 AM 11.87 53.366 0.332 7.8 84.24 9.2
10/28/2022 2:30:00 AM 11.82 53.276 0.332 7.8 83.96 9.21
10/28/2022 2:45:00 AM 11.78 53.204 0.333 7.8 89.7 9.19
10/28/2022 3:00:00 AM 11.74 53.132 0.333 7.8 82.77 9.22
10/28/2022 3:15:00 AM 11.69 53.042 0.333 7.79 76.87 9.22
10/28/2022 3:30:00 AM 11.66 52.988 0.332 7.79 79.18 9.18
10/28/2022 3:45:00 AM 11.61 52.898 0.332 7.79 74.71 9.18
10/28/2022 4:00:00 AM 11.56 52.808 0.332 7.79 70.67 9.21
10/28/2022 4:15:00 AM 11.52 52.736 0.331 7.79 86 9.19
10/28/2022 4:30:00 AM 11.49 52.682 0.33 7.79 86.06 9.22
10/28/2022 4:45:00 AM 11.42 52.556 0.331 7.78 80.57 9.2
10/28/2022 5:00:00 AM 11.38 52.484 0.331 7.78 83.09 9.24
10/28/2022 5:15:00 AM 11.34 52.412 0.331 7.78 89.38 9.21
10/28/2022 5:30:00 AM 11.3 52.34 0.332 7.78 78.16 9.24
10/28/2022 5:45:00 AM 11.26 52.268 0.332 7.78 76.95 9.26
10/28/2022 6:00:00 AM 11.2 52.16 0.333 7.77 79.39 9.25
10/28/2022 6:15:00 AM 11.16 52.088 0.333 7.77 86.86 9.28
10/28/2022 6:30:00 AM 11.12 52.016 0.332 7.75 83.01 9.28
10/28/2022 6:45:00 AM 11.06 51.908 0.332 7.77 85.93 9.28
10/28/2022 7:00:00 AM 11.02 51.836 0.332 7.77 34.19 9.32
10/28/2022 7:15:00 AM 10.96 51.728 0.331 7.77 75.71 9.26
10/28/2022 7:30:00 AM 10.91 51.638 0.331 7.76 95.05 9.31
10/28/2022 7:45:00 AM 10.86 51.548 0.332 7.76 75.34 9.33
10/28/2022 8:00:00 AM 10.81 51.458 0.332 7.75 78.71 9.38
10/28/2022 8:15:00 AM 10.78 51.404 0.332 7.76 84.26 9.43
10/28/2022 8:30:00 AM 10.74 51.332 0.332 7.76 78 9.52
10/28/2022 8:45:00 AM 10.72 51.296 0.332 7.77 76.25 9.64
10/28/2022 9:00:00 AM 10.71 51.278 0.333 7.77 85.17 9.74
10/28/2022 9:15:00 AM 10.73 51.314 0.333 7.79 33.95 9.9
10/28/2022 9:30:00 AM 10.74 51.332 0.333 7.8 80.17 10.09
10/28/2022 9:45:00 AM 10.74 51.332 0.333 7.81 65.92 10.24
10/28/2022 10:00:00 AM 10.76 51.368 0.332 7.82 68.76 10.39
10/28/2022 10:15:00 AM 10.79 51.422 0.331 7.83 82.1 10.51
10/28/2022 10:30:00 AM 10.81 51.458 0.331 7.85 16.91 10.76
10/28/2022 10:45:00 AM 10.85 51.53 0.331 7.87 86.99 10.93
10/28/2022 11:00:00 AM 10.88 51.584 0.331 7.88 87.68 11.06
10/28/2022 11:15:00 AM 10.92 51.656 0.332 7.91 87.6 11.26
10/28/2022 11:30:00 AM 10.96 51.728 0.332 7.94 74.73 11.42
10/28/2022 11:45:00 AM 11 51.8 0.333 7.96 12.75 11.6
10/28/2022 12:00:00 PM 11.05 51.89 0.337 7.99 74.26 11.79
10/28/2022 12:15:00 PM 11.1 51.98 0.333 8 82.52 11.92
10/28/2022 12:30:00 PM 11.14 52.052 0.333 8.02 88.5 12.11
10/28/2022 12:45:00 PM 11.19 52.142 0.332 8.05 68.8 12.26
10/28/2022 1:00:00 PM 11.25 52.25 0.332 8.08 87.73 12.33
10/28/2022 1:15:00 PM 11.28 52.304 0.331 8.12 65.64 12.53
10/28/2022 1:30:00 PM 11.33 52.394 0.331 8.15 62.62 12.57
10/28/2022 1:45:00 PM 11.39 52.502 0.33 8.17 56.81 12.64
10/28/2022 2:00:00 PM 11.44 52.592 0.33 8.19 11.32 12.7
10/28/2022 2:15:00 PM 11.5 52.7 0.33 8.21 78.5 12.8
10/28/2022 2:30:00 PM 11.54 52.772 0.33 8.23 60.15 12.82
10/28/2022 2:45:00 PM 11.61 52.898 0.33 8.25 87 12.84
10/28/2022 3:00:00 PM 11.65 52.97 0.33 8.27 79.47 12.96
10/28/2022 3:15:00 PM 11.69 53.042 0.33 8.29 75.52 12.98
10/28/2022 3:30:00 PM 11.72 53.096 0.329 8.3 39.44 12.94
10/28/2022 3:45:00 PM 11.74 53.132 0.329 8.32 81.53 12.94
10/28/2022 4:00:00 PM 11.76 53.168 0.329 8.32 88.93 12.9
10/28/2022 4:15:00 PM 11.77 53.186 0.328 8.33 93.85 12.86
10/28/2022 4:30:00 PM 11.76 53.168 0.328 8.33 65.79 12.83
10/28/2022 4:45:00 PM 11.75 53.15 0.328 8.34 76.09 12.72
10/28/2022 5:00:00 PM 11.75 53.15 0.327 8.34 67.18 12.67
10/28/2022 5:15:00 PM 11.74 53.132 0.327 8.33 68.61 12.55
10/28/2022 5:30:00 PM 11.71 53.078 0.327 8.33 67.86 12.44
10/28/2022 5:45:00 PM 11.69 53.042 0.327 8.31 68.83 12.23
10/28/2022 6:00:00 PM 11.64 52.952 0.327 8.31 84.42 12.14
10/28/2022 6:15:00 PM 11.6 52.88 0.327 8.3 66.78 11.95
10/28/2022 6:30:00 PM 11.56 52.808 0.327 8.27 69.44 11.8
10/28/2022 6:45:00 PM 11.52 52.736 0.327 8.25 75.94 11.66
10/28/2022 7:00:00 PM 11.47 52.646 0.327 8.23 885.6 11.46
10/28/2022 7:15:00 PM 11.43 52.574 0.327 8.21 68.97 11.41
10/28/2022 7:30:00 PM 11.4 52.52 0.326 8.19 58.59 11.25
10/28/2022 7:45:00 PM 11.36 52.448 0.326 8.17 81.96 11.13
10/28/2022 8:00:00 PM 11.32 52.376 0.326 8.16 52.16 11.03
10/28/2022 8:15:00 PM 11.28 52.304 0.326 8.14 64.48 10.98
10/28/2022 8:30:00 PM 11.24 52.232 0.326 8.13 81.84 10.88
10/28/2022 8:45:00 PM 11.2 52.16 0.326 8.11 80.54 10.81
10/28/2022 9:00:00 PM 11.16 52.088 0.326 8.09 84.99 10.72
10/28/2022 9:15:00 PM 11.11 51.998 0.326 8.07 64.02 10.65
10/28/2022 9:30:00 PM 11.07 51.926 0.326 8.06 72.8 10.56
10/28/2022 9:45:00 PM 11.03 51.854 0.327 8.05 53.3 10.54
10/28/2022 10:00:00 PM 10.98 51.764 0.327 8.04 47.95 10.45
10/28/2022 10:15:00 PM 10.94 51.692 0.327 8.02 84.38 10.36
10/28/2022 10:30:00 PM 10.9 51.62 0.327 8.01 57.61 10.3
10/28/2022 10:45:00 PM 10.85 51.53 0.327 7.99 84.65 10.28
10/28/2022 11:00:00 PM 10.81 51.458 0.328 7.98 61.69 10.19
10/28/2022 11:15:00 PM 10.77 51.386 0.328 7.97 63.86 10.12
10/28/2022 11:30:00 PM 10.72 51.296 0.33 7.96 93.46 10.12
10/28/2022 11:45:00 PM 10.68 51.224 0.331 7.94 62.67 10.02
10/29/2022 12:00:00 AM 10.65 51.17 0.331 7.93 77.12 10.04
10/29/2022 12:15:00 AM 10.62 51.116 0.333 7.93 81.93 9.96
10/29/2022 12:30:00 AM 10.58 51.044 0.334 7.92 73.24 9.94
10/29/2022 12:45:00 AM 10.55 50.99 0.333 7.91 91.58 9.89
10/29/2022 1:00:00 AM 10.51 50.918 0.333 7.91 90.95 9.84
10/29/2022 1:15:00 AM 10.47 50.846 0.332 7.9 116.6 9.94
10/29/2022 1:30:00 AM 10.44 50.792 0.332 7.89 106.6 9.93
10/29/2022 1:45:00 AM 10.4 50.72 0.332 7.89 98.76 9.93
10/29/2022 2:00:00 AM 10.39 50.702 0.333 7.88 51.64 9.9
10/29/2022 2:15:00 AM 10.33 50.594 0.333 7.87 107.3 9.9
10/29/2022 2:30:00 AM 10.29 50.522 0.334 7.87 97.21 9.91
10/29/2022 2:45:00 AM 10.26 50.468 0.334 7.86 106.6 9.84
10/29/2022 3:00:00 AM 10.23 50.414 0.335 7.86 104.4 9.86
10/29/2022 3:15:00 AM 10.19 50.342 0.336 7.85 104.7 9.73
10/29/2022 3:30:00 AM 10.15 50.27 0.336 7.84 104.4 9.86
10/29/2022 3:45:00 AM 10.11 50.198 0.336 7.84 95.76 9.76
10/29/2022 4:00:00 AM 10.08 50.144 0.335 7.84 103.9 9.84
10/29/2022 4:15:00 AM 10.04 50.072 0.335 7.84 107.1 9.83
10/29/2022 4:30:00 AM 10 50 0.334 7.84 111.7 9.83
10/29/2022 4:45:00 AM 9.95 49.91 0.333 7.83 114.7 9.81
10/29/2022 5:00:00 AM 9.93 49.874 0.334 7.84 108.2 9.77
10/29/2022 5:15:00 AM 9.9 49.82 0.334 7.83 104.7 9.72
10/29/2022 5:30:00 AM 9.85 49.73 0.334 7.83 109.2 9.78
10/29/2022 5:45:00 AM 9.8 49.64 0.334 7.82 109.8 9.78
10/29/2022 6:00:00 AM 9.77 49.586 0.335 7.82 74.96 9.83
10/29/2022 6:15:00 AM 9.73 49.514 0.335 7.81 76.8 9.83
10/29/2022 6:30:00 AM 9.67 49.406 0.335 7.8 67.1 9.81
10/29/2022 6:45:00 AM 9.64 49.352 0.334 7.8 66.36 9.8
10/29/2022 7:00:00 AM 9.58 49.244 0.334 7.8 99.53 9.78
10/29/2022 7:15:00 AM 9.54 49.172 0.333 7.8 88.97 9.83
10/29/2022 7:30:00 AM 9.5 49.1 0.333 7.79 82.58 9.83
10/29/2022 7:45:00 AM 9.44 48.992 0.333 7.8 91.76 9.88
10/29/2022 8:00:00 AM 9.39 48.902 0.333 7.8 84.22 9.93
10/29/2022 8:15:00 AM 9.38 48.884 0.333 7.8 82.22 9.96
10/29/2022 8:30:00 AM 9.31 48.758 0.334 7.79 87.94 9.99
10/29/2022 8:45:00 AM 9.3 48.74 0.334 7.81 83.12 10.09
10/29/2022 9:00:00 AM 9.3 48.74 0.335 7.81 115.9 10.23
10/29/2022 9:15:00 AM 9.32 48.776 0.335 7.81 87.66 10.35
10/29/2022 9:30:00 AM 9.34 48.812 0.335 7.81 92.68 10.51
10/29/2022 9:45:00 AM 9.37 48.866 0.335 7.82 79.91 10.55
10/29/2022 10:00:00 AM 9.38 48.884 0.335 7.84 79.06 10.74
10/29/2022 10:15:00 AM 9.43 48.974 0.335 7.85 81.3 10.77
10/29/2022 10:30:00 AM 9.43 48.974 0.334 7.86 87 11.05
10/29/2022 10:45:00 AM 9.48 49.064 0.335 7.88 79.39 11.15
10/29/2022 11:00:00 AM 9.53 49.154 0.335 7.89 83.02 11.22
10/29/2022 11:15:00 AM 9.59 49.262 0.335 7.91 91.22 11.45
10/29/2022 11:30:00 AM 9.66 49.388 0.336 7.93 97.5 11.53
10/29/2022 11:45:00 AM 9.72 49.496 0.336 7.94 103.3 11.62
10/29/2022 12:00:00 PM 9.78 49.604 0.337 7.96 100.3 11.81
10/29/2022 12:15:00 PM 9.83 49.694 0.337 7.98 91.58 11.88
10/29/2022 12:30:00 PM 9.89 49.802 0.337 7.99 81.46 11.97
10/29/2022 12:45:00 PM 9.95 49.91 0.337 8.02 78.46 12.09
10/29/2022 1:00:00 PM 10.01 50.018 0.336 8.03 88.14 12.25
10/29/2022 1:15:00 PM 10.07 50.126 0.336 8.05 78.06 12.24
10/29/2022 1:30:00 PM 10.12 50.216 0.336 8.08 80.25 12.31
10/29/2022 1:45:00 PM 10.19 50.342 0.336 8.09 72.86 12.46
10/29/2022 2:00:00 PM 10.25 50.45 0.336 8.11 70.2 12.53
10/29/2022 2:15:00 PM 10.31 50.558 0.336 8.13 107 12.58
10/29/2022 2:30:00 PM 10.37 50.666 0.336 8.15 86.28 12.66
10/29/2022 2:45:00 PM 10.43 50.774 0.336 8.17 75.05 12.68
10/29/2022 3:00:00 PM 10.49 50.882 0.336 8.19 88.78 12.73
10/29/2022 3:15:00 PM 10.54 50.972 0.336 8.19 94.54 12.74
10/29/2022 3:30:00 PM 10.58 51.044 0.336 8.2 100 12.7
10/29/2022 3:45:00 PM 10.62 51.116 0.336 8.23 94.93 12.66
10/29/2022 4:00:00 PM 10.64 51.152 0.336 8.23 123 12.69
10/29/2022 4:15:00 PM 10.66 51.188 0.336 8.23 74.04 12.64
10/29/2022 4:30:00 PM 10.67 51.206 0.335 8.23 91.09 12.65
10/29/2022 4:45:00 PM 10.68 51.224 0.335 8.23 97.11 12.56
10/29/2022 5:00:00 PM 10.67 51.206 0.335 8.22 104.5 12.49
10/29/2022 5:15:00 PM 10.66 51.188 0.335 8.22 116.4 12.43
10/29/2022 5:30:00 PM 10.64 51.152 0.335 8.22 83.13 12.28
10/29/2022 5:45:00 PM 10.61 51.098 0.335 8.21 110.5 12.18
10/29/2022 6:00:00 PM 10.57 51.026 0.335 8.19 84.59 12.07
10/29/2022 6:15:00 PM 10.53 50.954 0.335 8.18 86.17 11.83
10/29/2022 6:30:00 PM 10.48 50.864 0.335 8.17 90.44 11.84
10/29/2022 6:45:00 PM 10.43 50.774 0.335 8.16 117.2 11.61
10/29/2022 7:00:00 PM 10.37 50.666 0.335 8.14 124.4 11.47
10/29/2022 7:15:00 PM 10.32 50.576 0.335 8.13 113.8 11.41
10/29/2022 7:30:00 PM 10.29 50.522 0.334 8.12 116.6 11.3
10/29/2022 7:45:00 PM 10.22 50.396 0.334 8.1 111.7 11.22
10/29/2022 8:00:00 PM 10.16 50.288 0.334 8.09 107.7 11.11
10/29/2022 8:15:00 PM 10.12 50.216 0.334 8.07 101.8 11.02
10/29/2022 8:30:00 PM 10.06 50.108 0.334 8.05 108 10.95
10/29/2022 8:45:00 PM 10.03 50.054 0.334 8.04 105 10.9
10/29/2022 9:00:00 PM 9.98 49.964 0.334 8.03 104.8 10.84
10/29/2022 9:15:00 PM 9.94 49.892 0.334 8.02 90.57 10.79
10/29/2022 9:30:00 PM 9.89 49.802 0.334 8 101.3 10.72
10/29/2022 9:45:00 PM 9.84 49.712 0.334 7.99 120.7 10.67
10/29/2022 10:00:00 PM 9.8 49.64 0.333 7.99 109.4 10.68
10/29/2022 10:15:00 PM 9.76 49.568 0.333 7.98 95.26 10.6
10/29/2022 10:30:00 PM 9.72 49.496 0.333 7.98 96.71 10.55
10/29/2022 10:45:00 PM 9.69 49.442 0.333 7.97 96.79 10.52
10/29/2022 11:00:00 PM 9.64 49.352 0.333 7.96 94.27 10.46
10/29/2022 11:15:00 PM 9.6 49.28 0.334 7.95 97.29 10.41
10/29/2022 11:30:00 PM 9.58 49.244 0.334 7.94 96.18 10.38
10/29/2022 11:45:00 PM 9.53 49.154 0.335 7.93 118.3 10.4
10/30/2022 12:00:00 AM 9.49 49.082 0.336 7.92 92.61 10.37
10/30/2022 12:15:00 AM 9.45 49.01 0.336 7.92 102 10.33
10/30/2022 12:30:00 AM 9.42 48.956 0.336 7.92 1021 10.29
10/30/2022 12:45:00 AM 9.39 48.902 0.336 7.91 97.44 10.28
10/30/2022 1:00:00 AM 9.35 48.83 0.336 7.9 93.24 10.27
10/30/2022 1:15:00 AM 9.33 48.794 0.335 7.9 108.9 10.26
10/30/2022 1:30:00 AM 9.29 48.722 0.335 7.89 104.9 10.24
10/30/2022 1:45:00 AM 9.26 48.668 0.335 7.89 94.58 10.24
10/30/2022 2:00:00 AM 9.23 48.614 0.336 7.88 97.33 10.18
10/30/2022 2:15:00 AM 9.2 48.56 0.336 7.88 98.31 10.15
10/30/2022 2:30:00 AM 9.18 48.524 0.337 7.89 95.18 10.16
10/30/2022 2:45:00 AM 9.19 48.542 0.337 7.89 90.69 10.13
10/30/2022 3:00:00 AM 9.12 48.416 0.338 7.88 133.8 10.12
10/30/2022 3:15:00 AM 9.1 48.38 0.339 7.88 104.7 10.12
10/30/2022 3:30:00 AM 9.09 48.362 0.339 7.88 89.9 10.12
10/30/2022 3:45:00 AM 9.05 48.29 0.339 7.87 63.13 10.13
10/30/2022 4:00:00 AM 9.02 48.236 0.339 7.86 97.8 10.13
10/30/2022 4:15:00 AM 8.98 48.164 0.339 7.86 85.27 10.11
10/30/2022 4:30:00 AM 8.98 48.164 0.338 7.86 89.43 10.11
10/30/2022 4:45:00 AM 8.93 48.074 0.337 7.86 89.86 10.08
10/30/2022 5:00:00 AM 8.9 48.02 0.336 7.86 97.78 10.15
10/30/2022 5:15:00 AM 8.86 47.948 0.337 7.86 101.4 10.12
10/30/2022 5:30:00 AM 8.82 47.876 0.337 7.85 51.28 10.11
10/30/2022 5:45:00 AM 8.79 47.822 0.337 7.85 123.2 10.08
10/30/2022 6:00:00 AM 8.76 47.768 0.337 7.85 108.6 10.14
10/30/2022 6:15:00 AM 8.72 47.696 0.337 7.85 74.72 10.13
10/30/2022 6:30:00 AM 8.69 47.642 0.337 7.84 89.93 10.08
10/30/2022 6:45:00 AM 8.65 47.57 0.337 7.84 435.9 10.15
10/30/2022 7:00:00 AM 8.61 47.498 0.336 7.85 1659 10.14
10/30/2022 7:15:00 AM 8.59 47.462 0.335 7.85 1858 10.14
10/30/2022 7:30:00 AM 8.53 47.354 0.335 7.84 1450 10.18
10/30/2022 7:45:00 AM 8.5 47.3 0.334 7.84 1498 10.14
10/30/2022 8:00:00 AM 8.48 47.264 0.334 7.84 1796 10.16
10/30/2022 8:15:00 AM 8.46 47.228 0.334 7.84 1451 10.26
10/30/2022 8:30:00 AM 8.45 47.21 0.334 7.84 1472 10.3
10/30/2022 8:45:00 AM 8.45 47.21 0.334 7.84 1289 10.42
10/30/2022 9:00:00 AM 8.47 47.246 0.334 7.85 1135 10.58
10/30/2022 9:15:00 AM 8.49 47.282 0.334 7.87 1085 10.73
10/30/2022 9:30:00 AM 8.51 47.318 0.334 7.87 1203 10.83
10/30/2022 9:45:00 AM 8.53 47.354 0.333 7.88 1239 10.96
10/30/2022 10:00:00 AM 8.54 47.372 0.333 7.91 1117 11.08
10/30/2022 10:15:00 AM 8.57 47.426 0.332 7.92 1245 11.25
10/30/2022 10:30:00 AM 8.62 47.516 0.331 7.93 1202 11.35
10/30/2022 10:45:00 AM 8.66 47.588 0.331 7.94 1218 11.56
10/30/2022 11:00:00 AM 8.74 47.732 0.331 7.96 1177 11.63
10/30/2022 11:15:00 AM 8.81 47.858 0.331 7.97 1292 11.84
10/30/2022 11:30:00 AM 8.86 47.948 0.331 7.98 1275 11.9
10/30/2022 11:45:00 AM 8.93 48.074 0.332 8.01 1268 12.08
10/30/2022 12:00:00 PM 9.01 48.218 0.332 8.02 1743 12.19
10/30/2022 12:15:00 PM 9.07 48.326 0.332 8.04 1602 12.32
10/30/2022 12:30:00 PM 9.15 48.47 0.332 8.06 1573 12.45
10/30/2022 12:45:00 PM 9.22 48.596 0.332 8.08 1541 12.57
10/30/2022 1:00:00 PM 9.31 48.758 0.332 8.1 1532 12.65
10/30/2022 1:15:00 PM 9.39 48.902 0.331 8.12 1461 12.82
10/30/2022 1:30:00 PM 9.47 49.046 0.331 8.13 1440 12.91
10/30/2022 1:45:00 PM 9.55 49.19 0.33 8.16 1465 13.02
10/30/2022 2:00:00 PM 9.62 49.316 0.33 8.17 1452 13.04
10/30/2022 2:15:00 PM 9.69 49.442 0.33 8.19 1447 13.11
10/30/2022 2:30:00 PM 9.77 49.586 0.33 8.21 1414 13.28
10/30/2022 2:45:00 PM 9.84 49.712 0.331 8.22 1484 13.3
10/30/2022 3:00:00 PM 9.91 49.838 0.33 8.24 1433 13.35
10/30/2022 3:15:00 PM 9.97 49.946 0.331 8.25 1450 13.33
10/30/2022 3:30:00 PM 10.02 50.036 0.331 8.26 1582 13.38
10/30/2022 3:45:00 PM 10.07 50.126 0.331 8.28 1541 13.37
10/30/2022 4:00:00 PM 10.11 50.198 0.33 8.28 1526 13.32
10/30/2022 4:15:00 PM 10.13 50.234 0.33 8.29 1469 13.32
10/30/2022 4:30:00 PM 10.15 50.27 0.33 8.29 1585 13.2
10/30/2022 4:45:00 PM 10.15 50.27 0.33 8.29 1690 13.12
10/30/2022 5:00:00 PM 10.16 50.288 0.33 8.29 1629 13.07
10/30/2022 5:15:00 PM 10.17 50.306 0.33 8.29 1659 12.94
10/30/2022 5:30:00 PM 10.17 50.306 0.331 8.29 1551 12.86
10/30/2022 5:45:00 PM 10.16 50.288 0.331 8.28 1673 12.73
10/30/2022 6:00:00 PM 10.14 50.252 0.331 8.27 1594 12.58
10/30/2022 6:15:00 PM 10.12 50.216 0.332 8.26 1686 12.39
10/30/2022 6:30:00 PM 10.1 50.18 0.332 8.24 1651 12.27
10/30/2022 6:45:00 PM 10.07 50.126 0.332 8.23 1614 12.03
10/30/2022 7:00:00 PM 10.05 50.09 0.332 8.21 1701 11.99
10/30/2022 7:15:00 PM 10.02 50.036 0.332 8.19 1630 11.78
10/30/2022 7:30:00 PM 10 50 0.332 8.18 1749 11.7
10/30/2022 7:45:00 PM 9.98 49.964 0.333 8.17 1693 11.58
10/30/2022 8:00:00 PM 9.95 49.91 0.333 8.14 1725 11.47
10/30/2022 8:15:00 PM 9.93 49.874 0.333 8.13 1773 11.35
10/30/2022 8:30:00 PM 9.91 49.838 0.333 8.11 1709 11.22
10/30/2022 8:45:00 PM 9.89 49.802 0.333 8.09 1707 11.17
10/30/2022 9:00:00 PM 9.87 49.766 0.334 8.08 1596 11.05
10/30/2022 9:15:00 PM 9.85 49.73 0.334 8.06 1629 11.05
10/30/2022 9:30:00 PM 9.83 49.694 0.334 8.05 320.8 10.94
10/30/2022 9:45:00 PM 9.81 49.658 0.334 8.03 443.4 10.88
10/30/2022 10:00:00 PM 9.78 49.604 0.334 8.02 133.2 10.81
10/30/2022 10:15:00 PM 9.76 49.568 0.334 8.01 188.4 10.79
10/30/2022 10:30:00 PM 9.75 49.55 0.334 7.99 182.2 10.59
10/30/2022 10:45:00 PM 9.71 49.478 0.334 7.99 178.4 10.59
10/30/2022 11:00:00 PM 9.69 49.442 0.335 7.97 188.5 10.59
10/30/2022 11:15:00 PM 9.67 49.406 0.335 7.96 205.2 10.47
10/30/2022 11:30:00 PM 9.65 49.37 0.336 7.95 192.3 10.47
10/30/2022 11:45:00 PM 9.63 49.334 0.337 7.94 190 10.43
10/31/2022 12:00:00 AM 9.63 49.334 0.337 7.93 188.5 10.38
10/31/2022 12:15:00 AM 9.62 49.316 0.337 7.91 221 10.32
10/31/2022 12:30:00 AM 9.62 49.316 0.338 7.91 208.2 10.33
10/31/2022 12:45:00 AM 9.62 49.316 0.338 7.9 213.4 10.27
10/31/2022 1:00:00 AM 9.62 49.316 0.337 7.89 228.1 10.2
10/31/2022 1:15:00 AM 9.62 49.316 0.337 7.89 185.2 10.22
10/31/2022 1:30:00 AM 9.61 49.298 0.337 7.88 2914 10.19
10/31/2022 1:45:00 AM 9.62 49.316 0.337 7.88 208.8 10.14
10/31/2022 2:00:00 AM 9.63 49.334 0.337 7.87 215.2 10.08
10/31/2022 2:15:00 AM 9.63 49.334 0.338 7.86 197.5 10.08
10/31/2022 2:30:00 AM 9.65 49.37 0.338 7.86 197.8 10.01
10/31/2022 2:45:00 AM 9.67 49.406 0.339 7.85 208.4 10.02
10/31/2022 3:00:00 AM 9.69 49.442 0.339 7.84 221.4 9.93
10/31/2022 3:15:00 AM 9.71 49.478 0.34 7.83 193.6 9.95
10/31/2022 3:30:00 AM 9.71 49.478 0.34 7.83 189 9.94
10/31/2022 3:45:00 AM 9.73 49.514 0.339 7.83 189.5 9.89
10/31/2022 4:00:00 AM 9.74 49.532 0.339 7.82 222.6 9.86
10/31/2022 4:15:00 AM 9.75 49.55 0.338 7.82 218.4 9.89
10/31/2022 4:30:00 AM 9.75 49.55 0.337 7.82 200.2 9.86
10/31/2022 4:45:00 AM 9.75 49.55 0.337 7.81 209.8 9.78
10/31/2022 5:00:00 AM 9.75 49.55 0.337 7.81 213.5 9.8
10/31/2022 5:15:00 AM 9.74 49.532 0.337 7.8 181.1 9.81
10/31/2022 5:30:00 AM 9.74 49.532 0.337 7.8 222.6 9.78
10/31/2022 5:45:00 AM 9.74 49.532 0.337 7.8 217.7 9.76
10/31/2022 6:00:00 AM 9.73 49.514 0.337 7.79 211.3 9.7
10/31/2022 6:15:00 AM 9.73 49.514 0.336 7.79 216.6 9.7
10/31/2022 6:30:00 AM 9.72 49.496 0.336 7.79 203.6 9.73
10/31/2022 6:45:00 AM 9.71 49.478 0.335 7.79 234.4 9.67
10/31/2022 7:00:00 AM 9.7 49.46 0.335 7.78 231.7 9.71
10/31/2022 7:15:00 AM 9.68 49.424 0.334 7.78 220.4 9.71
10/31/2022 7:30:00 AM 9.68 49.424 0.334 7.77 214.8 9.68
10/31/2022 7:45:00 AM 9.67 49.406 0.334 7.77 218.8 9.72
10/31/2022 8:00:00 AM 9.68 49.424 0.334 7.77 260.6 9.75
10/31/2022 8:15:00 AM 9.69 49.442 0.334 7.77 251.8 9.77
10/31/2022 8:30:00 AM 9.7 49.46 0.334 7.77 250.9 9.82
10/31/2022 8:45:00 AM 9.71 49.478 0.335 7.77 235.5 9.97
10/31/2022 9:00:00 AM 9.73 49.514 0.335 7.78 240.9 9.95
10/31/2022 9:15:00 AM 9.76 49.568 0.335 7.78 235.3 10.18
10/31/2022 9:30:00 AM 9.79 49.622 0.335 7.79 244.2 10.3
10/31/2022 9:45:00 AM 9.82 49.676 0.335 7.8 240.9 10.47
10/31/2022 10:00:00 AM 9.86 49.748 0.334 7.82 220 10.6
10/31/2022 10:15:00 AM 9.94 49.892 0.334 7.83 254.6 10.79
10/31/2022 10:30:00 AM 9.99 49.982 0.334 7.84 251.1 11
10/31/2022 10:45:00 AM 10.05 50.09 0.334 7.86 258 11.18
10/31/2022 11:00:00 AM 10.12 50.216 0.334 7.88 251.4 11.33
10/31/2022 11:15:00 AM 10.17 50.306 0.334 7.91 257.2 11.55
10/31/2022 11:30:00 AM 10.23 50.414 0.335 7.92 268.6 11.65
10/31/2022 11:45:00 AM 10.29 50.522 0.335 7.94 202.8 11.75
10/31/2022 12:00:00 PM 10.31 50.558 0.336 7.95 249.1 11.9
10/31/2022 12:15:00 PM 10.33 50.594 0.336 7.96 270.7 11.84
10/31/2022 12:30:00 PM 10.38 50.684 0.336 7.97 299.3 11.91
10/31/2022 12:45:00 PM 10.43 50.774 0.336 7.99 316.1 11.98
10/31/2022 1:00:00 PM 10.49 50.882 0.336 8 289.3 12.08
10/31/2022 1:15:00 PM 10.55 50.99 0.335 8.03 311.2 12.24
10/31/2022 1:30:00 PM 10.64 51.152 0.334 8.06 293.5 12.39
10/31/2022 1:45:00 PM 10.74 51.332 0.334 8.09 232.4 12.57
10/31/2022 2:00:00 PM 10.81 51.458 0.334 8.11 205.9 12.69
10/31/2022 2:15:00 PM 10.88 51.584 0.333 8.13 196.7 12.87
10/31/2022 2:30:00 PM 10.95 51.71 0.333 8.16 206.8 12.93
10/31/2022 2:45:00 PM 10.99 51.782 0.333 8.18 196.7 12.99
10/31/2022 3:00:00 PM 11.05 51.89 0.333 8.2 228.5 13.01
10/31/2022 3:15:00 PM 11.09 51.962 0.333 8.21 222.3 12.95
10/31/2022 3:30:00 PM 11.14 52.052 0.333 8.22 223.7 12.93
10/31/2022 3:45:00 PM 11.18 52.124 0.333 8.23 214.6 12.87
10/31/2022 4:00:00 PM 11.21 52.178 0.333 8.23 229.1 12.84
10/31/2022 4:15:00 PM 11.22 52.196 0.333 8.23 211.7 12.69
10/31/2022 4:30:00 PM 11.23 52.214 0.333 8.23 190.5 12.55
10/31/2022 4:45:00 PM 11.24 52.232 0.333 8.22 189.4 12.39
10/31/2022 5:00:00 PM 11.24 52.232 0.333 8.21 232 12.18
10/31/2022 5:15:00 PM 11.26 52.268 0.333 8.2 217.1 12.03
10/31/2022 5:30:00 PM 11.27 52.286 0.333 8.18 239.6 11.94
10/31/2022 5:45:00 PM 11.28 52.304 0.333 8.17 224 11.81
10/31/2022 6:00:00 PM 11.29 52.322 0.333 8.16 219 11.65
10/31/2022 6:15:00 PM 11.3 52.34 0.334 8.15 258.5 11.52
10/31/2022 6:30:00 PM 11.31 52.358 0.334 8.13 262.2 11.34
10/31/2022 6:45:00 PM 11.32 52.376 0.334 8.11 232.5 11.18
10/31/2022 7:00:00 PM 11.32 52.376 0.333 8.09 263.3 11.11
10/31/2022 7:15:00 PM 11.33 52.394 0.333 8.08 272 10.96
10/31/2022 7:30:00 PM 11.33 52.394 0.333 8.06 264.2 10.87
10/31/2022 7:45:00 PM 11.34 52.412 0.334 8.04 248.1 10.76
10/31/2022 8:00:00 PM 11.34 52.412 0.333 8.02 228.3 10.67
10/31/2022 8:15:00 PM 11.35 52.43 0.334 8 216.2 10.53
10/31/2022 8:30:00 PM 11.35 52.43 0.334 7.99 239.9 10.47
10/31/2022 8:45:00 PM 11.36 52.448 0.334 7.97 252.7 10.31
10/31/2022 9:00:00 PM 11.36 52.448 0.334 7.95 262.5 10.3
10/31/2022 9:15:00 PM 11.37 52.466 0.334 7.94 221.7 10.09
10/31/2022 9:30:00 PM 11.38 52.484 0.334 7.92 272.8 10.12
10/31/2022 9:45:00 PM 11.38 52.484 0.335 7.9 234.5 9.99
10/31/2022 10:00:00 PM 11.39 52.502 0.334 7.9 226.1 9.96
10/31/2022 10:15:00 PM 11.41 52.538 0.334 7.88 214.1 9.95
10/31/2022 10:30:00 PM 11.42 52.556 0.335 7.87 213.9 9.84
10/31/2022 10:45:00 PM 11.44 52.592 0.335 7.86 224.3 9.81
10/31/2022 11:00:00 PM 11.46 52.628 0.335 7.85 231.2 9.74
10/31/2022 11:15:00 PM 11.48 52.664 0.336 7.83 195.1 9.74
10/31/2022 11:30:00 PM 11.5 52.7 0.336 7.83 200.6 9.66
10/31/2022 11:45:00 PM 11.52 52.736 0.337 7.82 229.3 9.65
11/1/2022 12:00:00 AM 11.55 52.79 0.337 7.81 237.3 9.58
11/1/2022 12:15:00 AM 11.57 52.826 0.337 7.8 219.1 9.43
11/1/2022 12:30:00 AM 11.58 52.844 0.338 7.79 132.4 9.47
11/1/2022 12:45:00 AM 11.6 52.88 0.338 7.78 128.9 9.48
11/1/2022 1:00:00 AM 11.61 52.898 0.337 7.78 122.3 9.43
11/1/2022 1:15:00 AM 11.63 52.934 0.337 7.76 133.8 9.38
11/1/2022 1:30:00 AM 11.64 52.952 0.336 7.75 130.6 9.41
11/1/2022 1:45:00 AM 11.66 52.988 0.336 7.75 134.9 9.33
11/1/2022 2:00:00 AM 11.67 53.006 0.336 7.74 133.8 9.32
11/1/2022 2:15:00 AM 11.69 53.042 0.336 7.74 145.6 9.27
11/1/2022 2:30:00 AM 11.7 53.06 0.336 7.73 145.6 9.25
11/1/2022 2:45:00 AM 11.72 53.096 0.336 7.73 142.7 9.27
11/1/2022 3:00:00 AM 11.74 53.132 0.336 7.72 155.6 9.2
11/1/2022 3:15:00 AM 11.75 53.15 0.336 7.71 145 9.18
11/1/2022 3:30:00 AM 11.76 53.168 0.335 7.71 159 9.14
11/1/2022 3:45:00 AM 11.77 53.186 0.334 7.7 159.4 9.12
11/1/2022 4:00:00 AM 11.78 53.204 0.334 7.7 154.6 9.14
11/1/2022 4:15:00 AM 11.79 53.222 0.333 7.7 146.3 9.07
11/1/2022 4:30:00 AM 11.8 53.24 0.333 7.69 157.9 9.04
11/1/2022 4:45:00 AM 11.81 53.258 0.333 7.69 167.9 9.09
11/1/2022 5:00:00 AM 11.82 53.276 0.333 7.68 155.9 9.07
11/1/2022 5:15:00 AM 11.83 53.294 0.333 7.68 161.9 9.08
11/1/2022 5:30:00 AM 11.84 53.312 0.333 7.68 162.5 9
11/1/2022 5:45:00 AM 11.85 53.33 0.334 7.68 166.7 8.99
11/1/2022 6:00:00 AM 11.86 53.348 0.333 7.67 153.5 9
11/1/2022 6:15:00 AM 11.86 53.348 0.333 7.67 167.7 8.96
11/1/2022 6:30:00 AM 11.87 53.366 0.333 7.67 166.7 8.96
11/1/2022 6:45:00 AM 11.88 53.384 0.333 7.66 149.8 8.92
11/1/2022 7:00:00 AM 11.88 53.384 0.332 7.66 172.2 8.93
11/1/2022 7:15:00 AM 11.89 53.402 0.332 7.66 166.3 8.86
11/1/2022 7:30:00 AM 11.89 53.402 0.331 7.67 172.4 8.9
11/1/2022 7:45:00 AM 11.9 53.42 0.331 7.66 171.5 8.88
11/1/2022 8:00:00 AM 11.91 53.438 0.332 7.65 164.5 8.87
11/1/2022 8:15:00 AM 11.92 53.456 0.332 7.66 181.4 8.9
11/1/2022 8:30:00 AM 11.93 53.474 0.333 7.65 169 8.89
11/1/2022 8:45:00 AM 11.95 53.51 0.333 7.65 185.5 8.95
11/1/2022 9:00:00 AM 11.97 53.546 0.333 7.66 186.2 9.04
11/1/2022 9:15:00 AM 11.99 53.582 0.333 7.66 182.7 9.06
11/1/2022 9:30:00 AM 12.02 53.636 0.332 7.67 147.6 9.21
11/1/2022 9:45:00 AM 12.06 53.708 0.332 7.68 158.4 9.36
11/1/2022 10:00:00 AM 12.08 53.744 0.332 7.69 148.5 9.41
11/1/2022 10:15:00 AM 12.11 53.798 0.331 7.7 160.6 9.63
11/1/2022 10:30:00 AM 12.15 53.87 0.331 7.71 164.8 9.77
11/1/2022 10:45:00 AM 12.21 53.978 0.331 7.73 700.1 9.96
11/1/2022 11:00:00 AM 12.28 54.104 0.331 7.74 135.3 10.19
11/1/2022 11:15:00 AM 12.37 54.266 0.332 7.77 146.3 10.34
11/1/2022 11:30:00 AM 12.44 54.392 0.332 7.8 157 10.61
11/1/2022 11:45:00 AM 12.56 54.608 0.333 7.83 154.6 10.79
11/1/2022 12:00:00 PM 12.64 54.752 0.332 7.85 148.2 10.89
11/1/2022 12:15:00 PM 12.7 54.86 0.332 7.87 151.5 11.02
11/1/2022 12:30:00 PM 12.74 54.932 0.332 7.9 156.7 11.21
11/1/2022 12:45:00 PM 12.77 54.986 0.331 7.92 161.7 11.29
11/1/2022 1:00:00 PM 12.83 55.094 0.331 7.93 157.7 11.38
11/1/2022 1:15:00 PM 12.85 55.13 0.33 7.96 156.4 11.38
11/1/2022 1:30:00 PM 12.9 55.22 0.33 7.98 180.6 11.56
11/1/2022 1:45:00 PM 12.95 55.31 0.33 7.99 193.1 11.57
11/1/2022 2:00:00 PM 12.96 55.328 0.33 8 192.4 11.56
11/1/2022 2:15:00 PM 12.99 55.382 0.33 8.02 191.2 11.56
11/1/2022 2:30:00 PM 13.08 55.544 0.33 8.04 189.9 11.75
11/1/2022 2:45:00 PM 13.16 55.688 0.329 8.05 193.3 11.84
11/1/2022 3:00:00 PM 13.28 55.904 0.329 8.08 199 12.08
11/1/2022 3:15:00 PM 13.37 56.066 0.328 8.11 195.6 12.16
11/1/2022 3:30:00 PM 13.42 56.156 0.328 8.13 210.3 12.18
11/1/2022 3:45:00 PM 13.46 56.228 0.327 8.15 202.9 12.18
11/1/2022 4:00:00 PM 13.5 56.3 0.327 8.16 206.6 12.12
11/1/2022 4:15:00 PM 13.56 56.408 0.326 8.17 202.8 12.18
11/1/2022 4:30:00 PM 13.6 56.48 0.326 8.19 200.4 12.15
11/1/2022 4:45:00 PM 13.6 56.48 0.325 8.2 226.3 12.03
11/1/2022 5:00:00 PM 13.64 56.552 0.325 8.2 219.1 11.96
11/1/2022 5:15:00 PM 13.63 56.534 0.325 8.2 219.3 11.74
11/1/2022 5:30:00 PM 13.64 56.552 0.325 8.19 215.4 11.59
11/1/2022 5:45:00 PM 13.63 56.534 0.326 8.19 214.1 11.41
11/1/2022 6:00:00 PM 13.61 56.498 0.326 8.18 217.1 11.3
11/1/2022 6:15:00 PM 13.59 56.462 0.326 8.16 223.4 11.13
11/1/2022 6:30:00 PM 13.57 56.426 0.326 8.15 233.3 11
11/1/2022 6:45:00 PM 13.54 56.372 0.326 8.14 219.2 10.81
11/1/2022 7:00:00 PM 13.52 56.336 0.326 8.12 223.2 10.67
11/1/2022 7:15:00 PM 13.49 56.282 0.327 8.09 225.7 10.55
11/1/2022 7:30:00 PM 13.45 56.21 0.327 8.07 220.9 10.35
11/1/2022 7:45:00 PM 13.42 56.156 0.328 8.06 204.4 10.24
11/1/2022 8:00:00 PM 13.39 56.102 0.328 8.03 212.5 10.13
11/1/2022 8:15:00 PM 13.35 56.03 0.329 8.02 208.7 10.04
11/1/2022 8:30:00 PM 13.32 55.976 0.33 8 197.6 9.9
11/1/2022 8:45:00 PM 13.28 55.904 0.33 7.98 269.5 9.81
11/1/2022 9:00:00 PM 13.24 55.832 0.33 7.96 206.6 9.72
11/1/2022 9:15:00 PM 13.2 55.76 0.331 7.95 203.4 9.64
11/1/2022 9:30:00 PM 13.16 55.688 0.331 7.92 198.3 9.53
11/1/2022 9:45:00 PM 13.12 55.616 0.331 7.9 215.5 9.44
11/1/2022 10:00:00 PM 13.09 55.562 0.331 7.88 209 9.36
11/1/2022 10:15:00 PM 13.04 55.472 0.331 7.87 195.7 9.36
11/1/2022 10:30:00 PM 13.01 55.418 0.332 7.86 200.2 9.25
11/1/2022 10:45:00 PM 12.98 55.364 0.333 7.84 203 9.24
11/1/2022 11:00:00 PM 12.94 55.292 0.334 7.82 198.8 9.16
11/1/2022 11:15:00 PM 12.92 55.256 0.335 7.81 199.2 9.15
11/1/2022 11:30:00 PM 12.89 55.202 0.335 7.8 256.4 9.1
11/1/2022 11:45:00 PM 12.86 55.148 0.336 7.8 205.2 9.06
11/2/2022 12:00:00 AM 12.84 55.112 0.337 7.79 201.3 9.05
11/2/2022 12:15:00 AM 12.81 55.058 0.337 7.77 206.9 9.03
11/2/2022 12:30:00 AM 12.79 55.022 0.336 7.77 209.5 9.01
11/2/2022 12:45:00 AM 12.77 54.986 0.336 7.76 211.5 8.9
11/2/2022 1:00:00 AM 12.74 54.932 0.335 7.75 221.5 8.92
11/2/2022 1:15:00 AM 12.72 54.896 0.335 7.74 210.8 8.89
11/2/2022 1:30:00 AM 12.7 54.86 0.334 7.74 213.5 8.88
11/2/2022 1:45:00 AM 12.68 54.824 0.333 7.73 216.8 8.85
11/2/2022 2:00:00 AM 12.66 54.788 0.332 7.72 226 8.88
11/2/2022 2:15:00 AM 12.65 54.77 0.332 7.72 222.3 8.85
11/2/2022 2:30:00 AM 12.64 54.752 0.331 7.72 239.1 8.83
11/2/2022 2:45:00 AM 12.62 54.716 0.33 7.71 238.9 8.8
11/2/2022 3:00:00 AM 12.61 54.698 0.33 7.71 225.8 8.77
11/2/2022 3:15:00 AM 12.6 54.68 0.329 7.71 223.6 8.76
11/2/2022 3:30:00 AM 12.57 54.626 0.329 7.7 220.5 8.71
11/2/2022 3:45:00 AM 12.56 54.608 0.328 7.7 227.1 8.74
11/2/2022 4:00:00 AM 12.54 54.572 0.328 7.71 232.1 8.75
11/2/2022 4:15:00 AM 12.51 54.518 0.328 7.69 230.6 8.73
11/2/2022 4:30:00 AM 12.49 54.482 0.329 7.7 227.2 8.66
11/2/2022 4:45:00 AM 12.46 54.428 0.33 7.68 232.4 8.7
11/2/2022 5:00:00 AM 12.43 54.374 0.331 7.69 231.4 8.64
11/2/2022 5:15:00 AM 12.4 54.32 0.333 7.68 233.2 8.63
11/2/2022 5:30:00 AM 12.38 54.284 0.334 7.68 234.2 8.63
11/2/2022 5:45:00 AM 12.34 54.212 0.335 7.67 246.5 8.66
11/2/2022 6:00:00 AM 12.31 54.158 0.336 7.67 239.2 8.53
11/2/2022 6:15:00 AM 12.28 54.104 0.336 7.67 237.4 8.68
11/2/2022 6:30:00 AM 12.24 54.032 0.336 7.66 249.3 8.63
11/2/2022 6:45:00 AM 12.21 53.978 0.336 7.65 230 8.63
11/2/2022 7:00:00 AM 12.18 53.924 0.335 7.65 221.6 8.71
11/2/2022 7:15:00 AM 12.14 53.852 0.335 7.64 224.2 8.66
11/2/2022 7:30:00 AM 12.11 53.798 0.333 7.63 237.5 8.68
11/2/2022 7:45:00 AM 12.09 53.762 0.331 7.64 237.4 8.69
11/2/2022 8:00:00 AM 12.05 53.69 0.323 7.63 241.7 8.73
11/2/2022 8:15:00 AM 12.02 53.636 0.322 7.62 237.1 8.7
11/2/2022 8:30:00 AM 12 53.6 0.32 7.62 246.2 8.8
11/2/2022 8:45:00 AM 11.99 53.582 0.32 7.63 245.7 8.89
11/2/2022 9:00:00 AM 11.99 53.582 0.318 7.63 253.1 9.02
11/2/2022 9:15:00 AM 12.02 53.636 0.334 7.64 246.4 9.1
11/2/2022 9:30:00 AM 12.05 53.69 0.335 7.65 255.5 9.3
11/2/2022 9:45:00 AM 12.04 53.672 0.333 7.67 250.7 9.42
11/2/2022 10:00:00 AM 12.07 53.726 0.332 7.67 251.8 9.58
11/2/2022 10:15:00 AM 12.1 53.78 0.332 7.68 249.8 9.77
11/2/2022 10:30:00 AM 12.14 53.852 0.332 7.69 256.4 9.93
11/2/2022 10:45:00 AM 12.18 53.924 0.332 7.71 258.6 10.04
11/2/2022 11:00:00 AM 12.23 54.014 0.331 7.73 249.8 10.23
11/2/2022 11:15:00 AM 12.29 54.122 0.331 7.75 253.6 10.37
11/2/2022 11:30:00 AM 12.34 54.212 0.335 7.76 260.8 10.52
11/2/2022 11:45:00 AM 12.39 54.302 0.334 7.78 247.9 10.7
11/2/2022 12:00:00 PM 12.46 54.428 0.334 7.79 259.4 10.84
11/2/2022 12:15:00 PM 12.52 54.536 0.334 7.8 260.8 10.95
11/2/2022 12:30:00 PM 12.58 54.644 0.334 7.83 265 11.15
11/2/2022 12:45:00 PM 12.64 54.752 0.332 7.84 261.9 11.26
11/2/2022 1:00:00 PM 12.7 54.86 0.332 7.87 268.8 11.39
11/2/2022 1:15:00 PM 12.76 54.968 0.331 7.89 274.6 11.51
11/2/2022 1:30:00 PM 12.82 55.076 0.331 7.92 273.1 11.62
11/2/2022 1:45:00 PM 12.88 55.184 0.33 7.94 272.9 11.74
11/2/2022 2:00:00 PM 12.95 55.31 0.33 7.96 271.1 11.79
11/2/2022 2:15:00 PM 13.02 55.436 0.33 7.98 285.9 11.92
11/2/2022 2:30:00 PM 13.08 55.544 0.33 8.01 278.1 12.01
11/2/2022 2:45:00 PM 13.12 55.616 0.33 8.03 280 12.05
11/2/2022 3:00:00 PM 13.17 55.706 0.329 8.04 278.9 12.04
11/2/2022 3:15:00 PM 13.2 55.76 0.329 8.07 287.5 12.09
11/2/2022 3:30:00 PM 13.25 55.85 0.329 8.09 286.4 12.1
11/2/2022 3:45:00 PM 13.28 55.904 0.328 8.11 285.5 12.15
11/2/2022 4:00:00 PM 13.31 55.958 0.327 8.11 285.1 12.22
11/2/2022 4:15:00 PM 13.32 55.976 0.324 8.13 277.4 12.17
11/2/2022 4:30:00 PM 13.31 55.958 0.322 8.14 268.4 12.1
11/2/2022 4:45:00 PM 13.3 55.94 0.304 8.14 265.2 11.9
11/2/2022 5:00:00 PM 13.3 55.94 0.325 8.14 272.4 11.88
11/2/2022 5:15:00 PM 13.29 55.922 0.327 8.14 281.4 11.81
11/2/2022 5:30:00 PM 13.27 55.886 0.326 8.14 284.4 11.69
11/2/2022 5:45:00 PM 13.25 55.85 0.326 8.13 325.9 11.45
11/2/2022 6:00:00 PM 13.22 55.796 0.302 8.13 293.6 11.38
11/2/2022 6:15:00 PM 13.19 55.742 0.323 8.11 289.6 11.19
11/2/2022 6:30:00 PM 13.16 55.688 0.326 8.1 296.3 11.09
11/2/2022 6:45:00 PM 13.13 55.634 0.326 8.09 297.4 10.84
11/2/2022 7:00:00 PM 13.09 55.562 0.326 8.08 298.8 10.77
11/2/2022 7:15:00 PM 13.05 55.49 0.326 8.06 294.4 10.59
11/2/2022 7:30:00 PM 13.01 55.418 0.326 8.05 296 10.48
11/2/2022 7:45:00 PM 12.98 55.364 0.327 8.04 297.7 10.34
11/2/2022 8:00:00 PM 12.94 55.292 0.327 8.02 298.7 10.26
11/2/2022 8:15:00 PM 12.91 55.238 0.328 8 297.9 10.18
11/2/2022 8:30:00 PM 12.88 55.184 0.328 7.99 298.5 10.11
11/2/2022 8:45:00 PM 12.84 55.112 0.328 7.97 298.7 9.95
11/2/2022 9:00:00 PM 12.81 55.058 0.329 7.96 300.1 9.82
11/2/2022 9:15:00 PM 12.78 55.004 0.329 7.94 298.9 9.75
11/2/2022 9:30:00 PM 12.76 54.968 0.329 7.93 297.2 9.72
11/2/2022 9:45:00 PM 12.72 54.896 0.329 7.91 299.2 9.7
11/2/2022 10:00:00 PM 12.69 54.842 0.33 7.9 289.3 9.56
11/2/2022 10:15:00 PM 12.66 54.788 0.33 7.88 291 9.49
11/2/2022 10:30:00 PM 12.62 54.716 0.33 7.87 294.9 9.39
11/2/2022 10:45:00 PM 12.59 54.662 0.331 7.86 298.2 9.38
11/2/2022 11:00:00 PM 12.56 54.608 0.332 7.84 304.6 9.25
11/2/2022 11:15:00 PM 12.53 54.554 0.333 7.83 301.9 9.32
11/2/2022 11:30:00 PM 12.5 54.5 0.334 7.82 300.8 9.27
11/2/2022 11:45:00 PM 12.47 54.446 0.335 7.8 304.3 9.16
11/3/2022 12:00:00 AM 12.44 54.392 0.335 7.79 303 9.17
11/3/2022 12:15:00 AM 12.43 54.374 0.336 7.79 302.3 9.11
11/3/2022 12:30:00 AM 12.39 54.302 0.336 7.78 308.8 9.13
11/3/2022 12:45:00 AM 12.36 54.248 0.336 7.77 309.3 9.05
11/3/2022 1:00:00 AM 12.34 54.212 0.336 7.76 307 9
11/3/2022 1:15:00 AM 12.3 54.14 0.336 7.75 314.7 9.06
11/3/2022 1:30:00 AM 12.28 54.104 0.336 7.75 307 9
11/3/2022 1:45:00 AM 12.26 54.068 0.336 7.75 309.4 8.97
11/3/2022 2:00:00 AM 12.22 53.996 0.336 7.73 312.2 8.95
11/3/2022 2:15:00 AM 12.21 53.978 0.336 7.74 328.3 8.95
11/3/2022 2:30:00 AM 12.17 53.906 0.337 7.73 337.3 8.9
11/3/2022 2:45:00 AM 12.16 53.888 0.337 7.73 320.5 8.93
11/3/2022 3:00:00 AM 12.11 53.798 0.337 7.72 321.3 8.9
11/3/2022 3:15:00 AM 12.09 53.762 0.337 7.72 305.1 8.91
11/3/2022 3:30:00 AM 12.05 53.69 0.337 7.71 307.6 8.89
11/3/2022 3:45:00 AM 12.02 53.636 0.336 7.71 310.2 8.84
11/3/2022 4:00:00 AM 11.99 53.582 0.336 7.7 327.7 8.9
11/3/2022 4:15:00 AM 11.96 53.528 0.335 7.72 307.3 8.85
11/3/2022 4:30:00 AM 11.91 53.438 0.335 7.7 310.8 8.86
11/3/2022 4:45:00 AM 11.9 53.42 0.334 7.7 310.9 8.87
11/3/2022 5:00:00 AM 11.84 53.312 0.335 7.69 313 8.84
11/3/2022 5:15:00 AM 11.82 53.276 0.335 7.69 328.1 8.88
11/3/2022 5:30:00 AM 11.76 53.168 0.335 7.68 315.1 8.84
11/3/2022 5:45:00 AM 11.73 53.114 0.335 7.68 373.7 8.88
11/3/2022 6:00:00 AM 11.68 53.024 0.335 7.68 346.9 8.9
11/3/2022 6:15:00 AM 11.65 52.97 0.335 7.68 349.2 8.88
11/3/2022 6:30:00 AM 11.62 52.916 0.334 7.68 352.8 8.88
11/3/2022 6:45:00 AM 11.55 52.79 0.334 7.67 347.5 8.94
11/3/2022 7:00:00 AM 11.5 52.7 0.334 7.67 348.2 8.83
11/3/2022 7:15:00 AM 11.48 52.664 0.333 7.67 350.9 8.94
11/3/2022 7:30:00 AM 11.41 52.538 0.333 7.66 346.5 8.91
11/3/2022 7:45:00 AM 11.37 52.466 0.333 7.66 347.9 8.98
11/3/2022 8:00:00 AM 11.31 52.358 0.333 7.66 343.9 8.94
11/3/2022 8:15:00 AM 11.27 52.286 0.334 7.66 337.9 9.07
11/3/2022 8:30:00 AM 11.25 52.25 0.334 7.66 331.4 9.01
11/3/2022 8:45:00 AM 11.22 52.196 0.334 7.66 322.4 9.13
11/3/2022 9:00:00 AM 11.2 52.16 0.335 7.67 348.4 9.3
11/3/2022 9:15:00 AM 11.22 52.196 0.334 7.67 300.2 9.41
11/3/2022 9:30:00 AM 11.22 52.196 0.334 7.68 295.5 9.62
11/3/2022 9:45:00 AM 11.23 52.214 0.333 7.69 297.3 9.69
11/3/2022 10:00:00 AM 11.27 52.286 0.333 7.71 313.1 9.87
11/3/2022 10:15:00 AM 11.29 52.322 0.333 7.71 307.5 10
11/3/2022 10:30:00 AM 11.32 52.376 0.333 7.72 311.2 10.15
11/3/2022 10:45:00 AM 11.37 52.466 0.333 7.74 316.7 10.29
11/3/2022 11:00:00 AM 11.42 52.556 0.333 7.76 321.6 10.49
11/3/2022 11:15:00 AM 11.47 52.646 0.334 7.77 315.9 10.62
11/3/2022 11:30:00 AM 11.53 52.754 0.334 7.79 321.2 10.77
11/3/2022 11:45:00 AM 11.6 52.88 0.334 7.8 328.3 10.85
11/3/2022 12:00:00 PM 11.64 52.952 0.335 7.82 327.2 11.01
11/3/2022 12:15:00 PM 11.71 53.078 0.334 7.84 326.5 11.12
11/3/2022 12:30:00 PM 11.77 53.186 0.334 7.86 329.2 11.29
11/3/2022 12:45:00 PM 11.83 53.294 0.333 7.87 329.9 11.43
11/3/2022 1:00:00 PM 11.9 53.42 0.333 7.89 326.4 11.51
11/3/2022 1:15:00 PM 11.97 53.546 0.332 7.91 331.4 11.63
11/3/2022 1:30:00 PM 12.03 53.654 0.332 7.93 358.2 11.73
11/3/2022 1:45:00 PM 12.09 53.762 0.331 7.95 365.8 11.83
11/3/2022 2:00:00 PM 12.16 53.888 0.331 7.97 353.3 11.92
11/3/2022 2:15:00 PM 12.22 53.996 0.331 7.99 363 11.98
11/3/2022 2:30:00 PM 12.28 54.104 0.331 8.01 365.4 12.04
11/3/2022 2:45:00 PM 12.34 54.212 0.331 8.02 472.3 12.1
11/3/2022 3:00:00 PM 12.38 54.284 0.331 8.04 373.7 12.17
11/3/2022 3:15:00 PM 12.43 54.374 0.33 8.06 340.3 12.17
11/3/2022 3:30:00 PM 12.46 54.428 0.33 8.07 320.5 12.21
11/3/2022 3:45:00 PM 12.49 54.482 0.329 8.08 343.3 12.23
11/3/2022 4:00:00 PM 12.52 54.536 0.329 8.09 332.7 12.15
11/3/2022 4:15:00 PM 12.53 54.554 0.328 8.1 334.2 12.09
11/3/2022 4:30:00 PM 12.54 54.572 0.328 8.1 330.1 12.04
11/3/2022 4:45:00 PM 12.54 54.572 0.328 8.11 335.5 12.04
11/3/2022 5:00:00 PM 12.54 54.572 0.327 8.12 335.4 11.91
11/3/2022 5:15:00 PM 12.52 54.536 0.327 8.11 322.9 11.78
11/3/2022 5:30:00 PM 12.5 54.5 0.328 8.11 328.7 11.69
11/3/2022 5:45:00 PM 12.47 54.446 0.327 8.1 354.6 11.52
11/3/2022 6:00:00 PM 12.44 54.392 0.327 8.09 598.1 11.42
11/3/2022 6:15:00 PM 12.4 54.32 0.327 8.07 340.3 11.25
11/3/2022 6:30:00 PM 12.35 54.23 0.328 8.06 339.2 11.12
11/3/2022 6:45:00 PM 12.31 54.158 0.327 8.05 361.4 10.98
11/3/2022 7:00:00 PM 12.26 54.068 0.327 8.03 489.3 10.78
11/3/2022 7:15:00 PM 12.21 53.978 0.327 8.02 360 10.72
11/3/2022 7:30:00 PM 12.17 53.906 0.327 8 353.1 10.59
11/3/2022 7:45:00 PM 12.11 53.798 0.327 7.98 345.4 10.47
11/3/2022 8:00:00 PM 12.06 53.708 0.327 7.97 593 10.4
11/3/2022 8:15:00 PM 12.04 53.672 0.327 7.95 508.2 10.31
11/3/2022 8:30:00 PM 11.98 53.564 0.328 7.93 577.6 10.13
11/3/2022 8:45:00 PM 11.96 53.528 0.328 7.92 332.2 10.13
11/3/2022 9:00:00 PM 11.91 53.438 0.328 7.91 334.1 10.05
11/3/2022 9:15:00 PM 11.89 53.402 0.328 7.9 355 10.01
11/3/2022 9:30:00 PM 11.85 53.33 0.328 7.89 340.3 9.87
11/3/2022 9:45:00 PM 11.8 53.24 0.328 7.87 350 9.85
11/3/2022 10:00:00 PM 11.79 53.222 0.328 7.87 451.5 9.8
11/3/2022 10:15:00 PM 11.74 53.132 0.328 7.85 508.3 9.75
11/3/2022 10:30:00 PM 11.71 53.078 0.329 7.85 335.2 9.67
11/3/2022 10:45:00 PM 11.67 53.006 0.33 7.83 346.8 9.64
11/3/2022 11:00:00 PM 11.65 52.97 0.331 7.83 363.8 9.64
11/3/2022 11:15:00 PM 11.62 52.916 0.332 7.82 442.9 9.56
11/3/2022 11:30:00 PM 11.59 52.862 0.334 7.8 356.2 9.56
11/3/2022 11:45:00 PM 11.57 52.826 0.335 7.8 463.1 9.53
11/4/2022 12:00:00 AM 11.53 52.754 0.336 7.79 372.7 9.5
11/4/2022 12:15:00 AM 11.53 52.754 0.337 7.78 421.8 9.45
11/4/2022 12:30:00 AM 11.49 52.682 0.337 7.77 355.4 9.39
11/4/2022 12:45:00 AM 11.48 52.664 0.337 7.77 324.3 9.39
11/4/2022 1:00:00 AM 11.47 52.646 0.337 7.76 369.9 9.35
11/4/2022 1:15:00 AM 11.43 52.574 0.336 7.76 387.3 9.32
11/4/2022 1:30:00 AM 11.42 52.556 0.336 7.76 362.6 9.31
11/4/2022 1:45:00 AM 11.39 52.502 0.336 7.76 344.4 9.35
11/4/2022 2:00:00 AM 11.36 52.448 0.336 7.74 333.5 9.35
11/4/2022 2:15:00 AM 11.35 52.43 0.336 7.74 336.7 9.25
11/4/2022 2:30:00 AM 11.32 52.376 0.336 7.73 394.4 9.26
11/4/2022 2:45:00 AM 11.31 52.358 0.337 7.73 436.2 9.23
11/4/2022 3:00:00 AM 11.29 52.322 0.337 7.72 354.2 9.28
11/4/2022 3:15:00 AM 11.28 52.304 0.337 7.72 351.1 9.21
11/4/2022 3:30:00 AM 11.26 52.268 0.336 7.72 344.5 9.21
11/4/2022 3:45:00 AM 11.25 52.25 0.336 7.72 408.8 9.17
11/4/2022 4:00:00 AM 11.24 52.232 0.335 7.71 465 9.17
11/4/2022 4:15:00 AM 11.2 52.16 0.335 7.71 475 9.16
11/4/2022 4:30:00 AM 11.18 52.124 0.334 7.71 427.4 9.18
11/4/2022 4:45:00 AM 11.15 52.07 0.335 7.71 371.8 9.12
11/4/2022 5:00:00 AM 11.13 52.034 0.334 7.7 353.8 9.19
11/4/2022 5:15:00 AM 11.11 51.998 0.335 7.7 393.5 9.2
11/4/2022 5:30:00 AM 11.1 51.98 0.335 7.71 473.7 9.23
11/4/2022 5:45:00 AM 11.07 51.926 0.335 7.7 418.6 9.17
11/4/2022 6:00:00 AM 11.03 51.854 0.335 7.69 559.9 9.19
11/4/2022 6:15:00 AM 11 51.8 0.335 7.69 544.8 9.16
11/4/2022 6:30:00 AM 10.99 51.782 0.335 7.69 408.7 9.15
11/4/2022 6:45:00 AM 10.94 51.692 0.335 7.69 408.7 9.12
11/4/2022 7:00:00 AM 10.9 51.62 0.335 7.68 443.4 9.16
11/4/2022 7:15:00 AM 10.87 51.566 0.334 7.68 448.1 9.21
11/4/2022 7:30:00 AM 10.84 51.512 0.334 7.68 438.7 9.24
11/4/2022 7:45:00 AM 10.81 51.458 0.334 7.68 555 9.2
11/4/2022 8:00:00 AM 10.79 51.422 0.334 7.68 559.3 9.24
11/4/2022 8:15:00 AM 10.77 51.386 0.335 7.68 523.2 9.24
11/4/2022 8:30:00 AM 10.77 51.386 0.335 7.68 547.3 9.39
11/4/2022 8:45:00 AM 10.77 51.386 0.336 7.68 366.9 9.43
11/4/2022 9:00:00 AM 10.77 51.386 0.336 7.69 353.3 9.49
11/4/2022 9:15:00 AM 10.79 51.422 0.336 7.69 428.1 9.75
11/4/2022 9:30:00 AM 10.81 51.458 0.336 7.7 367.8 9.94
11/4/2022 9:45:00 AM 10.81 51.458 0.336 7.71 367 10.07
11/4/2022 10:00:00 AM 10.85 51.53 0.336 7.72 356.9 10.19
11/4/2022 10:15:00 AM 10.92 51.656 0.335 7.74 359.1 10.35
11/4/2022 10:30:00 AM 10.96 51.728 0.335 7.75 361.4 10.59
11/4/2022 10:45:00 AM 11.01 51.818 0.335 7.76 370 10.72
11/4/2022 11:00:00 AM 11.09 51.962 0.336 7.78 400.4 10.84
11/4/2022 11:15:00 AM 11.16 52.088 0.336 7.8 469.9 10.98
11/4/2022 11:30:00 AM 11.25 52.25 0.337 7.82 406.8 11.2
11/4/2022 11:45:00 AM 11.33 52.394 0.338 7.83 415.8 11.34
11/4/2022 12:00:00 PM 11.41 52.538 0.338 7.85 424 11.48
11/4/2022 12:15:00 PM 11.49 52.682 0.338 7.87 431.2 11.57
11/4/2022 12:30:00 PM 11.57 52.826 0.338 7.89 449.7 11.79
11/4/2022 12:45:00 PM 11.68 53.024 0.338 7.91 377.7 11.91
11/4/2022 1:00:00 PM 11.77 53.186 0.337 7.94 376.1 12.04
11/4/2022 1:15:00 PM 11.84 53.312 0.337 7.96 378.8 12.15
11/4/2022 1:30:00 PM 11.93 53.474 0.336 7.97 382.8 12.23
11/4/2022 1:45:00 PM 12.01 53.618 0.336 8 385.8 12.37
11/4/2022 2:00:00 PM 12.1 53.78 0.336 8.01 403.7 12.36
11/4/2022 2:15:00 PM 12.19 53.942 0.336 8.03 404.2 12.44
11/4/2022 2:30:00 PM 12.28 54.104 0.336 8.05 409.6 12.56
11/4/2022 2:45:00 PM 12.35 54.23 0.336 8.07 428.7 12.56
11/4/2022 3:00:00 PM 12.42 54.356 0.336 8.09 416.7 12.62
11/4/2022 3:15:00 PM 12.48 54.464 0.336 8.11 410.8 12.63
11/4/2022 3:30:00 PM 12.54 54.572 0.335 8.12 404 12.62
11/4/2022 3:45:00 PM 12.59 54.662 0.335 8.13 396.8 12.61
11/4/2022 4:00:00 PM 12.63 54.734 0.335 8.14 406.6 12.6
11/4/2022 4:15:00 PM 12.66 54.788 0.335 8.15 397.7 12.55
11/4/2022 4:30:00 PM 12.69 54.842 0.334 8.16 390.8 12.48
11/4/2022 4:45:00 PM 12.7 54.86 0.334 8.16 392.4 12.41
11/4/2022 5:00:00 PM 12.71 54.878 0.334 8.17 391.2 12.29
11/4/2022 5:15:00 PM 12.71 54.878 0.334 8.17 371 12.12
11/4/2022 5:30:00 PM 12.7 54.86 0.334 8.16 374.7 12.02
11/4/2022 5:45:00 PM 12.69 54.842 0.334 8.16 397.3 11.84
11/4/2022 6:00:00 PM 12.67 54.806 0.334 8.15 389 11.67
11/4/2022 6:15:00 PM 12.64 54.752 0.335 8.14 425.3 11.51
11/4/2022 6:30:00 PM 12.61 54.698 0.335 8.13 414.2 11.37
11/4/2022 6:45:00 PM 12.6 54.68 0.335 8.12 394.8 11.22
11/4/2022 7:00:00 PM 12.57 54.626 0.335 8.09 412.3 10.97
11/4/2022 7:15:00 PM 12.55 54.59 0.335 8.08 418.7 10.87
11/4/2022 7:30:00 PM 12.52 54.536 0.335 8.06 459.5 10.74
11/4/2022 7:45:00 PM 12.5 54.5 0.335 8.05 459.3 10.6
11/4/2022 8:00:00 PM 12.48 54.464 0.335 8.03 464.7 10.49
11/4/2022 8:15:00 PM 12.46 54.428 0.333 8.01 432.6 10.45
11/4/2022 8:30:00 PM 12.45 54.41 0.335 8 375.7 10.26
11/4/2022 8:45:00 PM 12.43 54.374 0.33 7.98 319.4 10.18
11/4/2022 9:00:00 PM 12.41 54.338 0.336 7.97 339.5 10.11
11/4/2022 9:15:00 PM 12.4 54.32 0.336 7.95 339.2 10.01
11/4/2022 9:30:00 PM 12.4 54.32 0.335 7.94 332.6 9.89
11/4/2022 9:45:00 PM 12.39 54.302 0.335 7.93 340.2 9.78
11/4/2022 10:00:00 PM 12.37 54.266 0.335 7.91 346.6 9.81
11/4/2022 10:15:00 PM 12.36 54.248 0.336 7.89 338.9 9.63
11/4/2022 10:30:00 PM 12.36 54.248 0.335 7.88 346.1 9.63
11/4/2022 10:45:00 PM 12.36 54.248 0.335 7.87 350.4 9.54
11/4/2022 11:00:00 PM 12.36 54.248 0.336 7.86 377 9.49
11/4/2022 11:15:00 PM 12.38 54.284 0.338 7.84 402.5 9.44
11/4/2022 11:30:00 PM 12.38 54.284 0.338 7.84 358.2 9.36
11/4/2022 11:45:00 PM 12.37 54.266 0.339 7.83 359.2 9.32
11/5/2022 12:00:00 AM 12.37 54.266 0.339 7.82 363.4 9.25
11/5/2022 12:15:00 AM 12.37 54.266 0.339 7.81 363.5 9.25
11/5/2022 12:30:00 AM 12.36 54.248 0.339 7.8 345.9 9.16
11/5/2022 12:45:00 AM 12.37 54.266 0.339 7.8 307.8 9.14
11/5/2022 1:00:00 AM 12.36 54.248 0.34 7.79 310.4 9.16
11/5/2022 1:15:00 AM 12.36 54.248 0.339 7.78 311.6 9.12
11/5/2022 1:30:00 AM 12.35 54.23 0.339 7.77 313.9 9.08
11/5/2022 1:45:00 AM 12.35 54.23 0.34 7.77 326.8 9.1
11/5/2022 2:00:00 AM 12.34 54.212 0.338 7.76 331.9 9
11/5/2022 2:15:00 AM 12.34 54.212 0.339 7.75 322.5 9.04
11/5/2022 2:30:00 AM 12.34 54.212 0.34 7.73 313 9
11/5/2022 2:45:00 AM 12.36 54.248 0.341 7.72 346.5 8.92
11/5/2022 3:00:00 AM 12.37 54.266 0.341 7.73 350.2 8.97
11/5/2022 3:15:00 AM 12.39 54.302 0.34 7.73 326.6 8.93
11/5/2022 3:30:00 AM 12.41 54.338 0.339 7.73 334.4 8.91
11/5/2022 3:45:00 AM 12.42 54.356 0.339 7.73 379.3 8.85
11/5/2022 4:00:00 AM 12.43 54.374 0.338 7.72 341.4 8.8
11/5/2022 4:15:00 AM 12.44 54.392 0.337 7.72 431.4 8.83
11/5/2022 4:30:00 AM 12.46 54.428 0.337 7.71 330.6 8.83
11/5/2022 4:45:00 AM 12.47 54.446 0.34 7.71 330.3 8.78
11/5/2022 5:00:00 AM 12.48 54.464 0.337 7.71 346.5 8.8
11/5/2022 5:15:00 AM 12.5 54.5 0.338 7.7 343.7 8.75
11/5/2022 5:30:00 AM 12.51 54.518 0.337 7.7 352.5 8.76
11/5/2022 5:45:00 AM 12.53 54.554 0.343 7.69 366.1 8.7
11/5/2022 6:00:00 AM 12.54 54.572 0.338 7.69 402.5 8.63
11/5/2022 6:15:00 AM 12.55 54.59 0.339 7.69 381.6 8.6
11/5/2022 6:30:00 AM 12.56 54.608 0.338 7.68 345.3 8.64
11/5/2022 6:45:00 AM 12.57 54.626 0.338 7.68 354.6 8.6
11/5/2022 7:00:00 AM 12.58 54.644 0.338 7.67 354.3 8.66
11/5/2022 7:15:00 AM 12.6 54.68 0.338 7.67 344.7 8.64
11/5/2022 7:30:00 AM 12.61 54.698 0.337 7.67 341.9 8.57
11/5/2022 7:45:00 AM 12.62 54.716 0.337 7.69 353.6 8.63
11/5/2022 8:00:00 AM 12.64 54.752 0.336 7.7 356 8.61
11/5/2022 8:15:00 AM 12.66 54.788 0.337 7.69 371.8 8.63
11/5/2022 8:30:00 AM 12.69 54.842 0.338 7.7 369 8.71
11/5/2022 8:45:00 AM 12.73 54.914 0.338 7.7 366.8 8.77
11/5/2022 9:00:00 AM 12.8 55.04 0.339 7.71 414.2 9.04
11/5/2022 9:15:00 AM 12.83 55.094 0.338 7.72 369.5 9.06
11/5/2022 9:30:00 AM 12.87 55.166 0.338 7.74 364.7 9.24
11/5/2022 9:45:00 AM 12.92 55.256 0.338 7.75 356.3 9.45
11/5/2022 10:00:00 AM 12.96 55.328 0.338 7.76 363.3 9.53
11/5/2022 10:15:00 AM 12.99 55.382 0.337 7.77 372.1 9.62
11/5/2022 10:30:00 AM 13.06 55.508 0.337 7.79 381.5 9.7
11/5/2022 10:45:00 AM 13.17 55.706 0.337 7.8 372.4 9.9
11/5/2022 11:00:00 AM 13.25 55.85 0.338 7.83 367 10.19
11/5/2022 11:15:00 AM 13.38 56.084 0.338 7.86 374.3 10.41
11/5/2022 11:30:00 AM 13.5 56.3 0.338 7.88 384.8 10.64
11/5/2022 11:45:00 AM 13.58 56.444 0.338 7.91 388 10.8
11/5/2022 12:00:00 PM 13.69 56.642 0.339 7.93 383.7 10.94
11/5/2022 12:15:00 PM 13.82 56.876 0.338 7.96 391.9 10.98
11/5/2022 12:30:00 PM 13.92 57.056 0.338 7.99 392.4 11.22
11/5/2022 12:45:00 PM 14.03 57.254 0.338 8.02 388.1 11.4
11/5/2022 1:00:00 PM 14.16 57.488 0.337 8.05 433.6 11.64
11/5/2022 1:15:00 PM 14.23 57.614 0.337 8.08 507.3 11.71
11/5/2022 1:30:00 PM 14.32 57.776 0.337 8.12 366.6 11.86
11/5/2022 1:45:00 PM 14.42 57.956 0.336 8.14 378.9 11.95
11/5/2022 2:00:00 PM 14.51 58.118 0.336 8.16 378.8 12.04
11/5/2022 2:15:00 PM 14.61 58.298 0.335 8.2 395.7 12.17
11/5/2022 2:30:00 PM 14.65 58.37 0.336 8.23 354.6 12.26
11/5/2022 2:45:00 PM 14.7 58.46 0.336 8.25 337.3 12.33
11/5/2022 3:00:00 PM 14.79 58.622 0.335 8.27 346.7 12.27
11/5/2022 3:15:00 PM 14.85 58.73 0.335 8.3 331.5 12.37
11/5/2022 3:30:00 PM 14.92 58.856 0.335 8.32 357.8 12.4
11/5/2022 3:45:00 PM 15.01 59.018 0.334 8.34 371.9 12.46
11/5/2022 4:00:00 PM 15.07 59.126 0.334 8.37 382 12.56
11/5/2022 4:15:00 PM 15.09 59.162 0.333 8.38 377.2 12.45
11/5/2022 4:30:00 PM 15.17 59.306 0.333 8.39 374 12.36
11/5/2022 4:45:00 PM 15.2 59.36 0.333 8.4 373.2 12.4
11/5/2022 5:00:00 PM 15.24 59.432 0.333 8.41 386.4 12.18
11/5/2022 5:15:00 PM 15.25 59.45 0.332 8.41 381.3 12.1
11/5/2022 5:30:00 PM 15.23 59.414 0.333 8.41 380 11.92
11/5/2022 5:45:00 PM 15.2 59.36 0.333 8.4 384.6 11.65
11/5/2022 6:00:00 PM 15.24 59.432 0.333 8.39 379 11.34
11/5/2022 6:15:00 PM 15.23 59.414 0.333 8.37 368 11.19
11/5/2022 6:30:00 PM 15.23 59.414 0.333 8.35 412.4 11
11/5/2022 6:45:00 PM 15.22 59.396 0.333 8.34 397.2 10.84
11/5/2022 7:00:00 PM 15.21 59.378 0.333 8.31 399.4 10.59
11/5/2022 7:15:00 PM 15.18 59.324 0.333 8.29 426.9 10.42
11/5/2022 7:30:00 PM 15.17 59.306 0.333 8.27 407.4 10.23
11/5/2022 7:45:00 PM 15.15 59.27 0.333 8.24 449.2 10.11
11/5/2022 8:00:00 PM 15.12 59.216 0.334 8.22 431.8 9.91
11/5/2022 8:15:00 PM 15.13 59.234 0.334 8.19 429.7 9.8
11/5/2022 8:30:00 PM 15.13 59.234 0.334 8.16 430.5 9.62
11/5/2022 8:45:00 PM 15.11 59.198 0.334 8.14 422.1 9.41
11/5/2022 9:00:00 PM 15.08 59.144 0.334 8.11 425.3 9.4
11/5/2022 9:15:00 PM 15.08 59.144 0.335 8.08 433.5 9.29
11/5/2022 9:30:00 PM 15.06 59.108 0.335 8.06 430.7 9.13
11/5/2022 9:45:00 PM 15.06 59.108 0.335 8.03 426.3 9
11/5/2022 10:00:00 PM 15.05 59.09 0.335 8 425.4 8.78
11/5/2022 10:15:00 PM 15.03 59.054 0.335 7.98 436.9 8.78
11/5/2022 10:30:00 PM 15.04 59.072 0.335 7.96 428.2 8.69
11/5/2022 10:45:00 PM 15.03 59.054 0.336 7.94 435.9 8.51
11/5/2022 11:00:00 PM 15.03 59.054 0.336 7.92 440.1 8.48
11/5/2022 11:15:00 PM 15.03 59.054 0.337 7.9 441.4 8.47
11/5/2022 11:30:00 PM 15.03 59.054 0.337 7.88 429.9 8.45
11/5/2022 11:45:00 PM 15.03 59.054 0.338 7.87 468 8.34
11/6/2022 12:00:00 AM 15.05 59.09 0.339 7.85 426.5 8.28
11/6/2022 12:15:00 AM 15.05 59.09 0.339 7.84 446.5 8.18
11/6/2022 12:30:00 AM 15.02 59.036 0.34 7.83 422 8.22
11/6/2022 12:45:00 AM 15.04 59.072 0.34 7.82 421.5 8.18
11/6/2022 1:00:00 AM 15.03 59.054 0.34 7.82 438.9 8.16
11/6/2022 1:15:00 AM 15.04 59.072 0.34 7.81 406.2 8.12
11/6/2022 1:30:00 AM 15.05 59.09 0.34 7.8 435.4 8.03
11/6/2022 1:45:00 AM 15.05 59.09 0.34 7.79 438 8.03
11/6/2022 2:00:00 AM 15.06 59.108 0.341 7.79 432.8 8
11/6/2022 2:15:00 AM 15.07 59.126 0.341 7.78 445.9 7.95
11/6/2022 2:30:00 AM 15.1 59.18 0.342 7.77 428.7 7.97
11/6/2022 2:45:00 AM 15.11 59.198 0.343 7.77 443.6 7.92
11/6/2022 3:00:00 AM 15.11 59.198 0.344 7.76 456.5 7.89
11/6/2022 3:15:00 AM 15.15 59.27 0.343 7.74 450 7.69
11/6/2022 3:30:00 AM 15.17 59.306 0.343 7.73 450.3 7.68
11/6/2022 3:45:00 AM 15.17 59.306 0.343 7.73 459.8 7.65
11/6/2022 4:00:00 AM 15.19 59.342 0.343 7.72 454.6 7.72
11/6/2022 4:15:00 AM 15.19 59.342 0.343 7.72 453.6 7.6
11/6/2022 4:30:00 AM 15.21 59.378 0.343 7.71 455.2 7.6
11/6/2022 4:45:00 AM 15.22 59.396 0.343 7.7 484.1 7.57
11/6/2022 5:00:00 AM 15.22 59.396 0.343 7.7 478.3 7.62
11/6/2022 5:15:00 AM 15.24 59.432 0.343 7.7 462.8 7.55
11/6/2022 5:30:00 AM 15.23 59.414 0.342 7.7 455.2 7.54
11/6/2022 5:45:00 AM 15.24 59.432 0.339 7.69 464.4 7.56
11/6/2022 6:00:00 AM 15.24 59.432 0.342 7.69 462.3 7.59
11/6/2022 6:15:00 AM 15.24 59.432 0.341 7.69 469.1 7.56
11/6/2022 6:30:00 AM 15.25 59.45 0.34 7.68 464.5 7.56
11/6/2022 6:45:00 AM 15.25 59.45 0.34 7.68 471.2 7.51
11/6/2022 7:00:00 AM 15.26 59.468 0.34 7.68 465.6 7.56
11/6/2022 7:15:00 AM 15.26 59.468 0.34 7.68 478.6 7.63
11/6/2022 7:30:00 AM 15.27 59.486 0.341 7.68 474.1 7.49
11/6/2022 7:45:00 AM 15.29 59.522 0.341 7.68 453.6 7.63
11/6/2022 8:00:00 AM 15.3 59.54 0.341 7.68 470.4 7.7
11/6/2022 8:15:00 AM 15.32 59.576 0.34 7.68 471.4 7.77
11/6/2022 8:30:00 AM 15.35 59.63 0.34 7.68 468.9 7.83
11/6/2022 8:45:00 AM 15.38 59.684 0.339 7.7 463.3 7.99
11/6/2022 9:00:00 AM 15.42 59.756 0.339 7.7 473.4 8.15
11/6/2022 9:15:00 AM 15.46 59.828 0.339 7.72 478 8.44
11/6/2022 9:30:00 AM 15.53 59.954 0.338 7.74 492.6 8.71
11/6/2022 9:45:00 AM 15.59 60.062 0.338 7.78 469.3 9
11/6/2022 10:00:00 AM 15.63 60.134 0.338 7.8 488.2 9.16
11/6/2022 10:15:00 AM 15.68 60.224 0.338 7.82 482.6 9.35
11/6/2022 10:30:00 AM 15.73 60.314 0.338 7.84 492.2 9.49
11/6/2022 10:45:00 AM 15.76 60.368 0.339 7.86 486.2 9.51
11/6/2022 11:00:00 AM 15.85 60.53 0.339 7.89 487.8 9.67
11/6/2022 11:15:00 AM 15.88 60.584 0.338 7.92 493.3 10.08
11/6/2022 11:30:00 AM 15.95 60.71 0.338 7.95 495 10.23
11/6/2022 11:45:00 AM 16.02 60.836 0.338 7.98 493.4 10.37
11/6/2022 12:00:00 PM 16.05 60.89 0.337 8 497.3 10.42
11/6/2022 12:15:00 PM 16.08 60.944 0.337 8.02 494.3 10.53
11/6/2022 12:30:00 PM 16.14 61.052 0.336 8.05 500.7 10.61
11/6/2022 12:45:00 PM 16.23 61.214 0.336 8.09 504.4 10.85
11/6/2022 1:00:00 PM 16.23 61.214 0.336 8.12 502.3 11.01
11/6/2022 1:15:00 PM 16.35 61.43 0.335 8.16 501.4 11.33
11/6/2022 1:30:00 PM 16.41 61.538 0.335 8.19 512.9 11.23
11/6/2022 1:45:00 PM 16.43 61.574 0.335 8.22 515.1 11.27
11/6/2022 2:00:00 PM 16.43 61.574 0.336 8.24 526.7 11.34
11/6/2022 2:15:00 PM 16.51 61.718 0.335 8.25 524.2 11.3
11/6/2022 2:30:00 PM 16.52 61.736 0.335 8.28 523.3 11.24
11/6/2022 2:45:00 PM 16.57 61.826 0.335 8.28 538.3 11.21
11/6/2022 3:00:00 PM 16.6 61.88 0.334 8.29 530.4 11.09
11/6/2022 3:15:00 PM 16.63 61.934 0.334 8.29 535.7 11.03
11/6/2022 3:30:00 PM 16.63 61.934 0.334 8.29 534.8 10.92
11/6/2022 3:45:00 PM 16.67 62.006 0.334 8.29 560.2 10.71
11/6/2022 4:00:00 PM 16.64 61.952 0.334 8.28 573.2 10.62
11/6/2022 4:15:00 PM 16.67 62.006 0.334 8.28 562.7 10.48
11/6/2022 4:30:00 PM 16.65 61.97 0.334 8.26 555.1 10.3
11/6/2022 4:45:00 PM 16.65 61.97 0.334 8.25 565.3 10.13
11/6/2022 5:00:00 PM 16.64 61.952 0.334 8.23 565 10.02
11/6/2022 5:15:00 PM 16.63 61.934 0.335 8.21 567.4 9.88
11/6/2022 5:30:00 PM 16.62 61.916 0.335 8.19 561.2 9.72
11/6/2022 5:45:00 PM 16.6 61.88 0.335 8.16 539.4 9.51
11/6/2022 6:00:00 PM 16.58 61.844 0.335 8.14 556.2 9.37
11/6/2022 6:15:00 PM 16.57 61.826 0.334 8.12 563.9 9.28
11/6/2022 6:30:00 PM 16.55 61.79 0.323 8.1 554.3 9.14
11/6/2022 6:45:00 PM 16.54 61.772 0.334 8.07 558 9.02
11/6/2022 7:00:00 PM 16.53 61.754 0.334 8.04 553.4 8.83
11/6/2022 7:15:00 PM 16.51 61.718 0.334 8.02 552.4 8.73
11/6/2022 7:30:00 PM 16.47 61.646 0.335 8 513 8.66
11/6/2022 7:45:00 PM 16.46 61.628 0.334 7.97 513.2 8.53
11/6/2022 8:00:00 PM 16.43 61.574 0.334 7.95 511.5 8.43
11/6/2022 8:15:00 PM 16.43 61.574 0.334 7.93 519.9 8.34
11/6/2022 8:30:00 PM 16.4 61.52 0.334 7.91 512.8 8.29
11/6/2022 8:45:00 PM 16.42 61.556 0.334 7.9 542.3 8.19
11/6/2022 9:00:00 PM 16.4 61.52 0.334 7.88 519.1 8.17
11/6/2022 9:15:00 PM 16.39 61.502 0.333 7.86 522.4 8.03
11/6/2022 9:30:00 PM 16.38 61.484 0.334 7.85 511.2 8.07
11/6/2022 9:45:00 PM 16.37 61.466 0.333 7.83 510.5 7.99
11/6/2022 10:00:00 PM 16.34 61.412 0.334 7.82 515.7 7.93
11/6/2022 10:15:00 PM 16.33 61.394 0.334 7.81 529 7.9
11/6/2022 10:30:00 PM 16.32 61.376 0.335 7.8 523.7 7.86
11/6/2022 10:45:00 PM 16.32 61.376 0.335 7.78 539.5 7.82
11/6/2022 11:00:00 PM 16.31 61.358 0.335 7.78 541 7.78
11/6/2022 11:15:00 PM 16.31 61.358 0.335 7.77 546.7 7.71
11/6/2022 11:30:00 PM 16.29 61.322 0.335 7.77 549.7 7.71
11/6/2022 11:45:00 PM 16.3 61.34 0.335 7.76 558 7.68
11/7/2022 12:00:00 AM 16.29 61.322 0.334 7.75 542 7.6
11/7/2022 12:15:00 AM 16.28 61.304 0.334 7.75 550.3 7.62
11/7/2022 12:30:00 AM 16.29 61.322 0.334 7.74 550.6 7.6
11/7/2022 12:45:00 AM 16.29 61.322 0.334 7.74 551.2 7.59
11/7/2022 1:00:00 AM 16.29 61.322 0.335 7.74 552 7.53
11/7/2022 1:15:00 AM 16.29 61.322 0.335 7.73 522.9 7.51
11/7/2022 1:30:00 AM 16.26 61.268 0.337 7.73 548.5 7.49
11/7/2022 1:45:00 AM 16.29 61.322 0.337 7.73 499.8 7.51
11/7/2022 2:00:00 AM 16.27 61.286 0.337 7.72 494.7 7.51
11/7/2022 2:15:00 AM 16.27 61.286 0.339 7.71 526.7 7.37
11/7/2022 2:30:00 AM 16.26 61.268 0.338 7.71 510 7.4
11/7/2022 2:45:00 AM 16.24 61.232 0.337 7.71 536.1 7.42
11/7/2022 3:00:00 AM 16.22 61.196 0.336 7.71 529.2 7.36
11/7/2022 3:15:00 AM 16.21 61.178 0.336 7.71 516.7 7.4
11/7/2022 3:30:00 AM 16.19 61.142 0.337 7.7 526.6 7.38
11/7/2022 3:45:00 AM 16.17 61.106 0.335 7.7 508.1 7.41
11/7/2022 4:00:00 AM 16.15 61.07 0.336 7.7 522.5 7.37
11/7/2022 4:15:00 AM 16.13 61.034 0.336 7.69 472.2 7.36
11/7/2022 4:30:00 AM 16.13 61.034 0.337 7.69 521.4 7.36
11/7/2022 4:45:00 AM 16.13 61.034 0.337 7.69 520.2 7.35
11/7/2022 5:00:00 AM 16.12 61.016 0.338 7.69 548.3 7.37
11/7/2022 5:15:00 AM 16.11 60.998 0.338 7.68 539.7 7.32
11/7/2022 5:30:00 AM 16.11 60.998 0.338 7.68 565.9 7.31
11/7/2022 5:45:00 AM 16.11 60.998 0.338 7.68 494.6 7.3
11/7/2022 6:00:00 AM 16.1 60.98 0.337 7.68 570.2 7.33
11/7/2022 6:15:00 AM 16.1 60.98 0.337 7.67 576 7.36
11/7/2022 6:30:00 AM 16.08 60.944 0.336 7.67 566.2 7.31
11/7/2022 6:45:00 AM 16.07 60.926 0.336 7.67 562.2 7.35
11/7/2022 7:00:00 AM 16.04 60.872 0.336 7.67 560.4 7.35
11/7/2022 7:15:00 AM 16.03 60.854 0.337 7.67 567.1 7.34
11/7/2022 7:30:00 AM 16.01 60.818 0.337 7.67 557.8 7.41
11/7/2022 7:45:00 AM 16.01 60.818 0.338 7.67 560.3 7.41
11/7/2022 8:00:00 AM 16.02 60.836 0.337 7.68 556.8 7.52
11/7/2022 8:15:00 AM 16.04 60.872 0.337 7.69 567.3 7.71
11/7/2022 8:30:00 AM 16.06 60.908 0.337 7.7 560.8 7.85
11/7/2022 8:45:00 AM 16.06 60.908 0.337 7.71 559.7 7.94
11/7/2022 9:00:00 AM 16.07 60.926 0.337 7.72 550.5 8.09
11/7/2022 9:15:00 AM 16.07 60.926 0.336 7.74 549.1 8.28
11/7/2022 9:30:00 AM 16.09 60.962 0.336 7.76 551.3 8.47
11/7/2022 9:45:00 AM 16.11 60.998 0.336 7.78 549.4 8.66
11/7/2022 10:00:00 AM 16.15 61.07 0.336 7.8 605.2 8.87
11/7/2022 10:15:00 AM 16.18 61.124 0.336 7.83 560.8 9.04
11/7/2022 10:30:00 AM 16.21 61.178 0.337 7.85 566.1 9.22
11/7/2022 10:45:00 AM 16.25 61.25 0.337 7.87 562.3 9.34
11/7/2022 11:00:00 AM 16.24 61.232 0.338 7.9 570 9.57
11/7/2022 11:15:00 AM 16.29 61.322 0.338 7.93 567.9 9.77
11/7/2022 11:30:00 AM 16.34 61.412 0.338 7.95 576.4 9.9
11/7/2022 11:45:00 AM 16.38 61.484 0.338 7.98 568.2 10.1
11/7/2022 12:00:00 PM 16.41 61.538 0.337 8.01 566.5 10.26
11/7/2022 12:15:00 PM 16.44 61.592 0.337 8.04 572.3 10.41
11/7/2022 12:30:00 PM 16.47 61.646 0.336 8.07 584.8 10.51
11/7/2022 12:45:00 PM 16.49 61.682 0.336 8.1 572.3 10.66
11/7/2022 1:00:00 PM 16.52 61.736 0.336 8.13 571.3 10.83
11/7/2022 1:15:00 PM 16.52 61.736 0.336 8.15 566.3 10.95
11/7/2022 1:30:00 PM 16.57 61.826 0.336 8.18 571.5 11.05
11/7/2022 1:45:00 PM 16.57 61.826 0.336 8.21 570 11.15
11/7/2022 2:00:00 PM 16.59 61.862 0.336 8.24 573.9 11.24
11/7/2022 2:15:00 PM 16.59 61.862 0.336 8.26 581.1 11.21
11/7/2022 2:30:00 PM 16.62 61.916 0.336 8.28 567.4 11.26
11/7/2022 2:45:00 PM 16.61 61.898 0.336 8.3 566.5 11.24
11/7/2022 3:00:00 PM 16.59 61.862 0.336 8.31 569.3 11.23
11/7/2022 3:15:00 PM 16.6 61.88 0.335 8.32 573.5 11.17
11/7/2022 3:30:00 PM 16.59 61.862 0.335 8.32 567.7 11.06
11/7/2022 3:45:00 PM 16.55 61.79 0.335 8.32 572.9 10.97
11/7/2022 4:00:00 PM 16.52 61.736 0.334 8.31 574 10.9
11/7/2022 4:15:00 PM 16.46 61.628 0.335 8.3 579.7 10.75
11/7/2022 4:30:00 PM 16.43 61.574 0.336 8.29 584.8 10.64
11/7/2022 4:45:00 PM 16.38 61.484 0.335 8.28 579.3 10.49
11/7/2022 5:00:00 PM 16.32 61.376 0.335 8.26 575.1 10.32
11/7/2022 5:15:00 PM 16.26 61.268 0.336 8.24 587.8 10.19
11/7/2022 5:30:00 PM 16.19 61.142 0.335 8.23 585.1 9.96
11/7/2022 5:45:00 PM 16.12 61.016 0.336 8.16 588.2 9.82
11/7/2022 6:00:00 PM 16.04 60.872 0.335 8.14 594.4 9.68
11/7/2022 6:15:00 PM 15.96 60.728 0.335 8.14 595.9 9.54
11/7/2022 6:30:00 PM 15.88 60.584 0.335 8.11 600.6 9.35
11/7/2022 6:45:00 PM 15.81 60.458 0.334 8.08 608.2 9.22
11/7/2022 7:00:00 PM 15.73 60.314 0.334 8.05 605.7 9.11
11/7/2022 7:15:00 PM 15.66 60.188 0.334 8.03 613 9.01
11/7/2022 7:30:00 PM 15.58 60.044 0.334 8 628.1 8.91
11/7/2022 7:45:00 PM 15.51 59.918 0.334 7.98 608.5 8.81
11/7/2022 8:00:00 PM 15.45 59.81 0.336 7.96 552.3 8.73
11/7/2022 8:15:00 PM 15.37 59.666 0.337 7.93 570.9 8.62
11/7/2022 8:30:00 PM 15.31 59.558 0.334 7.92 551.6 8.57
11/7/2022 8:45:00 PM 15.25 59.45 0.323 7.91 548.9 8.41
11/7/2022 9:00:00 PM 15.19 59.342 0.333 7.89 556.8 8.4
11/7/2022 9:15:00 PM 15.12 59.216 0.334 7.88 528.7 8.36
11/7/2022 9:30:00 PM 15.05 59.09 0.334 7.87 543.8 8.35
11/7/2022 9:45:00 PM 14.99 58.982 0.334 7.86 548.1 8.29
11/7/2022 10:00:00 PM 14.94 58.892 0.335 7.85 536.9 8.18
11/7/2022 10:15:00 PM 14.9 58.82 0.335 7.84 513.9 8.13
11/7/2022 10:30:00 PM 14.84 58.712 0.336 7.83 542.2 8.15
11/7/2022 10:45:00 PM 14.78 58.604 0.335 7.81 534.7 8.12
11/7/2022 11:00:00 PM 14.72 58.496 0.337 7.81 518.5 8.12
11/7/2022 11:15:00 PM 14.67 58.406 0.339 7.81 516.9 8.1
11/7/2022 11:30:00 PM 14.62 58.316 0.34 7.8 529.2 8.04
11/7/2022 11:45:00 PM 14.58 58.244 0.34 7.79 525.6 8.08
11/8/2022 12:00:00 AM 14.53 58.154 0.342 7.79 525.1 8.08
11/8/2022 12:15:00 AM 14.49 58.082 0.341 7.79 514.4 8.05
11/8/2022 12:30:00 AM 14.43 57.974 0.341 7.78 540.6 7.93
11/8/2022 12:45:00 AM 14.38 57.884 0.342 7.78 545 8.01
11/8/2022 1:00:00 AM 14.34 57.812 0.341 7.78 538.4 8.04
11/8/2022 1:15:00 AM 14.29 57.722 0.341 7.77 535.9 8.03
11/8/2022 1:30:00 AM 14.23 57.614 0.341 7.78 535.3 7.96
11/8/2022 1:45:00 AM 14.19 57.542 0.338 7.77 537 7.97
11/8/2022 2:00:00 AM 14.13 57.434 0.341 7.77 535 8
11/8/2022 2:15:00 AM 14.07 57.326 0.339 7.76 567.5 7.99
11/8/2022 2:30:00 AM 14.02 57.236 0.339 7.76 809.1 7.97
11/8/2022 2:45:00 AM 13.96 57.128 0.34 7.76 581.5 7.97
11/8/2022 3:00:00 AM 13.92 57.056 0.337 7.76 578.5 7.98
11/8/2022 3:15:00 AM 13.87 56.966 0.336 7.76 596.5 7.99
11/8/2022 3:30:00 AM 13.81 56.858 0.336 7.76 586.6 8.02
11/8/2022 3:45:00 AM 13.75 56.75 0.335 7.76 549.3 8
11/8/2022 4:00:00 AM 13.69 56.642 0.333 7.76 569.5 8.05
11/8/2022 4:15:00 AM 13.63 56.534 0.333 7.76 561.3 8.05
11/8/2022 4:30:00 AM 13.56 56.408 0.334 7.76 578.9 8.08
11/8/2022 4:45:00 AM 13.48 56.264 0.333 7.76 603 8.08
11/8/2022 5:00:00 AM 13.43 56.174 0.333 7.76 585.2 8.06
11/8/2022 5:15:00 AM 13.35 56.03 0.333 7.76 598.4 8.05
11/8/2022 5:30:00 AM 13.3 55.94 0.332 7.75 589.5 8.12
11/8/2022 5:45:00 AM 13.23 55.814 0.332 7.75 596.9 8.17
11/8/2022 6:00:00 AM 13.15 55.67 0.332 7.75 590.1 8.14
11/8/2022 6:15:00 AM 13.1 55.58 0.332 7.75 582.1 8.16
11/8/2022 6:30:00 AM 13.06 55.508 0.332 7.75 589.9 8.2
11/8/2022 6:45:00 AM 12.98 55.364 0.333 7.75 593.7 8.24
11/8/2022 7:00:00 AM 12.91 55.238 0.332 7.75 604.4 8.24
11/8/2022 7:15:00 AM 12.85 55.13 0.332 7.75 589.8 8.28
11/8/2022 7:30:00 AM 12.78 55.004 0.331 7.75 604.5 8.36
11/8/2022 7:45:00 AM 12.74 54.932 0.33 7.76 616.5 8.5
11/8/2022 8:00:00 AM 12.71 54.878 0.331 7.76 626.9 8.6
11/8/2022 8:15:00 AM 12.72 54.896 0.33 7.77 643.1 8.75
11/8/2022 8:30:00 AM 12.7 54.86 0.33 7.79 793.6 8.92
11/8/2022 8:45:00 AM 12.68 54.824 0.33 7.81 760.3 9.19
11/8/2022 9:00:00 AM 12.65 54.77 0.33 7.82 748 9.4
11/8/2022 9:15:00 AM 12.63 54.734 0.33 7.84 723.8 9.57
11/8/2022 9:30:00 AM 12.61 54.698 0.33 7.86 705.2 9.76
11/8/2022 9:45:00 AM 12.62 54.716 0.33 7.88 726.8 9.98
11/8/2022 10:00:00 AM 12.65 54.77 0.33 7.91 739.4 10.16
11/8/2022 10:15:00 AM 12.67 54.806 0.329 7.93 730 10.4
11/8/2022 10:30:00 AM 12.67 54.806 0.329 7.97 812.6 10.58
11/8/2022 10:45:00 AM 12.72 54.896 0.329 8 729.7 10.75
11/8/2022 11:00:00 AM 12.74 54.932 0.329 8.03 719.8 10.94
11/8/2022 11:15:00 AM 12.76 54.968 0.329 8.06 724.9 11.08
11/8/2022 11:30:00 AM 12.8 55.04 0.33 8.09 604.4 11.29
11/8/2022 11:45:00 AM 12.82 55.076 0.33 8.11 626.2 11.2
11/8/2022 12:00:00 PM 12.88 55.184 0.33 8.14 541.2 11.65
11/8/2022 12:15:00 PM 12.92 55.256 0.33 8.17 536.7 11.81
11/8/2022 12:30:00 PM 12.93 55.274 0.33 8.2 619.9 11.59
11/8/2022 12:45:00 PM 12.94 55.292 0.33 8.23 652.7 11.88
11/8/2022 1:00:00 PM 12.98 55.364 0.329 8.26 638.1 11.98
11/8/2022 1:15:00 PM 12.99 55.382 0.329 8.29 744.5 12.13
11/8/2022 1:30:00 PM 13.03 55.454 0.328 8.32 632 12.22
11/8/2022 1:45:00 PM 13.04 55.472 0.328 8.34 626.6 12.33
11/8/2022 2:00:00 PM 13.04 55.472 0.328 8.36 664.7 12.41
11/8/2022 2:15:00 PM 13.05 55.49 0.327 8.38 640.3 12.44
11/8/2022 2:30:00 PM 13.04 55.472 0.327 8.4 654.3 12.45
11/8/2022 2:45:00 PM 13.04 55.472 0.328 8.42 641.4 12.44
11/8/2022 3:00:00 PM 13.03 55.454 0.327 8.43 640.5 12.42
11/8/2022 3:15:00 PM 13.01 55.418 0.327 8.44 656.2 12.4
11/8/2022 3:30:00 PM 12.98 55.364 0.327 8.44 656.1 12.37
11/8/2022 3:45:00 PM 12.97 55.346 0.327 8.45 650.9 12.32
11/8/2022 4:00:00 PM 12.92 55.256 0.327 8.45 665.3 12.25
11/8/2022 4:15:00 PM 12.88 55.184 0.326 8.44 670.7 12.09
11/8/2022 4:30:00 PM 12.83 55.094 0.326 8.43 666.5 11.97
11/8/2022 4:45:00 PM 12.8 55.04 0.326 8.41 656.9 11.82
11/8/2022 5:00:00 PM 12.75 54.95 0.326 8.39 669.9 11.63
11/8/2022 5:15:00 PM 12.69 54.842 0.326 8.38 656.2 11.48
11/8/2022 5:30:00 PM 12.6 54.68 0.326 8.35 656 11.27
11/8/2022 5:45:00 PM 12.55 54.59 0.326 8.33 633.5 11.13
11/8/2022 6:00:00 PM 12.47 54.446 0.326 8.3 649.1 10.98
11/8/2022 6:15:00 PM 12.42 54.356 0.326 8.27 652.5 10.77
11/8/2022 6:30:00 PM 12.35 54.23 0.326 8.25 646.7 10.71
11/8/2022 6:45:00 PM 12.31 54.158 0.326 8.22 650.4 10.56
11/8/2022 7:00:00 PM 12.26 54.068 0.326 8.19 639.6 10.35
11/8/2022 7:15:00 PM 12.17 53.906 0.326 8.17 642.3 10.29
11/8/2022 7:30:00 PM 12.14 53.852 0.326 8.15 647.5 10.24
11/8/2022 7:45:00 PM 12.06 53.708 0.326 8.12 641.4 10.15
11/8/2022 8:00:00 PM 11.99 53.582 0.326 8.1 664.7 10.07
11/8/2022 8:15:00 PM 11.93 53.474 0.326 8.08 645.5 9.97
11/8/2022 8:30:00 PM 11.88 53.384 0.326 8.06 653.3 9.88
11/8/2022 8:45:00 PM 11.81 53.258 0.326 8.05 650.7 9.85
11/8/2022 9:00:00 PM 11.77 53.186 0.324 8.03 650 9.8
11/8/2022 9:15:00 PM 11.71 53.078 0.327 8.02 648.3 9.73
11/8/2022 9:30:00 PM 11.64 52.952 0.326 8 634.9 9.76
11/8/2022 9:45:00 PM 11.61 52.898 0.327 7.99 672.1 9.67
11/8/2022 10:00:00 PM 11.54 52.772 0.327 7.98 651.6 9.62
11/8/2022 10:15:00 PM 11.49 52.682 0.326 7.97 666.7 9.56
11/8/2022 10:30:00 PM 11.44 52.592 0.326 7.96 675.3 9.53
11/8/2022 10:45:00 PM 11.38 52.484 0.326 7.95 691 9.47
11/8/2022 11:00:00 PM 11.35 52.43 0.327 7.94 696 9.47
11/8/2022 11:15:00 PM 11.3 52.34 0.328 7.93 667.8 9.45
11/8/2022 11:30:00 PM 11.2 52.16 0.329 7.92 662 9.46
11/8/2022 11:45:00 PM 11.2 52.16 0.329 7.91 671.2 9.42
11/9/2022 12:00:00 AM 11.14 52.052 0.33 7.91 663.7 9.41
11/9/2022 12:15:00 AM 11.08 51.944 0.328 7.9 673.9 9.36
11/9/2022 12:30:00 AM 11.03 51.854 0.326 7.9 672.4 9.4
11/9/2022 12:45:00 AM 10.97 51.746 0.318 7.89 1116 9.4
11/9/2022 1:00:00 AM 10.95 51.71 0.316 7.89 695.5 9.33
11/9/2022 1:15:00 AM 10.89 51.602 0.32 7.89 678.6 9.39
11/9/2022 1:30:00 AM 10.83 51.494 0.33 7.89 683.2 9.39
11/9/2022 1:45:00 AM 10.81 51.458 0.329 7.88 676.6 9.36
11/9/2022 2:00:00 AM 10.76 51.368 0.329 7.88 710.4 9.39
11/9/2022 2:15:00 AM 10.7 51.26 0.33 7.88 665.9 9.35
11/9/2022 2:30:00 AM 10.66 51.188 0.33 7.88 652.2 9.39
11/9/2022 2:45:00 AM 10.63 51.134 0.33 7.87 664.7 9.44
11/9/2022 3:00:00 AM 10.58 51.044 0.33 7.87 668.4 9.42
11/9/2022 3:15:00 AM 10.51 50.918 0.33 7.87 660.9 9.37
11/9/2022 3:30:00 AM 10.5 50.9 0.33 7.87 656.3 9.36
11/9/2022 3:45:00 AM 10.44 50.792 0.328 7.87 662.2 9.36
11/9/2022 4:00:00 AM 10.37 50.666 0.332 7.87 686.3 9.36
11/9/2022 4:15:00 AM 10.36 50.648 0.329 7.87 710.4 9.37
11/9/2022 4:30:00 AM 10.28 50.504 0.328 7.86 606.3 9.43
11/9/2022 4:45:00 AM 10.24 50.432 0.328 7.86 618.2 9.39
11/9/2022 5:00:00 AM 10.22 50.396 0.328 7.86 611.2 9.38
11/9/2022 5:15:00 AM 10.17 50.306 0.328 7.86 620.5 9.43
11/9/2022 5:30:00 AM 10.08 50.144 0.329 7.86 631.9 9.36
11/9/2022 5:45:00 AM 10.03 50.054 0.329 7.86 655.7 9.42
11/9/2022 6:00:00 AM 10.01 50.018 0.329 7.86 643.6 9.44
11/9/2022 6:15:00 AM 9.92 49.856 0.329 7.86 559.8 9.46
11/9/2022 6:30:00 AM 9.85 49.73 0.33 7.85 577.6 9.47
11/9/2022 6:45:00 AM 9.79 49.622 0.329 7.85 559.7 9.52
11/9/2022 7:00:00 AM 9.76 49.568 0.329 7.85 602.4 9.56
11/9/2022 7:15:00 AM 9.7 49.46 0.328 7.85 582.5 9.55
11/9/2022 7:30:00 AM 9.64 49.352 0.328 7.85 586.2 9.57
11/9/2022 7:45:00 AM 9.59 49.262 0.328 7.85 579.2 9.73
11/9/2022 8:00:00 AM 9.57 49.226 0.328 7.86 587.6 9.79
11/9/2022 8:15:00 AM 9.57 49.226 0.328 7.86 571.7 10.03
11/9/2022 8:30:00 AM 9.58 49.244 0.329 7.88 584 10.1
11/9/2022 8:45:00 AM 9.58 49.244 0.329 7.89 570.2 10.25
11/9/2022 9:00:00 AM 9.62 49.316 0.329 7.89 557 10.39
11/9/2022 9:15:00 AM 9.6 49.28 0.329 7.91 542.3 10.57
11/9/2022 9:30:00 AM 9.61 49.298 0.329 7.93 559.8 10.69
11/9/2022 9:45:00 AM 9.67 49.406 0.329 7.96 560.5 10.94
11/9/2022 10:00:00 AM 9.68 49.424 0.329 7.99 584.3 11.11
11/9/2022 10:15:00 AM 9.71 49.478 0.329 8.02 574.8 11.34
11/9/2022 10:30:00 AM 9.76 49.568 0.329 8.04 565.7 11.48
11/9/2022 10:45:00 AM 9.79 49.622 0.328 8.06 571.9 11.66
11/9/2022 11:00:00 AM 9.83 49.694 0.328 8.08 583.5 11.83
11/9/2022 11:15:00 AM 9.89 49.802 0.286 8.11 552.7 12.04
11/9/2022 11:30:00 AM 9.94 49.892 0.329 8.12 560.4 12.21
11/9/2022 11:45:00 AM 10.05 50.09 0.329 8.15 553.5 12.27
11/9/2022 12:00:00 PM 10.05 50.09 0.33 8.18 626.9 12.49
11/9/2022 12:15:00 PM 10.07 50.126 0.33 8.2 622 12.63
11/9/2022 12:30:00 PM 10.14 50.252 0.33 8.24 626.6 12.75
11/9/2022 12:45:00 PM 10.19 50.342 0.33 8.26 630.5 12.89
11/9/2022 1:00:00 PM 10.24 50.432 0.329 8.3 620.6 13.06
11/9/2022 1:15:00 PM 10.31 50.558 0.329 8.32 615.8 13.16
11/9/2022 1:30:00 PM 10.34 50.612 0.328 8.35 602.9 13.21
11/9/2022 1:45:00 PM 10.37 50.666 0.328 8.38 643.6 13.36
11/9/2022 2:00:00 PM 10.42 50.756 0.327 8.42 629.6 13.4
11/9/2022 2:15:00 PM 10.44 50.792 0.327 8.44 652 13.44
11/9/2022 2:30:00 PM 10.47 50.846 0.327 8.46 651.8 13.43
11/9/2022 2:45:00 PM 10.49 50.882 0.327 8.48 643.7 13.46
11/9/2022 3:00:00 PM 10.54 50.972 0.327 8.49 618.9 13.44
11/9/2022 3:15:00 PM 10.55 50.99 0.326 8.5 992.2 13.46
11/9/2022 3:30:00 PM 10.54 50.972 0.329 8.51 868.1 13.4
11/9/2022 3:45:00 PM 10.57 51.026 0.326 8.51 966.9 13.28
11/9/2022 4:00:00 PM 10.56 51.008 0.325 8.51 1007 13.21
11/9/2022 4:15:00 PM 10.52 50.936 0.325 8.49 878.6 13.12
11/9/2022 4:30:00 PM 10.52 50.936 0.325 8.49 905.3 12.91
11/9/2022 4:45:00 PM 10.48 50.864 0.325 8.47 914.6 12.82
11/9/2022 5:00:00 PM 10.46 50.828 0.324 8.46 916.5 12.69
11/9/2022 5:15:00 PM 10.39 50.702 0.325 8.45 792.7 12.5
11/9/2022 5:30:00 PM 10.36 50.648 0.324 8.42 839.1 12.33
11/9/2022 5:45:00 PM 10.32 50.576 0.325 8.4 780.5 12.18
11/9/2022 6:00:00 PM 10.26 50.468 0.324 8.38 807.4 12
11/9/2022 6:15:00 PM 10.25 50.45 0.324 8.35 769.5 11.86
11/9/2022 6:30:00 PM 10.16 50.288 0.324 8.33 770.4 11.69
11/9/2022 6:45:00 PM 10.11 50.198 0.324 8.3 774.8 11.55
11/9/2022 7:00:00 PM 10.05 50.09 0.324 8.28 717.8 11.41
11/9/2022 7:15:00 PM 10.01 50.018 0.325 8.26 781.1 11.32
11/9/2022 7:30:00 PM 10 50 0.324 8.23 784 11.28
11/9/2022 7:45:00 PM 9.92 49.856 0.324 8.21 785.5 11.09
11/9/2022 8:00:00 PM 9.88 49.784 0.324 8.19 784.5 11.06
11/9/2022 8:15:00 PM 9.85 49.73 0.324 8.16 832.5 10.97
11/9/2022 8:30:00 PM 9.8 49.64 0.324 8.14 767.3 10.86
11/9/2022 8:45:00 PM 9.76 49.568 0.325 8.13 808.2 10.82
11/9/2022 9:00:00 PM 9.73 49.514 0.325 8.12 804.8 10.72
11/9/2022 9:15:00 PM 9.71 49.478 0.325 8.1 799.8 10.71
11/9/2022 9:30:00 PM 9.64 49.352 0.325 8.08 816.3 10.61
11/9/2022 9:45:00 PM 9.62 49.316 0.325 8.07 772.8 10.53
11/9/2022 10:00:00 PM 9.58 49.244 0.325 8.05 738.4 10.53
11/9/2022 10:15:00 PM 9.54 49.172 0.325 8.04 774.3 10.51
11/9/2022 10:30:00 PM 9.52 49.136 0.325 8.03 789.3 10.44
11/9/2022 10:45:00 PM 9.45 49.01 0.325 8.03 825.3 10.46
11/9/2022 11:00:00 PM 9.43 48.974 0.326 8.01 827.9 10.38
11/9/2022 11:15:00 PM 9.41 48.938 0.326 8 906.3 10.35
11/9/2022 11:30:00 PM 9.37 48.866 0.328 8 904.3 10.32
11/9/2022 11:45:00 PM 9.36 48.848 0.329 7.99 886.1 10.23
11/10/2022 12:00:00 AM 9.32 48.776 0.331 7.98 855 10.26
11/10/2022 12:15:00 AM 9.31 48.758 0.331 7.97 879.2 10.25
11/10/2022 12:30:00 AM 9.29 48.722 0.332 7.97 839.6 10.26
11/10/2022 12:45:00 AM 9.28 48.704 0.332 7.96 901.1 10.19
11/10/2022 1:00:00 AM 9.25 48.65 0.332 7.96 883.3 10.18
11/10/2022 1:15:00 AM 9.24 48.632 0.332 7.96 886.5 10.16
11/10/2022 1:30:00 AM 9.22 48.596 0.331 7.95 899.8 10.15
11/10/2022 1:45:00 AM 9.18 48.524 0.331 7.95 851.4 10.13
11/10/2022 2:00:00 AM 9.18 48.524 0.331 7.95 881.2 10.14
11/10/2022 2:15:00 AM 9.14 48.452 0.332 7.95 906.6 10.04
11/10/2022 2:30:00 AM 9.14 48.452 0.332 7.94 858.6 10.08
11/10/2022 2:45:00 AM 9.09 48.362 0.333 7.93 874.8 10.08
11/10/2022 3:00:00 AM 9.09 48.362 0.333 7.93 909.6 10.1
11/10/2022 3:15:00 AM 9.06 48.308 0.333 7.93 916.2 10.02
11/10/2022 3:30:00 AM 9.06 48.308 0.333 7.93 856.7 10.02
11/10/2022 3:45:00 AM 9.03 48.254 0.333 7.93 877 10.04
11/10/2022 4:00:00 AM 9.03 48.254 0.332 7.92 969.2 10
11/10/2022 4:15:00 AM 8.97 48.146 0.332 7.92 881 10.01
11/10/2022 4:30:00 AM 8.98 48.164 0.331 7.91 867.5 9.97
11/10/2022 4:45:00 AM 8.91 48.038 0.331 7.91 912.4 10.03
11/10/2022 5:00:00 AM 8.88 47.984 0.331 7.9 939.7 10.02
11/10/2022 5:15:00 AM 8.85 47.93 0.33 7.9 960.4 9.98
11/10/2022 5:30:00 AM 8.82 47.876 0.33 7.89 928.5 9.95
11/10/2022 5:45:00 AM 8.79 47.822 0.331 7.89 957 10
11/10/2022 6:00:00 AM 8.75 47.75 0.331 7.89 987.9 10.02
11/10/2022 6:15:00 AM 8.75 47.75 0.33 7.88 925.2 10.04
11/10/2022 6:30:00 AM 8.71 47.678 0.33 7.89 914.9 10
11/10/2022 6:45:00 AM 8.67 47.606 0.329 7.89 956.7 10.02
11/10/2022 7:00:00 AM 8.67 47.606 0.329 7.89 943.6 10.05
11/10/2022 7:15:00 AM 8.64 47.552 0.328 7.89 927.3 10.11
11/10/2022 7:30:00 AM 8.59 47.462 0.328 7.89